<?xml version="1.0" encoding="UTF-8" standalone="no" ?>
<gpx xmlns="http://www.topografix.com/GPX/1/1" xmlns:xsi="http://www.w3.org/2001/XMLSchema-instance" xsi:schemaLocation="http://www.topografix.com/GPX/1/1 http://www.topografix.com/GPX/1/1/gpx.xsd" version="1.1" creator="VisuGPX - https://www.visugpx.com">
  <metadata>
    <name>sentiers les quatres clochers</name>
    <desc><![CDATA[paysage vallonné , attention au balisage   environ 500 m apres le cap du bosc il y a deux direction indiquées , c\\\'est a droite qu\\\'il faut prendre ,. Environ 1 km avant serempuy le balisage est inexistant ou faux , apres le petit pont il faut quitter la route et suivre le ruisseau en remontant en bordure de champ pour arriver a une autre route .                                             ]]></desc>
  </metadata>
  <trk>
    <name><![CDATA[monfort 4 01 2015]]></name>
    <trkseg>
      <trkpt lat="43.79513" lon="0.8223">
        <ele>187.59</ele>
        <time>2015-01-04T09:13:28Z</time>
      </trkpt>
      <trkpt lat="43.79504" lon="0.82226">
        <ele>189.04</ele>
        <time>2015-01-04T09:13:52Z</time>
      </trkpt>
      <trkpt lat="43.79506" lon="0.82227">
        <ele>185.67</ele>
        <time>2015-01-04T09:14:22Z</time>
      </trkpt>
      <trkpt lat="43.79504" lon="0.82227">
        <ele>184.23</ele>
        <time>2015-01-04T09:14:47Z</time>
      </trkpt>
      <trkpt lat="43.79492" lon="0.82235">
        <ele>165.48</ele>
        <time>2015-01-04T09:15:03Z</time>
      </trkpt>
      <trkpt lat="43.79493" lon="0.82236">
        <ele>165.48</ele>
        <time>2015-01-04T09:15:04Z</time>
      </trkpt>
      <trkpt lat="43.79506" lon="0.82247">
        <ele>160.2</ele>
        <time>2015-01-04T09:15:21Z</time>
      </trkpt>
      <trkpt lat="43.79523" lon="0.82256">
        <ele>156.35</ele>
        <time>2015-01-04T09:15:36Z</time>
      </trkpt>
      <trkpt lat="43.79539" lon="0.82266">
        <ele>154.91</ele>
        <time>2015-01-04T09:15:52Z</time>
      </trkpt>
      <trkpt lat="43.79563" lon="0.82278">
        <ele>156.35</ele>
        <time>2015-01-04T09:16:12Z</time>
      </trkpt>
      <trkpt lat="43.79574" lon="0.82283">
        <ele>156.35</ele>
        <time>2015-01-04T09:16:21Z</time>
      </trkpt>
      <trkpt lat="43.79589" lon="0.82294">
        <ele>155.87</ele>
        <time>2015-01-04T09:16:37Z</time>
      </trkpt>
      <trkpt lat="43.79611" lon="0.82304">
        <ele>155.87</ele>
        <time>2015-01-04T09:16:57Z</time>
      </trkpt>
      <trkpt lat="43.79633" lon="0.82316">
        <ele>155.39</ele>
        <time>2015-01-04T09:17:16Z</time>
      </trkpt>
      <trkpt lat="43.79634" lon="0.82319">
        <ele>154.91</ele>
        <time>2015-01-04T09:17:18Z</time>
      </trkpt>
      <trkpt lat="43.79635" lon="0.82322">
        <ele>154.43</ele>
        <time>2015-01-04T09:17:20Z</time>
      </trkpt>
      <trkpt lat="43.79627" lon="0.82347">
        <ele>148.66</ele>
        <time>2015-01-04T09:17:37Z</time>
      </trkpt>
      <trkpt lat="43.79613" lon="0.82366">
        <ele>144.34</ele>
        <time>2015-01-04T09:17:56Z</time>
      </trkpt>
      <trkpt lat="43.79605" lon="0.82379">
        <ele>143.85</ele>
        <time>2015-01-04T09:18:09Z</time>
      </trkpt>
      <trkpt lat="43.79604" lon="0.82381">
        <ele>143.85</ele>
        <time>2015-01-04T09:18:10Z</time>
      </trkpt>
      <trkpt lat="43.79601" lon="0.82397">
        <ele>144.82</ele>
        <time>2015-01-04T09:18:22Z</time>
      </trkpt>
      <trkpt lat="43.79613" lon="0.82389">
        <ele>141.45</ele>
        <time>2015-01-04T09:18:37Z</time>
      </trkpt>
      <trkpt lat="43.79619" lon="0.82398">
        <ele>138.57</ele>
        <time>2015-01-04T09:18:50Z</time>
      </trkpt>
      <trkpt lat="43.79631" lon="0.82406">
        <ele>135.68</ele>
        <time>2015-01-04T09:19:04Z</time>
      </trkpt>
      <trkpt lat="43.79653" lon="0.82422">
        <ele>131.36</ele>
        <time>2015-01-04T09:19:24Z</time>
      </trkpt>
      <trkpt lat="43.79674" lon="0.82431">
        <ele>129.43</ele>
        <time>2015-01-04T09:19:42Z</time>
      </trkpt>
      <trkpt lat="43.79693" lon="0.82438">
        <ele>129.43</ele>
        <time>2015-01-04T09:19:58Z</time>
      </trkpt>
      <trkpt lat="43.79702" lon="0.82438">
        <ele>129.92</ele>
        <time>2015-01-04T09:20:05Z</time>
      </trkpt>
      <trkpt lat="43.79711" lon="0.8242">
        <ele>128.47</ele>
        <time>2015-01-04T09:20:22Z</time>
      </trkpt>
      <trkpt lat="43.79715" lon="0.82393">
        <ele>126.07</ele>
        <time>2015-01-04T09:20:43Z</time>
      </trkpt>
      <trkpt lat="43.79717" lon="0.82384">
        <ele>125.11</ele>
        <time>2015-01-04T09:20:50Z</time>
      </trkpt>
      <trkpt lat="43.79721" lon="0.82361">
        <ele>121.26</ele>
        <time>2015-01-04T09:21:06Z</time>
      </trkpt>
      <trkpt lat="43.79724" lon="0.82334">
        <ele>117.42</ele>
        <time>2015-01-04T09:21:24Z</time>
      </trkpt>
      <trkpt lat="43.79726" lon="0.82313">
        <ele>120.3</ele>
        <time>2015-01-04T09:21:37Z</time>
      </trkpt>
      <trkpt lat="43.79728" lon="0.82308">
        <ele>119.82</ele>
        <time>2015-01-04T09:21:40Z</time>
      </trkpt>
      <trkpt lat="43.79731" lon="0.8229">
        <ele>121.26</ele>
        <time>2015-01-04T09:21:54Z</time>
      </trkpt>
      <trkpt lat="43.79736" lon="0.82263">
        <ele>120.78</ele>
        <time>2015-01-04T09:22:10Z</time>
      </trkpt>
      <trkpt lat="43.79738" lon="0.82247">
        <ele>121.74</ele>
        <time>2015-01-04T09:22:21Z</time>
      </trkpt>
      <trkpt lat="43.79741" lon="0.82232">
        <ele>116.46</ele>
        <time>2015-01-04T09:22:36Z</time>
      </trkpt>
      <trkpt lat="43.79746" lon="0.82212">
        <ele>113.57</ele>
        <time>2015-01-04T09:22:50Z</time>
      </trkpt>
      <trkpt lat="43.79753" lon="0.82178">
        <ele>115.01</ele>
        <time>2015-01-04T09:23:07Z</time>
      </trkpt>
      <trkpt lat="43.79761" lon="0.82151">
        <ele>114.53</ele>
        <time>2015-01-04T09:23:24Z</time>
      </trkpt>
      <trkpt lat="43.79765" lon="0.82134">
        <ele>114.53</ele>
        <time>2015-01-04T09:23:35Z</time>
      </trkpt>
      <trkpt lat="43.7977" lon="0.82115">
        <ele>113.09</ele>
        <time>2015-01-04T09:23:47Z</time>
      </trkpt>
      <trkpt lat="43.7977" lon="0.82112">
        <ele>113.09</ele>
        <time>2015-01-04T09:23:49Z</time>
      </trkpt>
      <trkpt lat="43.79778" lon="0.8208">
        <ele>111.65</ele>
        <time>2015-01-04T09:24:09Z</time>
      </trkpt>
      <trkpt lat="43.79788" lon="0.82048">
        <ele>112.61</ele>
        <time>2015-01-04T09:24:29Z</time>
      </trkpt>
      <trkpt lat="43.79794" lon="0.82023">
        <ele>112.61</ele>
        <time>2015-01-04T09:24:45Z</time>
      </trkpt>
      <trkpt lat="43.79794" lon="0.82019">
        <ele>113.09</ele>
        <time>2015-01-04T09:24:47Z</time>
      </trkpt>
      <trkpt lat="43.79795" lon="0.82011">
        <ele>113.09</ele>
        <time>2015-01-04T09:24:52Z</time>
      </trkpt>
      <trkpt lat="43.79797" lon="0.82004">
        <ele>113.09</ele>
        <time>2015-01-04T09:24:57Z</time>
      </trkpt>
      <trkpt lat="43.798" lon="0.81996">
        <ele>111.65</ele>
        <time>2015-01-04T09:25:04Z</time>
      </trkpt>
      <trkpt lat="43.79819" lon="0.81978">
        <ele>113.09</ele>
        <time>2015-01-04T09:25:22Z</time>
      </trkpt>
      <trkpt lat="43.79839" lon="0.81959">
        <ele>115.98</ele>
        <time>2015-01-04T09:25:41Z</time>
      </trkpt>
      <trkpt lat="43.7986" lon="0.81946">
        <ele>117.9</ele>
        <time>2015-01-04T09:26:01Z</time>
      </trkpt>
      <trkpt lat="43.79879" lon="0.81932">
        <ele>118.86</ele>
        <time>2015-01-04T09:26:18Z</time>
      </trkpt>
      <trkpt lat="43.79898" lon="0.81923">
        <ele>119.82</ele>
        <time>2015-01-04T09:26:35Z</time>
      </trkpt>
      <trkpt lat="43.799" lon="0.81922">
        <ele>119.82</ele>
        <time>2015-01-04T09:26:36Z</time>
      </trkpt>
      <trkpt lat="43.79921" lon="0.81926">
        <ele>116.46</ele>
        <time>2015-01-04T09:26:56Z</time>
      </trkpt>
      <trkpt lat="43.79944" lon="0.81938">
        <ele>116.94</ele>
        <time>2015-01-04T09:27:14Z</time>
      </trkpt>
      <trkpt lat="43.79967" lon="0.81955">
        <ele>115.5</ele>
        <time>2015-01-04T09:27:35Z</time>
      </trkpt>
      <trkpt lat="43.7999" lon="0.81966">
        <ele>113.57</ele>
        <time>2015-01-04T09:27:54Z</time>
      </trkpt>
      <trkpt lat="43.80019" lon="0.81975">
        <ele>115.5</ele>
        <time>2015-01-04T09:28:15Z</time>
      </trkpt>
      <trkpt lat="43.80043" lon="0.81988">
        <ele>115.01</ele>
        <time>2015-01-04T09:28:35Z</time>
      </trkpt>
      <trkpt lat="43.80063" lon="0.81996">
        <ele>114.05</ele>
        <time>2015-01-04T09:28:52Z</time>
      </trkpt>
      <trkpt lat="43.80083" lon="0.82001">
        <ele>113.09</ele>
        <time>2015-01-04T09:29:08Z</time>
      </trkpt>
      <trkpt lat="43.80107" lon="0.82009">
        <ele>114.53</ele>
        <time>2015-01-04T09:29:27Z</time>
      </trkpt>
      <trkpt lat="43.80133" lon="0.82019">
        <ele>115.98</ele>
        <time>2015-01-04T09:29:49Z</time>
      </trkpt>
      <trkpt lat="43.80151" lon="0.82032">
        <ele>115.5</ele>
        <time>2015-01-04T09:30:06Z</time>
      </trkpt>
      <trkpt lat="43.80177" lon="0.82053">
        <ele>116.46</ele>
        <time>2015-01-04T09:30:28Z</time>
      </trkpt>
      <trkpt lat="43.80198" lon="0.82077">
        <ele>115.5</ele>
        <time>2015-01-04T09:30:51Z</time>
      </trkpt>
      <trkpt lat="43.80212" lon="0.82102">
        <ele>115.01</ele>
        <time>2015-01-04T09:31:10Z</time>
      </trkpt>
      <trkpt lat="43.80226" lon="0.82132">
        <ele>115.98</ele>
        <time>2015-01-04T09:31:31Z</time>
      </trkpt>
      <trkpt lat="43.80239" lon="0.82158">
        <ele>116.94</ele>
        <time>2015-01-04T09:31:51Z</time>
      </trkpt>
      <trkpt lat="43.80252" lon="0.82188">
        <ele>117.42</ele>
        <time>2015-01-04T09:32:13Z</time>
      </trkpt>
      <trkpt lat="43.80264" lon="0.82213">
        <ele>116.46</ele>
        <time>2015-01-04T09:32:31Z</time>
      </trkpt>
      <trkpt lat="43.80278" lon="0.82238">
        <ele>115.01</ele>
        <time>2015-01-04T09:32:50Z</time>
      </trkpt>
      <trkpt lat="43.80287" lon="0.82253">
        <ele>114.05</ele>
        <time>2015-01-04T09:33:01Z</time>
      </trkpt>
      <trkpt lat="43.803" lon="0.82277">
        <ele>113.57</ele>
        <time>2015-01-04T09:33:19Z</time>
      </trkpt>
      <trkpt lat="43.80313" lon="0.823">
        <ele>114.05</ele>
        <time>2015-01-04T09:33:35Z</time>
      </trkpt>
      <trkpt lat="43.80328" lon="0.82324">
        <ele>113.57</ele>
        <time>2015-01-04T09:33:54Z</time>
      </trkpt>
      <trkpt lat="43.80343" lon="0.8235">
        <ele>110.21</ele>
        <time>2015-01-04T09:34:13Z</time>
      </trkpt>
      <trkpt lat="43.80355" lon="0.82376">
        <ele>108.29</ele>
        <time>2015-01-04T09:34:31Z</time>
      </trkpt>
      <trkpt lat="43.80371" lon="0.82407">
        <ele>108.77</ele>
        <time>2015-01-04T09:34:53Z</time>
      </trkpt>
      <trkpt lat="43.80387" lon="0.82426">
        <ele>110.69</ele>
        <time>2015-01-04T09:35:10Z</time>
      </trkpt>
      <trkpt lat="43.80406" lon="0.82443">
        <ele>110.69</ele>
        <time>2015-01-04T09:35:27Z</time>
      </trkpt>
      <trkpt lat="43.80433" lon="0.82452">
        <ele>111.17</ele>
        <time>2015-01-04T09:35:47Z</time>
      </trkpt>
      <trkpt lat="43.80456" lon="0.82457">
        <ele>114.53</ele>
        <time>2015-01-04T09:36:07Z</time>
      </trkpt>
      <trkpt lat="43.80458" lon="0.82456">
        <ele>113.57</ele>
        <time>2015-01-04T09:36:14Z</time>
      </trkpt>
      <trkpt lat="43.80468" lon="0.82459">
        <ele>113.57</ele>
        <time>2015-01-04T09:36:22Z</time>
      </trkpt>
      <trkpt lat="43.80492" lon="0.82456">
        <ele>112.13</ele>
        <time>2015-01-04T09:36:42Z</time>
      </trkpt>
      <trkpt lat="43.80517" lon="0.82446">
        <ele>112.13</ele>
        <time>2015-01-04T09:37:02Z</time>
      </trkpt>
      <trkpt lat="43.80538" lon="0.8244">
        <ele>114.05</ele>
        <time>2015-01-04T09:37:20Z</time>
      </trkpt>
      <trkpt lat="43.80562" lon="0.82431">
        <ele>113.57</ele>
        <time>2015-01-04T09:37:39Z</time>
      </trkpt>
      <trkpt lat="43.80584" lon="0.82423">
        <ele>114.05</ele>
        <time>2015-01-04T09:37:58Z</time>
      </trkpt>
      <trkpt lat="43.80612" lon="0.82415">
        <ele>115.01</ele>
        <time>2015-01-04T09:38:20Z</time>
      </trkpt>
      <trkpt lat="43.8064" lon="0.82415">
        <ele>115.5</ele>
        <time>2015-01-04T09:38:41Z</time>
      </trkpt>
      <trkpt lat="43.80661" lon="0.82416">
        <ele>115.98</ele>
        <time>2015-01-04T09:38:59Z</time>
      </trkpt>
      <trkpt lat="43.80687" lon="0.82417">
        <ele>114.53</ele>
        <time>2015-01-04T09:39:19Z</time>
      </trkpt>
      <trkpt lat="43.80714" lon="0.82423">
        <ele>115.01</ele>
        <time>2015-01-04T09:39:41Z</time>
      </trkpt>
      <trkpt lat="43.80736" lon="0.82442">
        <ele>114.05</ele>
        <time>2015-01-04T09:40:02Z</time>
      </trkpt>
      <trkpt lat="43.80752" lon="0.82474">
        <ele>113.09</ele>
        <time>2015-01-04T09:40:23Z</time>
      </trkpt>
      <trkpt lat="43.80769" lon="0.82496">
        <ele>112.13</ele>
        <time>2015-01-04T09:40:42Z</time>
      </trkpt>
      <trkpt lat="43.80795" lon="0.82508">
        <ele>113.09</ele>
        <time>2015-01-04T09:41:04Z</time>
      </trkpt>
      <trkpt lat="43.80802" lon="0.82511">
        <ele>113.09</ele>
        <time>2015-01-04T09:41:10Z</time>
      </trkpt>
      <trkpt lat="43.80829" lon="0.82522">
        <ele>114.05</ele>
        <time>2015-01-04T09:41:32Z</time>
      </trkpt>
      <trkpt lat="43.80849" lon="0.82532">
        <ele>114.53</ele>
        <time>2015-01-04T09:41:48Z</time>
      </trkpt>
      <trkpt lat="43.80853" lon="0.8252">
        <ele>114.05</ele>
        <time>2015-01-04T09:41:58Z</time>
      </trkpt>
      <trkpt lat="43.80858" lon="0.82497">
        <ele>112.13</ele>
        <time>2015-01-04T09:42:15Z</time>
      </trkpt>
      <trkpt lat="43.80868" lon="0.82471">
        <ele>112.61</ele>
        <time>2015-01-04T09:42:32Z</time>
      </trkpt>
      <trkpt lat="43.80879" lon="0.82444">
        <ele>113.57</ele>
        <time>2015-01-04T09:42:52Z</time>
      </trkpt>
      <trkpt lat="43.80889" lon="0.82416">
        <ele>113.09</ele>
        <time>2015-01-04T09:43:10Z</time>
      </trkpt>
      <trkpt lat="43.80899" lon="0.8239">
        <ele>114.05</ele>
        <time>2015-01-04T09:43:28Z</time>
      </trkpt>
      <trkpt lat="43.80909" lon="0.82368">
        <ele>114.05</ele>
        <time>2015-01-04T09:43:45Z</time>
      </trkpt>
      <trkpt lat="43.80917" lon="0.82351">
        <ele>113.57</ele>
        <time>2015-01-04T09:44:00Z</time>
      </trkpt>
      <trkpt lat="43.80919" lon="0.82345">
        <ele>114.05</ele>
        <time>2015-01-04T09:44:04Z</time>
      </trkpt>
      <trkpt lat="43.80922" lon="0.82338">
        <ele>114.53</ele>
        <time>2015-01-04T09:44:09Z</time>
      </trkpt>
      <trkpt lat="43.80923" lon="0.82336">
        <ele>114.53</ele>
        <time>2015-01-04T09:44:11Z</time>
      </trkpt>
      <trkpt lat="43.80936" lon="0.82312">
        <ele>115.98</ele>
        <time>2015-01-04T09:44:30Z</time>
      </trkpt>
      <trkpt lat="43.80948" lon="0.82289">
        <ele>118.38</ele>
        <time>2015-01-04T09:44:48Z</time>
      </trkpt>
      <trkpt lat="43.8096" lon="0.82268">
        <ele>118.38</ele>
        <time>2015-01-04T09:45:05Z</time>
      </trkpt>
      <trkpt lat="43.80974" lon="0.82246">
        <ele>120.3</ele>
        <time>2015-01-04T09:45:23Z</time>
      </trkpt>
      <trkpt lat="43.80984" lon="0.82227">
        <ele>121.74</ele>
        <time>2015-01-04T09:45:39Z</time>
      </trkpt>
      <trkpt lat="43.80998" lon="0.82223">
        <ele>120.78</ele>
        <time>2015-01-04T09:45:54Z</time>
      </trkpt>
      <trkpt lat="43.81011" lon="0.82209">
        <ele>122.22</ele>
        <time>2015-01-04T09:46:10Z</time>
      </trkpt>
      <trkpt lat="43.81026" lon="0.82195">
        <ele>123.19</ele>
        <time>2015-01-04T09:46:29Z</time>
      </trkpt>
      <trkpt lat="43.8104" lon="0.82171">
        <ele>126.07</ele>
        <time>2015-01-04T09:46:46Z</time>
      </trkpt>
      <trkpt lat="43.81054" lon="0.8215">
        <ele>124.15</ele>
        <time>2015-01-04T09:47:05Z</time>
      </trkpt>
      <trkpt lat="43.81069" lon="0.82135">
        <ele>123.19</ele>
        <time>2015-01-04T09:47:22Z</time>
      </trkpt>
      <trkpt lat="43.81079" lon="0.82127">
        <ele>123.67</ele>
        <time>2015-01-04T09:47:35Z</time>
      </trkpt>
      <trkpt lat="43.81091" lon="0.82121">
        <ele>126.55</ele>
        <time>2015-01-04T09:47:49Z</time>
      </trkpt>
      <trkpt lat="43.81107" lon="0.82121">
        <ele>131.36</ele>
        <time>2015-01-04T09:48:06Z</time>
      </trkpt>
      <trkpt lat="43.81125" lon="0.82117">
        <ele>137.13</ele>
        <time>2015-01-04T09:48:23Z</time>
      </trkpt>
      <trkpt lat="43.81137" lon="0.82101">
        <ele>142.89</ele>
        <time>2015-01-04T09:48:39Z</time>
      </trkpt>
      <trkpt lat="43.81147" lon="0.82109">
        <ele>143.37</ele>
        <time>2015-01-04T09:48:59Z</time>
      </trkpt>
      <trkpt lat="43.81152" lon="0.82129">
        <ele>145.3</ele>
        <time>2015-01-04T09:49:15Z</time>
      </trkpt>
      <trkpt lat="43.81158" lon="0.82146">
        <ele>145.3</ele>
        <time>2015-01-04T09:49:33Z</time>
      </trkpt>
      <trkpt lat="43.8116" lon="0.82165">
        <ele>145.3</ele>
        <time>2015-01-04T09:49:50Z</time>
      </trkpt>
      <trkpt lat="43.81154" lon="0.82186">
        <ele>151.06</ele>
        <time>2015-01-04T09:50:06Z</time>
      </trkpt>
      <trkpt lat="43.8115" lon="0.82196">
        <ele>153.47</ele>
        <time>2015-01-04T09:50:14Z</time>
      </trkpt>
      <trkpt lat="43.81141" lon="0.82213">
        <ele>157.31</ele>
        <time>2015-01-04T09:50:30Z</time>
      </trkpt>
      <trkpt lat="43.8114" lon="0.82215">
        <ele>157.31</ele>
        <time>2015-01-04T09:50:43Z</time>
      </trkpt>
      <trkpt lat="43.81139" lon="0.82213">
        <ele>157.31</ele>
        <time>2015-01-04T09:50:54Z</time>
      </trkpt>
      <trkpt lat="43.81141" lon="0.82217">
        <ele>159.24</ele>
        <time>2015-01-04T09:51:07Z</time>
      </trkpt>
      <trkpt lat="43.81141" lon="0.82217">
        <ele>162.12</ele>
        <time>2015-01-04T09:51:28Z</time>
      </trkpt>
      <trkpt lat="43.81141" lon="0.82216">
        <ele>161.64</ele>
        <time>2015-01-04T09:51:48Z</time>
      </trkpt>
      <trkpt lat="43.81139" lon="0.82216">
        <ele>163.56</ele>
        <time>2015-01-04T09:52:05Z</time>
      </trkpt>
      <trkpt lat="43.81142" lon="0.82213">
        <ele>162.6</ele>
        <time>2015-01-04T09:52:31Z</time>
      </trkpt>
      <trkpt lat="43.81142" lon="0.82214">
        <ele>163.08</ele>
        <time>2015-01-04T09:52:58Z</time>
      </trkpt>
      <trkpt lat="43.8114" lon="0.82215">
        <ele>162.12</ele>
        <time>2015-01-04T09:53:28Z</time>
      </trkpt>
      <trkpt lat="43.81143" lon="0.82216">
        <ele>162.12</ele>
        <time>2015-01-04T09:53:41Z</time>
      </trkpt>
      <trkpt lat="43.81147" lon="0.82217">
        <ele>161.64</ele>
        <time>2015-01-04T09:53:44Z</time>
      </trkpt>
      <trkpt lat="43.81169" lon="0.82233">
        <ele>161.64</ele>
        <time>2015-01-04T09:54:05Z</time>
      </trkpt>
      <trkpt lat="43.81187" lon="0.82248">
        <ele>162.6</ele>
        <time>2015-01-04T09:54:23Z</time>
      </trkpt>
      <trkpt lat="43.81207" lon="0.82261">
        <ele>161.64</ele>
        <time>2015-01-04T09:54:41Z</time>
      </trkpt>
      <trkpt lat="43.81228" lon="0.82277">
        <ele>162.6</ele>
        <time>2015-01-04T09:55:00Z</time>
      </trkpt>
      <trkpt lat="43.81247" lon="0.82288">
        <ele>162.6</ele>
        <time>2015-01-04T09:55:18Z</time>
      </trkpt>
      <trkpt lat="43.8127" lon="0.82296">
        <ele>164.52</ele>
        <time>2015-01-04T09:55:39Z</time>
      </trkpt>
      <trkpt lat="43.81287" lon="0.82302">
        <ele>166.45</ele>
        <time>2015-01-04T09:55:55Z</time>
      </trkpt>
      <trkpt lat="43.81305" lon="0.82308">
        <ele>169.81</ele>
        <time>2015-01-04T09:56:11Z</time>
      </trkpt>
      <trkpt lat="43.81335" lon="0.82319">
        <ele>172.21</ele>
        <time>2015-01-04T09:56:36Z</time>
      </trkpt>
      <trkpt lat="43.81357" lon="0.82329">
        <ele>172.69</ele>
        <time>2015-01-04T09:56:54Z</time>
      </trkpt>
      <trkpt lat="43.81382" lon="0.82342">
        <ele>172.21</ele>
        <time>2015-01-04T09:57:15Z</time>
      </trkpt>
      <trkpt lat="43.81411" lon="0.82358">
        <ele>174.14</ele>
        <time>2015-01-04T09:57:38Z</time>
      </trkpt>
      <trkpt lat="43.81427" lon="0.82362">
        <ele>176.06</ele>
        <time>2015-01-04T09:57:52Z</time>
      </trkpt>
      <trkpt lat="43.81429" lon="0.82358">
        <ele>176.54</ele>
        <time>2015-01-04T09:57:56Z</time>
      </trkpt>
      <trkpt lat="43.81427" lon="0.82334">
        <ele>178.46</ele>
        <time>2015-01-04T09:58:12Z</time>
      </trkpt>
      <trkpt lat="43.81422" lon="0.82307">
        <ele>178.46</ele>
        <time>2015-01-04T09:58:30Z</time>
      </trkpt>
      <trkpt lat="43.81415" lon="0.82273">
        <ele>177.5</ele>
        <time>2015-01-04T09:58:52Z</time>
      </trkpt>
      <trkpt lat="43.8141" lon="0.82255">
        <ele>177.98</ele>
        <time>2015-01-04T09:59:10Z</time>
      </trkpt>
      <trkpt lat="43.81408" lon="0.82244">
        <ele>178.46</ele>
        <time>2015-01-04T09:59:20Z</time>
      </trkpt>
      <trkpt lat="43.81403" lon="0.82218">
        <ele>177.5</ele>
        <time>2015-01-04T09:59:39Z</time>
      </trkpt>
      <trkpt lat="43.81399" lon="0.82191">
        <ele>176.54</ele>
        <time>2015-01-04T09:59:57Z</time>
      </trkpt>
      <trkpt lat="43.81394" lon="0.82158">
        <ele>177.98</ele>
        <time>2015-01-04T10:00:16Z</time>
      </trkpt>
      <trkpt lat="43.81393" lon="0.82125">
        <ele>177.5</ele>
        <time>2015-01-04T10:00:35Z</time>
      </trkpt>
      <trkpt lat="43.81394" lon="0.82087">
        <ele>175.58</ele>
        <time>2015-01-04T10:00:56Z</time>
      </trkpt>
      <trkpt lat="43.81395" lon="0.8205">
        <ele>175.1</ele>
        <time>2015-01-04T10:01:17Z</time>
      </trkpt>
      <trkpt lat="43.81396" lon="0.82017">
        <ele>175.1</ele>
        <time>2015-01-04T10:01:37Z</time>
      </trkpt>
      <trkpt lat="43.81397" lon="0.8201">
        <ele>175.58</ele>
        <time>2015-01-04T10:01:49Z</time>
      </trkpt>
      <trkpt lat="43.81398" lon="0.82">
        <ele>174.62</ele>
        <time>2015-01-04T10:01:57Z</time>
      </trkpt>
      <trkpt lat="43.81398" lon="0.81975">
        <ele>173.17</ele>
        <time>2015-01-04T10:02:14Z</time>
      </trkpt>
      <trkpt lat="43.81399" lon="0.81937">
        <ele>173.17</ele>
        <time>2015-01-04T10:02:36Z</time>
      </trkpt>
      <trkpt lat="43.81397" lon="0.819">
        <ele>176.06</ele>
        <time>2015-01-04T10:02:57Z</time>
      </trkpt>
      <trkpt lat="43.81397" lon="0.8187">
        <ele>175.1</ele>
        <time>2015-01-04T10:03:14Z</time>
      </trkpt>
      <trkpt lat="43.81397" lon="0.81834">
        <ele>175.58</ele>
        <time>2015-01-04T10:03:35Z</time>
      </trkpt>
      <trkpt lat="43.81397" lon="0.81819">
        <ele>175.1</ele>
        <time>2015-01-04T10:03:49Z</time>
      </trkpt>
      <trkpt lat="43.81395" lon="0.81785">
        <ele>175.58</ele>
        <time>2015-01-04T10:04:10Z</time>
      </trkpt>
      <trkpt lat="43.81397" lon="0.81751">
        <ele>175.1</ele>
        <time>2015-01-04T10:04:31Z</time>
      </trkpt>
      <trkpt lat="43.81397" lon="0.81711">
        <ele>176.54</ele>
        <time>2015-01-04T10:04:54Z</time>
      </trkpt>
      <trkpt lat="43.81398" lon="0.81671">
        <ele>174.62</ele>
        <time>2015-01-04T10:05:16Z</time>
      </trkpt>
      <trkpt lat="43.81403" lon="0.81627">
        <ele>173.66</ele>
        <time>2015-01-04T10:05:41Z</time>
      </trkpt>
      <trkpt lat="43.81407" lon="0.81586">
        <ele>174.14</ele>
        <time>2015-01-04T10:06:05Z</time>
      </trkpt>
      <trkpt lat="43.81412" lon="0.81555">
        <ele>173.17</ele>
        <time>2015-01-04T10:06:25Z</time>
      </trkpt>
      <trkpt lat="43.81416" lon="0.81525">
        <ele>172.69</ele>
        <time>2015-01-04T10:06:43Z</time>
      </trkpt>
      <trkpt lat="43.8142" lon="0.81487">
        <ele>172.21</ele>
        <time>2015-01-04T10:07:04Z</time>
      </trkpt>
      <trkpt lat="43.81421" lon="0.81443">
        <ele>173.66</ele>
        <time>2015-01-04T10:07:29Z</time>
      </trkpt>
      <trkpt lat="43.8142" lon="0.81399">
        <ele>174.62</ele>
        <time>2015-01-04T10:07:52Z</time>
      </trkpt>
      <trkpt lat="43.81421" lon="0.81375">
        <ele>174.14</ele>
        <time>2015-01-04T10:08:10Z</time>
      </trkpt>
      <trkpt lat="43.81419" lon="0.81342">
        <ele>173.66</ele>
        <time>2015-01-04T10:08:28Z</time>
      </trkpt>
      <trkpt lat="43.81419" lon="0.81302">
        <ele>177.02</ele>
        <time>2015-01-04T10:08:50Z</time>
      </trkpt>
      <trkpt lat="43.81418" lon="0.8127">
        <ele>177.5</ele>
        <time>2015-01-04T10:09:09Z</time>
      </trkpt>
      <trkpt lat="43.81419" lon="0.81228">
        <ele>178.94</ele>
        <time>2015-01-04T10:09:32Z</time>
      </trkpt>
      <trkpt lat="43.8142" lon="0.8119">
        <ele>180.87</ele>
        <time>2015-01-04T10:09:52Z</time>
      </trkpt>
      <trkpt lat="43.8142" lon="0.81154">
        <ele>181.83</ele>
        <time>2015-01-04T10:10:12Z</time>
      </trkpt>
      <trkpt lat="43.81422" lon="0.81119">
        <ele>180.87</ele>
        <time>2015-01-04T10:10:32Z</time>
      </trkpt>
      <trkpt lat="43.81423" lon="0.81083">
        <ele>181.83</ele>
        <time>2015-01-04T10:10:51Z</time>
      </trkpt>
      <trkpt lat="43.81423" lon="0.81043">
        <ele>181.83</ele>
        <time>2015-01-04T10:11:14Z</time>
      </trkpt>
      <trkpt lat="43.81425" lon="0.81004">
        <ele>181.83</ele>
        <time>2015-01-04T10:11:36Z</time>
      </trkpt>
      <trkpt lat="43.81424" lon="0.8097">
        <ele>182.31</ele>
        <time>2015-01-04T10:11:55Z</time>
      </trkpt>
      <trkpt lat="43.81423" lon="0.80927">
        <ele>183.75</ele>
        <time>2015-01-04T10:12:19Z</time>
      </trkpt>
      <trkpt lat="43.81422" lon="0.8089">
        <ele>184.23</ele>
        <time>2015-01-04T10:12:39Z</time>
      </trkpt>
      <trkpt lat="43.81421" lon="0.80852">
        <ele>184.23</ele>
        <time>2015-01-04T10:13:01Z</time>
      </trkpt>
      <trkpt lat="43.81418" lon="0.80808">
        <ele>185.19</ele>
        <time>2015-01-04T10:13:25Z</time>
      </trkpt>
      <trkpt lat="43.81418" lon="0.80784">
        <ele>185.67</ele>
        <time>2015-01-04T10:13:39Z</time>
      </trkpt>
      <trkpt lat="43.81405" lon="0.80766">
        <ele>186.15</ele>
        <time>2015-01-04T10:13:57Z</time>
      </trkpt>
      <trkpt lat="43.81388" lon="0.80773">
        <ele>182.31</ele>
        <time>2015-01-04T10:14:13Z</time>
      </trkpt>
      <trkpt lat="43.81366" lon="0.80781">
        <ele>180.87</ele>
        <time>2015-01-04T10:14:28Z</time>
      </trkpt>
      <trkpt lat="43.81349" lon="0.8079">
        <ele>179.9</ele>
        <time>2015-01-04T10:14:42Z</time>
      </trkpt>
      <trkpt lat="43.81324" lon="0.808">
        <ele>177.5</ele>
        <time>2015-01-04T10:15:02Z</time>
      </trkpt>
      <trkpt lat="43.81297" lon="0.8081">
        <ele>175.1</ele>
        <time>2015-01-04T10:15:24Z</time>
      </trkpt>
      <trkpt lat="43.81279" lon="0.80815">
        <ele>174.14</ele>
        <time>2015-01-04T10:15:39Z</time>
      </trkpt>
      <trkpt lat="43.81271" lon="0.80816">
        <ele>173.17</ele>
        <time>2015-01-04T10:15:46Z</time>
      </trkpt>
      <trkpt lat="43.81265" lon="0.80816">
        <ele>172.21</ele>
        <time>2015-01-04T10:15:50Z</time>
      </trkpt>
      <trkpt lat="43.8124" lon="0.80817">
        <ele>169.81</ele>
        <time>2015-01-04T10:16:10Z</time>
      </trkpt>
      <trkpt lat="43.81222" lon="0.80814">
        <ele>169.33</ele>
        <time>2015-01-04T10:16:24Z</time>
      </trkpt>
      <trkpt lat="43.81216" lon="0.80813">
        <ele>169.33</ele>
        <time>2015-01-04T10:16:29Z</time>
      </trkpt>
      <trkpt lat="43.81192" lon="0.80809">
        <ele>168.37</ele>
        <time>2015-01-04T10:16:49Z</time>
      </trkpt>
      <trkpt lat="43.81179" lon="0.80804">
        <ele>167.41</ele>
        <time>2015-01-04T10:17:00Z</time>
      </trkpt>
      <trkpt lat="43.81166" lon="0.80802">
        <ele>166.45</ele>
        <time>2015-01-04T10:17:10Z</time>
      </trkpt>
      <trkpt lat="43.81153" lon="0.80796">
        <ele>165.48</ele>
        <time>2015-01-04T10:17:22Z</time>
      </trkpt>
      <trkpt lat="43.81144" lon="0.80792">
        <ele>165.48</ele>
        <time>2015-01-04T10:17:29Z</time>
      </trkpt>
      <trkpt lat="43.8112" lon="0.80786">
        <ele>164.52</ele>
        <time>2015-01-04T10:17:49Z</time>
      </trkpt>
      <trkpt lat="43.81098" lon="0.8078">
        <ele>162.12</ele>
        <time>2015-01-04T10:18:07Z</time>
      </trkpt>
      <trkpt lat="43.8107" lon="0.80773">
        <ele>162.12</ele>
        <time>2015-01-04T10:18:29Z</time>
      </trkpt>
      <trkpt lat="43.81052" lon="0.80771">
        <ele>163.08</ele>
        <time>2015-01-04T10:18:43Z</time>
      </trkpt>
      <trkpt lat="43.81049" lon="0.8077">
        <ele>164.04</ele>
        <time>2015-01-04T10:18:45Z</time>
      </trkpt>
      <trkpt lat="43.81043" lon="0.80769">
        <ele>165</ele>
        <time>2015-01-04T10:18:50Z</time>
      </trkpt>
      <trkpt lat="43.81033" lon="0.8077">
        <ele>164.52</ele>
        <time>2015-01-04T10:18:58Z</time>
      </trkpt>
      <trkpt lat="43.8103" lon="0.8077">
        <ele>164.04</ele>
        <time>2015-01-04T10:19:00Z</time>
      </trkpt>
      <trkpt lat="43.81007" lon="0.80772">
        <ele>160.68</ele>
        <time>2015-01-04T10:19:20Z</time>
      </trkpt>
      <trkpt lat="43.80987" lon="0.80774">
        <ele>160.2</ele>
        <time>2015-01-04T10:19:36Z</time>
      </trkpt>
      <trkpt lat="43.80967" lon="0.80776">
        <ele>160.68</ele>
        <time>2015-01-04T10:19:52Z</time>
      </trkpt>
      <trkpt lat="43.80943" lon="0.80776">
        <ele>159.72</ele>
        <time>2015-01-04T10:20:10Z</time>
      </trkpt>
      <trkpt lat="43.80916" lon="0.80778">
        <ele>160.2</ele>
        <time>2015-01-04T10:20:32Z</time>
      </trkpt>
      <trkpt lat="43.80889" lon="0.8078">
        <ele>163.56</ele>
        <time>2015-01-04T10:20:52Z</time>
      </trkpt>
      <trkpt lat="43.80875" lon="0.80781">
        <ele>163.08</ele>
        <time>2015-01-04T10:21:03Z</time>
      </trkpt>
      <trkpt lat="43.80869" lon="0.8078">
        <ele>162.6</ele>
        <time>2015-01-04T10:21:08Z</time>
      </trkpt>
      <trkpt lat="43.80842" lon="0.80779">
        <ele>161.16</ele>
        <time>2015-01-04T10:21:29Z</time>
      </trkpt>
      <trkpt lat="43.80817" lon="0.8078">
        <ele>159.72</ele>
        <time>2015-01-04T10:21:50Z</time>
      </trkpt>
      <trkpt lat="43.8079" lon="0.80778">
        <ele>161.16</ele>
        <time>2015-01-04T10:22:12Z</time>
      </trkpt>
      <trkpt lat="43.80785" lon="0.80778">
        <ele>161.64</ele>
        <time>2015-01-04T10:22:16Z</time>
      </trkpt>
      <trkpt lat="43.8076" lon="0.80779">
        <ele>160.68</ele>
        <time>2015-01-04T10:22:35Z</time>
      </trkpt>
      <trkpt lat="43.80736" lon="0.8078">
        <ele>160.2</ele>
        <time>2015-01-04T10:22:54Z</time>
      </trkpt>
      <trkpt lat="43.80707" lon="0.80779">
        <ele>161.16</ele>
        <time>2015-01-04T10:23:16Z</time>
      </trkpt>
      <trkpt lat="43.80682" lon="0.8078">
        <ele>163.08</ele>
        <time>2015-01-04T10:23:36Z</time>
      </trkpt>
      <trkpt lat="43.80655" lon="0.80782">
        <ele>165.48</ele>
        <time>2015-01-04T10:23:57Z</time>
      </trkpt>
      <trkpt lat="43.8063" lon="0.80781">
        <ele>167.89</ele>
        <time>2015-01-04T10:24:17Z</time>
      </trkpt>
      <trkpt lat="43.8061" lon="0.80781">
        <ele>169.81</ele>
        <time>2015-01-04T10:24:35Z</time>
      </trkpt>
      <trkpt lat="43.80596" lon="0.80788">
        <ele>170.29</ele>
        <time>2015-01-04T10:24:48Z</time>
      </trkpt>
      <trkpt lat="43.80585" lon="0.80794">
        <ele>169.33</ele>
        <time>2015-01-04T10:25:00Z</time>
      </trkpt>
      <trkpt lat="43.80576" lon="0.80782">
        <ele>168.85</ele>
        <time>2015-01-04T10:25:13Z</time>
      </trkpt>
      <trkpt lat="43.80566" lon="0.80767">
        <ele>168.37</ele>
        <time>2015-01-04T10:25:29Z</time>
      </trkpt>
      <trkpt lat="43.80554" lon="0.80751">
        <ele>166.93</ele>
        <time>2015-01-04T10:25:46Z</time>
      </trkpt>
      <trkpt lat="43.80556" lon="0.8075">
        <ele>165</ele>
        <time>2015-01-04T10:26:11Z</time>
      </trkpt>
      <trkpt lat="43.80555" lon="0.80751">
        <ele>166.93</ele>
        <time>2015-01-04T10:26:29Z</time>
      </trkpt>
      <trkpt lat="43.80554" lon="0.80752">
        <ele>168.37</ele>
        <time>2015-01-04T10:26:52Z</time>
      </trkpt>
      <trkpt lat="43.80554" lon="0.80752">
        <ele>167.89</ele>
        <time>2015-01-04T10:27:16Z</time>
      </trkpt>
      <trkpt lat="43.80555" lon="0.80752">
        <ele>166.93</ele>
        <time>2015-01-04T10:27:30Z</time>
      </trkpt>
      <trkpt lat="43.80555" lon="0.80751">
        <ele>166.45</ele>
        <time>2015-01-04T10:27:48Z</time>
      </trkpt>
      <trkpt lat="43.80555" lon="0.80751">
        <ele>165.48</ele>
        <time>2015-01-04T10:28:07Z</time>
      </trkpt>
      <trkpt lat="43.80554" lon="0.80751">
        <ele>167.41</ele>
        <time>2015-01-04T10:28:25Z</time>
      </trkpt>
      <trkpt lat="43.80555" lon="0.80751">
        <ele>165.96</ele>
        <time>2015-01-04T10:28:39Z</time>
      </trkpt>
      <trkpt lat="43.80555" lon="0.80752">
        <ele>165.48</ele>
        <time>2015-01-04T10:29:07Z</time>
      </trkpt>
      <trkpt lat="43.80548" lon="0.80743">
        <ele>165</ele>
        <time>2015-01-04T10:29:21Z</time>
      </trkpt>
      <trkpt lat="43.80547" lon="0.80742">
        <ele>165</ele>
        <time>2015-01-04T10:29:22Z</time>
      </trkpt>
      <trkpt lat="43.80542" lon="0.80736">
        <ele>163.56</ele>
        <time>2015-01-04T10:29:29Z</time>
      </trkpt>
      <trkpt lat="43.80529" lon="0.80716">
        <ele>161.16</ele>
        <time>2015-01-04T10:29:46Z</time>
      </trkpt>
      <trkpt lat="43.80512" lon="0.80697">
        <ele>160.2</ele>
        <time>2015-01-04T10:30:04Z</time>
      </trkpt>
      <trkpt lat="43.80497" lon="0.80677">
        <ele>159.24</ele>
        <time>2015-01-04T10:30:22Z</time>
      </trkpt>
      <trkpt lat="43.80495" lon="0.80674">
        <ele>158.75</ele>
        <time>2015-01-04T10:30:24Z</time>
      </trkpt>
      <trkpt lat="43.80493" lon="0.80672">
        <ele>158.75</ele>
        <time>2015-01-04T10:30:26Z</time>
      </trkpt>
      <trkpt lat="43.80486" lon="0.80663">
        <ele>159.24</ele>
        <time>2015-01-04T10:30:34Z</time>
      </trkpt>
      <trkpt lat="43.80468" lon="0.8064">
        <ele>160.2</ele>
        <time>2015-01-04T10:30:53Z</time>
      </trkpt>
      <trkpt lat="43.80449" lon="0.80613">
        <ele>161.16</ele>
        <time>2015-01-04T10:31:13Z</time>
      </trkpt>
      <trkpt lat="43.80433" lon="0.80597">
        <ele>158.75</ele>
        <time>2015-01-04T10:31:29Z</time>
      </trkpt>
      <trkpt lat="43.80431" lon="0.80595">
        <ele>158.75</ele>
        <time>2015-01-04T10:31:31Z</time>
      </trkpt>
      <trkpt lat="43.80426" lon="0.80596">
        <ele>158.75</ele>
        <time>2015-01-04T10:31:35Z</time>
      </trkpt>
      <trkpt lat="43.80412" lon="0.80599">
        <ele>158.75</ele>
        <time>2015-01-04T10:31:46Z</time>
      </trkpt>
      <trkpt lat="43.80406" lon="0.806">
        <ele>158.27</ele>
        <time>2015-01-04T10:31:51Z</time>
      </trkpt>
      <trkpt lat="43.80384" lon="0.80602">
        <ele>156.35</ele>
        <time>2015-01-04T10:32:08Z</time>
      </trkpt>
      <trkpt lat="43.8036" lon="0.80604">
        <ele>152.99</ele>
        <time>2015-01-04T10:32:27Z</time>
      </trkpt>
      <trkpt lat="43.80341" lon="0.80611">
        <ele>154.91</ele>
        <time>2015-01-04T10:32:42Z</time>
      </trkpt>
      <trkpt lat="43.8033" lon="0.80613">
        <ele>155.87</ele>
        <time>2015-01-04T10:32:51Z</time>
      </trkpt>
      <trkpt lat="43.8031" lon="0.80612">
        <ele>153.47</ele>
        <time>2015-01-04T10:33:07Z</time>
      </trkpt>
      <trkpt lat="43.80291" lon="0.80608">
        <ele>148.18</ele>
        <time>2015-01-04T10:33:23Z</time>
      </trkpt>
      <trkpt lat="43.80273" lon="0.80612">
        <ele>147.7</ele>
        <time>2015-01-04T10:33:36Z</time>
      </trkpt>
      <trkpt lat="43.80259" lon="0.8062">
        <ele>146.74</ele>
        <time>2015-01-04T10:33:53Z</time>
      </trkpt>
      <trkpt lat="43.80246" lon="0.80623">
        <ele>144.82</ele>
        <time>2015-01-04T10:34:08Z</time>
      </trkpt>
      <trkpt lat="43.8023" lon="0.80615">
        <ele>141.93</ele>
        <time>2015-01-04T10:34:25Z</time>
      </trkpt>
      <trkpt lat="43.80219" lon="0.80606">
        <ele>136.16</ele>
        <time>2015-01-04T10:34:39Z</time>
      </trkpt>
      <trkpt lat="43.80205" lon="0.80597">
        <ele>131.84</ele>
        <time>2015-01-04T10:34:52Z</time>
      </trkpt>
      <trkpt lat="43.8019" lon="0.80595">
        <ele>131.84</ele>
        <time>2015-01-04T10:35:03Z</time>
      </trkpt>
      <trkpt lat="43.80176" lon="0.80585">
        <ele>127.99</ele>
        <time>2015-01-04T10:35:18Z</time>
      </trkpt>
      <trkpt lat="43.80168" lon="0.80573">
        <ele>123.19</ele>
        <time>2015-01-04T10:35:33Z</time>
      </trkpt>
      <trkpt lat="43.80158" lon="0.80567">
        <ele>122.71</ele>
        <time>2015-01-04T10:35:41Z</time>
      </trkpt>
      <trkpt lat="43.80155" lon="0.80564">
        <ele>122.71</ele>
        <time>2015-01-04T10:35:44Z</time>
      </trkpt>
      <trkpt lat="43.80146" lon="0.80561">
        <ele>123.19</ele>
        <time>2015-01-04T10:35:51Z</time>
      </trkpt>
      <trkpt lat="43.80141" lon="0.80558">
        <ele>122.71</ele>
        <time>2015-01-04T10:35:55Z</time>
      </trkpt>
      <trkpt lat="43.80125" lon="0.80548">
        <ele>121.74</ele>
        <time>2015-01-04T10:36:10Z</time>
      </trkpt>
      <trkpt lat="43.80113" lon="0.80546">
        <ele>122.22</ele>
        <time>2015-01-04T10:36:20Z</time>
      </trkpt>
      <trkpt lat="43.80093" lon="0.80538">
        <ele>120.3</ele>
        <time>2015-01-04T10:36:37Z</time>
      </trkpt>
      <trkpt lat="43.80069" lon="0.80527">
        <ele>121.26</ele>
        <time>2015-01-04T10:36:57Z</time>
      </trkpt>
      <trkpt lat="43.80049" lon="0.80521">
        <ele>123.67</ele>
        <time>2015-01-04T10:37:14Z</time>
      </trkpt>
      <trkpt lat="43.80036" lon="0.8052">
        <ele>128.47</ele>
        <time>2015-01-04T10:37:28Z</time>
      </trkpt>
      <trkpt lat="43.80017" lon="0.80515">
        <ele>131.84</ele>
        <time>2015-01-04T10:37:45Z</time>
      </trkpt>
      <trkpt lat="43.80009" lon="0.80512">
        <ele>133.28</ele>
        <time>2015-01-04T10:37:54Z</time>
      </trkpt>
      <trkpt lat="43.80001" lon="0.80508">
        <ele>134.72</ele>
        <time>2015-01-04T10:38:03Z</time>
      </trkpt>
      <trkpt lat="43.79987" lon="0.805">
        <ele>137.13</ele>
        <time>2015-01-04T10:38:18Z</time>
      </trkpt>
      <trkpt lat="43.79977" lon="0.80504">
        <ele>139.53</ele>
        <time>2015-01-04T10:38:30Z</time>
      </trkpt>
      <trkpt lat="43.79974" lon="0.80508">
        <ele>139.05</ele>
        <time>2015-01-04T10:38:34Z</time>
      </trkpt>
      <trkpt lat="43.79973" lon="0.8051">
        <ele>139.53</ele>
        <time>2015-01-04T10:38:36Z</time>
      </trkpt>
      <trkpt lat="43.79958" lon="0.8053">
        <ele>138.57</ele>
        <time>2015-01-04T10:38:54Z</time>
      </trkpt>
      <trkpt lat="43.7995" lon="0.80527">
        <ele>137.61</ele>
        <time>2015-01-04T10:39:01Z</time>
      </trkpt>
      <trkpt lat="43.79937" lon="0.80512">
        <ele>135.2</ele>
        <time>2015-01-04T10:39:17Z</time>
      </trkpt>
      <trkpt lat="43.79927" lon="0.805">
        <ele>129.92</ele>
        <time>2015-01-04T10:39:31Z</time>
      </trkpt>
      <trkpt lat="43.79923" lon="0.80496">
        <ele>128.95</ele>
        <time>2015-01-04T10:39:35Z</time>
      </trkpt>
      <trkpt lat="43.79912" lon="0.80482">
        <ele>125.11</ele>
        <time>2015-01-04T10:39:52Z</time>
      </trkpt>
      <trkpt lat="43.79911" lon="0.80479">
        <ele>125.59</ele>
        <time>2015-01-04T10:40:02Z</time>
      </trkpt>
      <trkpt lat="43.799" lon="0.80469">
        <ele>123.67</ele>
        <time>2015-01-04T10:40:16Z</time>
      </trkpt>
      <trkpt lat="43.79888" lon="0.80455">
        <ele>123.19</ele>
        <time>2015-01-04T10:40:32Z</time>
      </trkpt>
      <trkpt lat="43.79872" lon="0.80439">
        <ele>120.3</ele>
        <time>2015-01-04T10:40:49Z</time>
      </trkpt>
      <trkpt lat="43.79858" lon="0.80424">
        <ele>117.9</ele>
        <time>2015-01-04T10:41:05Z</time>
      </trkpt>
      <trkpt lat="43.79841" lon="0.80406">
        <ele>117.42</ele>
        <time>2015-01-04T10:41:22Z</time>
      </trkpt>
      <trkpt lat="43.79823" lon="0.80384">
        <ele>117.42</ele>
        <time>2015-01-04T10:41:41Z</time>
      </trkpt>
      <trkpt lat="43.79806" lon="0.80367">
        <ele>116.94</ele>
        <time>2015-01-04T10:41:58Z</time>
      </trkpt>
      <trkpt lat="43.79788" lon="0.80354">
        <ele>117.42</ele>
        <time>2015-01-04T10:42:13Z</time>
      </trkpt>
      <trkpt lat="43.79774" lon="0.80336">
        <ele>118.38</ele>
        <time>2015-01-04T10:42:29Z</time>
      </trkpt>
      <trkpt lat="43.79769" lon="0.80325">
        <ele>118.38</ele>
        <time>2015-01-04T10:42:38Z</time>
      </trkpt>
      <trkpt lat="43.79767" lon="0.80315">
        <ele>117.9</ele>
        <time>2015-01-04T10:42:50Z</time>
      </trkpt>
      <trkpt lat="43.79764" lon="0.80313">
        <ele>117.9</ele>
        <time>2015-01-04T10:43:03Z</time>
      </trkpt>
      <trkpt lat="43.79763" lon="0.80306">
        <ele>119.82</ele>
        <time>2015-01-04T10:43:19Z</time>
      </trkpt>
      <trkpt lat="43.79763" lon="0.80304">
        <ele>120.78</ele>
        <time>2015-01-04T10:43:36Z</time>
      </trkpt>
      <trkpt lat="43.79758" lon="0.8029">
        <ele>119.82</ele>
        <time>2015-01-04T10:43:49Z</time>
      </trkpt>
      <trkpt lat="43.79755" lon="0.80271">
        <ele>116.94</ele>
        <time>2015-01-04T10:44:03Z</time>
      </trkpt>
      <trkpt lat="43.79753" lon="0.80262">
        <ele>115.01</ele>
        <time>2015-01-04T10:44:09Z</time>
      </trkpt>
      <trkpt lat="43.79746" lon="0.80235">
        <ele>113.57</ele>
        <time>2015-01-04T10:44:26Z</time>
      </trkpt>
      <trkpt lat="43.79742" lon="0.80198">
        <ele>115.01</ele>
        <time>2015-01-04T10:44:46Z</time>
      </trkpt>
      <trkpt lat="43.79733" lon="0.80167">
        <ele>117.9</ele>
        <time>2015-01-04T10:45:05Z</time>
      </trkpt>
      <trkpt lat="43.79718" lon="0.80138">
        <ele>117.9</ele>
        <time>2015-01-04T10:45:26Z</time>
      </trkpt>
      <trkpt lat="43.79707" lon="0.80122">
        <ele>116.46</ele>
        <time>2015-01-04T10:45:39Z</time>
      </trkpt>
      <trkpt lat="43.7969" lon="0.80094">
        <ele>116.46</ele>
        <time>2015-01-04T10:45:59Z</time>
      </trkpt>
      <trkpt lat="43.79673" lon="0.80067">
        <ele>114.53</ele>
        <time>2015-01-04T10:46:19Z</time>
      </trkpt>
      <trkpt lat="43.79657" lon="0.8004">
        <ele>113.09</ele>
        <time>2015-01-04T10:46:39Z</time>
      </trkpt>
      <trkpt lat="43.79641" lon="0.80014">
        <ele>112.13</ele>
        <time>2015-01-04T10:46:58Z</time>
      </trkpt>
      <trkpt lat="43.79634" lon="0.80004">
        <ele>112.13</ele>
        <time>2015-01-04T10:47:06Z</time>
      </trkpt>
      <trkpt lat="43.79619" lon="0.7998">
        <ele>118.38</ele>
        <time>2015-01-04T10:47:23Z</time>
      </trkpt>
      <trkpt lat="43.79605" lon="0.79953">
        <ele>117.9</ele>
        <time>2015-01-04T10:47:43Z</time>
      </trkpt>
      <trkpt lat="43.79602" lon="0.79949">
        <ele>117.9</ele>
        <time>2015-01-04T10:47:55Z</time>
      </trkpt>
      <trkpt lat="43.79599" lon="0.7994">
        <ele>117.42</ele>
        <time>2015-01-04T10:48:02Z</time>
      </trkpt>
      <trkpt lat="43.79592" lon="0.79916">
        <ele>115.5</ele>
        <time>2015-01-04T10:48:20Z</time>
      </trkpt>
      <trkpt lat="43.79592" lon="0.79914">
        <ele>119.34</ele>
        <time>2015-01-04T10:48:35Z</time>
      </trkpt>
      <trkpt lat="43.79591" lon="0.79916">
        <ele>118.86</ele>
        <time>2015-01-04T10:49:00Z</time>
      </trkpt>
      <trkpt lat="43.79591" lon="0.79914">
        <ele>116.94</ele>
        <time>2015-01-04T10:49:19Z</time>
      </trkpt>
      <trkpt lat="43.79589" lon="0.79898">
        <ele>116.94</ele>
        <time>2015-01-04T10:49:31Z</time>
      </trkpt>
      <trkpt lat="43.79585" lon="0.7987">
        <ele>116.94</ele>
        <time>2015-01-04T10:49:49Z</time>
      </trkpt>
      <trkpt lat="43.79578" lon="0.7984">
        <ele>116.94</ele>
        <time>2015-01-04T10:50:07Z</time>
      </trkpt>
      <trkpt lat="43.79562" lon="0.79803">
        <ele>117.9</ele>
        <time>2015-01-04T10:50:30Z</time>
      </trkpt>
      <trkpt lat="43.79538" lon="0.79777">
        <ele>116.46</ele>
        <time>2015-01-04T10:50:51Z</time>
      </trkpt>
      <trkpt lat="43.79517" lon="0.79744">
        <ele>114.53</ele>
        <time>2015-01-04T10:51:14Z</time>
      </trkpt>
      <trkpt lat="43.79509" lon="0.79704">
        <ele>115.01</ele>
        <time>2015-01-04T10:51:35Z</time>
      </trkpt>
      <trkpt lat="43.79503" lon="0.79667">
        <ele>115.5</ele>
        <time>2015-01-04T10:51:54Z</time>
      </trkpt>
      <trkpt lat="43.79492" lon="0.79628">
        <ele>115.01</ele>
        <time>2015-01-04T10:52:18Z</time>
      </trkpt>
      <trkpt lat="43.79476" lon="0.79623">
        <ele>116.46</ele>
        <time>2015-01-04T10:52:29Z</time>
      </trkpt>
      <trkpt lat="43.79453" lon="0.79622">
        <ele>115.98</ele>
        <time>2015-01-04T10:52:46Z</time>
      </trkpt>
      <trkpt lat="43.79435" lon="0.7962">
        <ele>117.42</ele>
        <time>2015-01-04T10:53:01Z</time>
      </trkpt>
      <trkpt lat="43.79417" lon="0.79618">
        <ele>117.9</ele>
        <time>2015-01-04T10:53:18Z</time>
      </trkpt>
      <trkpt lat="43.79401" lon="0.79617">
        <ele>121.26</ele>
        <time>2015-01-04T10:53:35Z</time>
      </trkpt>
      <trkpt lat="43.79392" lon="0.79609">
        <ele>125.11</ele>
        <time>2015-01-04T10:53:51Z</time>
      </trkpt>
      <trkpt lat="43.79377" lon="0.79591">
        <ele>122.22</ele>
        <time>2015-01-04T10:54:09Z</time>
      </trkpt>
      <trkpt lat="43.7936" lon="0.79576">
        <ele>125.59</ele>
        <time>2015-01-04T10:54:27Z</time>
      </trkpt>
      <trkpt lat="43.79344" lon="0.79562">
        <ele>127.03</ele>
        <time>2015-01-04T10:54:45Z</time>
      </trkpt>
      <trkpt lat="43.79327" lon="0.79548">
        <ele>128.95</ele>
        <time>2015-01-04T10:55:03Z</time>
      </trkpt>
      <trkpt lat="43.79307" lon="0.79536">
        <ele>132.32</ele>
        <time>2015-01-04T10:55:19Z</time>
      </trkpt>
      <trkpt lat="43.7929" lon="0.79519">
        <ele>133.28</ele>
        <time>2015-01-04T10:55:36Z</time>
      </trkpt>
      <trkpt lat="43.79273" lon="0.79497">
        <ele>133.76</ele>
        <time>2015-01-04T10:55:56Z</time>
      </trkpt>
      <trkpt lat="43.79258" lon="0.79478">
        <ele>134.24</ele>
        <time>2015-01-04T10:56:15Z</time>
      </trkpt>
      <trkpt lat="43.79251" lon="0.79468">
        <ele>135.2</ele>
        <time>2015-01-04T10:56:34Z</time>
      </trkpt>
      <trkpt lat="43.79242" lon="0.79457">
        <ele>137.13</ele>
        <time>2015-01-04T10:56:49Z</time>
      </trkpt>
      <trkpt lat="43.79233" lon="0.79429">
        <ele>140.49</ele>
        <time>2015-01-04T10:57:07Z</time>
      </trkpt>
      <trkpt lat="43.79233" lon="0.79404">
        <ele>142.41</ele>
        <time>2015-01-04T10:57:22Z</time>
      </trkpt>
      <trkpt lat="43.79238" lon="0.79376">
        <ele>142.41</ele>
        <time>2015-01-04T10:57:39Z</time>
      </trkpt>
      <trkpt lat="43.79239" lon="0.7937">
        <ele>141.93</ele>
        <time>2015-01-04T10:57:43Z</time>
      </trkpt>
      <trkpt lat="43.79231" lon="0.79338">
        <ele>143.85</ele>
        <time>2015-01-04T10:58:02Z</time>
      </trkpt>
      <trkpt lat="43.79221" lon="0.79302">
        <ele>146.26</ele>
        <time>2015-01-04T10:58:24Z</time>
      </trkpt>
      <trkpt lat="43.79209" lon="0.79275">
        <ele>146.74</ele>
        <time>2015-01-04T10:58:42Z</time>
      </trkpt>
      <trkpt lat="43.79197" lon="0.79249">
        <ele>147.7</ele>
        <time>2015-01-04T10:59:00Z</time>
      </trkpt>
      <trkpt lat="43.79187" lon="0.79221">
        <ele>147.7</ele>
        <time>2015-01-04T10:59:18Z</time>
      </trkpt>
      <trkpt lat="43.79175" lon="0.79198">
        <ele>150.58</ele>
        <time>2015-01-04T10:59:34Z</time>
      </trkpt>
      <trkpt lat="43.79164" lon="0.79171">
        <ele>151.06</ele>
        <time>2015-01-04T10:59:51Z</time>
      </trkpt>
      <trkpt lat="43.79152" lon="0.79144">
        <ele>149.14</ele>
        <time>2015-01-04T11:00:09Z</time>
      </trkpt>
      <trkpt lat="43.79149" lon="0.79135">
        <ele>152.03</ele>
        <time>2015-01-04T11:00:24Z</time>
      </trkpt>
      <trkpt lat="43.79141" lon="0.79118">
        <ele>152.03</ele>
        <time>2015-01-04T11:00:38Z</time>
      </trkpt>
      <trkpt lat="43.79125" lon="0.79083">
        <ele>153.47</ele>
        <time>2015-01-04T11:01:01Z</time>
      </trkpt>
      <trkpt lat="43.79111" lon="0.79051">
        <ele>155.39</ele>
        <time>2015-01-04T11:01:22Z</time>
      </trkpt>
      <trkpt lat="43.79098" lon="0.79022">
        <ele>155.39</ele>
        <time>2015-01-04T11:01:42Z</time>
      </trkpt>
      <trkpt lat="43.79081" lon="0.78991">
        <ele>157.31</ele>
        <time>2015-01-04T11:02:03Z</time>
      </trkpt>
      <trkpt lat="43.79065" lon="0.78959">
        <ele>156.83</ele>
        <time>2015-01-04T11:02:25Z</time>
      </trkpt>
      <trkpt lat="43.79046" lon="0.78927">
        <ele>155.87</ele>
        <time>2015-01-04T11:02:47Z</time>
      </trkpt>
      <trkpt lat="43.79024" lon="0.78885">
        <ele>155.39</ele>
        <time>2015-01-04T11:03:13Z</time>
      </trkpt>
      <trkpt lat="43.79012" lon="0.78866">
        <ele>154.91</ele>
        <time>2015-01-04T11:03:28Z</time>
      </trkpt>
      <trkpt lat="43.78998" lon="0.78838">
        <ele>156.35</ele>
        <time>2015-01-04T11:03:47Z</time>
      </trkpt>
      <trkpt lat="43.78983" lon="0.78807">
        <ele>158.27</ele>
        <time>2015-01-04T11:04:07Z</time>
      </trkpt>
      <trkpt lat="43.78968" lon="0.7878">
        <ele>157.31</ele>
        <time>2015-01-04T11:04:25Z</time>
      </trkpt>
      <trkpt lat="43.78956" lon="0.78754">
        <ele>158.75</ele>
        <time>2015-01-04T11:04:41Z</time>
      </trkpt>
      <trkpt lat="43.78945" lon="0.78728">
        <ele>158.27</ele>
        <time>2015-01-04T11:04:57Z</time>
      </trkpt>
      <trkpt lat="43.78932" lon="0.78697">
        <ele>157.31</ele>
        <time>2015-01-04T11:05:16Z</time>
      </trkpt>
      <trkpt lat="43.78914" lon="0.78661">
        <ele>158.27</ele>
        <time>2015-01-04T11:05:40Z</time>
      </trkpt>
      <trkpt lat="43.78899" lon="0.78627">
        <ele>158.75</ele>
        <time>2015-01-04T11:06:01Z</time>
      </trkpt>
      <trkpt lat="43.78885" lon="0.78602">
        <ele>159.24</ele>
        <time>2015-01-04T11:06:19Z</time>
      </trkpt>
      <trkpt lat="43.78867" lon="0.78579">
        <ele>161.16</ele>
        <time>2015-01-04T11:06:39Z</time>
      </trkpt>
      <trkpt lat="43.78847" lon="0.78559">
        <ele>161.64</ele>
        <time>2015-01-04T11:06:58Z</time>
      </trkpt>
      <trkpt lat="43.78827" lon="0.78537">
        <ele>163.56</ele>
        <time>2015-01-04T11:07:19Z</time>
      </trkpt>
      <trkpt lat="43.7881" lon="0.78521">
        <ele>165</ele>
        <time>2015-01-04T11:07:36Z</time>
      </trkpt>
      <trkpt lat="43.7879" lon="0.78498">
        <ele>169.33</ele>
        <time>2015-01-04T11:07:59Z</time>
      </trkpt>
      <trkpt lat="43.78787" lon="0.78491">
        <ele>171.25</ele>
        <time>2015-01-04T11:08:14Z</time>
      </trkpt>
      <trkpt lat="43.78783" lon="0.78488">
        <ele>173.17</ele>
        <time>2015-01-04T11:08:32Z</time>
      </trkpt>
      <trkpt lat="43.78784" lon="0.78487">
        <ele>173.66</ele>
        <time>2015-01-04T11:09:00Z</time>
      </trkpt>
      <trkpt lat="43.78783" lon="0.78487">
        <ele>172.69</ele>
        <time>2015-01-04T11:09:24Z</time>
      </trkpt>
      <trkpt lat="43.78781" lon="0.78485">
        <ele>172.21</ele>
        <time>2015-01-04T11:09:39Z</time>
      </trkpt>
      <trkpt lat="43.78776" lon="0.78465">
        <ele>172.21</ele>
        <time>2015-01-04T11:09:56Z</time>
      </trkpt>
      <trkpt lat="43.78767" lon="0.78439">
        <ele>170.77</ele>
        <time>2015-01-04T11:10:14Z</time>
      </trkpt>
      <trkpt lat="43.7876" lon="0.78409">
        <ele>170.77</ele>
        <time>2015-01-04T11:10:32Z</time>
      </trkpt>
      <trkpt lat="43.78753" lon="0.78379">
        <ele>169.81</ele>
        <time>2015-01-04T11:10:49Z</time>
      </trkpt>
      <trkpt lat="43.78748" lon="0.78354">
        <ele>169.33</ele>
        <time>2015-01-04T11:11:04Z</time>
      </trkpt>
      <trkpt lat="43.7874" lon="0.78326">
        <ele>169.81</ele>
        <time>2015-01-04T11:11:20Z</time>
      </trkpt>
      <trkpt lat="43.78724" lon="0.78304">
        <ele>171.25</ele>
        <time>2015-01-04T11:11:38Z</time>
      </trkpt>
      <trkpt lat="43.78702" lon="0.783">
        <ele>169.33</ele>
        <time>2015-01-04T11:11:57Z</time>
      </trkpt>
      <trkpt lat="43.78679" lon="0.78296">
        <ele>165.96</ele>
        <time>2015-01-04T11:12:15Z</time>
      </trkpt>
      <trkpt lat="43.7867" lon="0.78314">
        <ele>166.93</ele>
        <time>2015-01-04T11:12:29Z</time>
      </trkpt>
      <trkpt lat="43.78658" lon="0.78315">
        <ele>166.93</ele>
        <time>2015-01-04T11:12:42Z</time>
      </trkpt>
      <trkpt lat="43.78645" lon="0.78311">
        <ele>166.45</ele>
        <time>2015-01-04T11:12:55Z</time>
      </trkpt>
      <trkpt lat="43.7862" lon="0.78307">
        <ele>163.08</ele>
        <time>2015-01-04T11:13:15Z</time>
      </trkpt>
      <trkpt lat="43.78599" lon="0.78305">
        <ele>161.64</ele>
        <time>2015-01-04T11:13:33Z</time>
      </trkpt>
      <trkpt lat="43.78574" lon="0.783">
        <ele>156.83</ele>
        <time>2015-01-04T11:13:54Z</time>
      </trkpt>
      <trkpt lat="43.78555" lon="0.78285">
        <ele>153.47</ele>
        <time>2015-01-04T11:14:13Z</time>
      </trkpt>
      <trkpt lat="43.78538" lon="0.78268">
        <ele>152.51</ele>
        <time>2015-01-04T11:14:30Z</time>
      </trkpt>
      <trkpt lat="43.78517" lon="0.78248">
        <ele>154.43</ele>
        <time>2015-01-04T11:14:50Z</time>
      </trkpt>
      <trkpt lat="43.78496" lon="0.78226">
        <ele>156.83</ele>
        <time>2015-01-04T11:15:11Z</time>
      </trkpt>
      <trkpt lat="43.78477" lon="0.78205">
        <ele>159.72</ele>
        <time>2015-01-04T11:15:33Z</time>
      </trkpt>
      <trkpt lat="43.78463" lon="0.7819">
        <ele>164.52</ele>
        <time>2015-01-04T11:15:50Z</time>
      </trkpt>
      <trkpt lat="43.78446" lon="0.78172">
        <ele>166.93</ele>
        <time>2015-01-04T11:16:12Z</time>
      </trkpt>
      <trkpt lat="43.78433" lon="0.78158">
        <ele>166.93</ele>
        <time>2015-01-04T11:16:31Z</time>
      </trkpt>
      <trkpt lat="43.78424" lon="0.78147">
        <ele>169.33</ele>
        <time>2015-01-04T11:16:47Z</time>
      </trkpt>
      <trkpt lat="43.78414" lon="0.7814">
        <ele>170.29</ele>
        <time>2015-01-04T11:17:07Z</time>
      </trkpt>
      <trkpt lat="43.78408" lon="0.78136">
        <ele>172.21</ele>
        <time>2015-01-04T11:17:23Z</time>
      </trkpt>
      <trkpt lat="43.78405" lon="0.78133">
        <ele>172.21</ele>
        <time>2015-01-04T11:17:37Z</time>
      </trkpt>
      <trkpt lat="43.78407" lon="0.78128">
        <ele>173.17</ele>
        <time>2015-01-04T11:17:49Z</time>
      </trkpt>
      <trkpt lat="43.78408" lon="0.78131">
        <ele>175.1</ele>
        <time>2015-01-04T11:18:12Z</time>
      </trkpt>
      <trkpt lat="43.78409" lon="0.78133">
        <ele>175.58</ele>
        <time>2015-01-04T11:18:29Z</time>
      </trkpt>
      <trkpt lat="43.78408" lon="0.78133">
        <ele>175.1</ele>
        <time>2015-01-04T11:18:50Z</time>
      </trkpt>
      <trkpt lat="43.78408" lon="0.78133">
        <ele>175.58</ele>
        <time>2015-01-04T11:19:06Z</time>
      </trkpt>
      <trkpt lat="43.78408" lon="0.78134">
        <ele>175.1</ele>
        <time>2015-01-04T11:19:24Z</time>
      </trkpt>
      <trkpt lat="43.78409" lon="0.7813">
        <ele>174.62</ele>
        <time>2015-01-04T11:19:42Z</time>
      </trkpt>
      <trkpt lat="43.78411" lon="0.78122">
        <ele>174.14</ele>
        <time>2015-01-04T11:19:47Z</time>
      </trkpt>
      <trkpt lat="43.78423" lon="0.78101">
        <ele>173.17</ele>
        <time>2015-01-04T11:20:05Z</time>
      </trkpt>
      <trkpt lat="43.78437" lon="0.78076">
        <ele>173.66</ele>
        <time>2015-01-04T11:20:24Z</time>
      </trkpt>
      <trkpt lat="43.78451" lon="0.78045">
        <ele>176.54</ele>
        <time>2015-01-04T11:20:44Z</time>
      </trkpt>
      <trkpt lat="43.78464" lon="0.78017">
        <ele>178.46</ele>
        <time>2015-01-04T11:21:03Z</time>
      </trkpt>
      <trkpt lat="43.78478" lon="0.77991">
        <ele>177.02</ele>
        <time>2015-01-04T11:21:22Z</time>
      </trkpt>
      <trkpt lat="43.78493" lon="0.77959">
        <ele>176.06</ele>
        <time>2015-01-04T11:21:43Z</time>
      </trkpt>
      <trkpt lat="43.78503" lon="0.77936">
        <ele>176.06</ele>
        <time>2015-01-04T11:22:01Z</time>
      </trkpt>
      <trkpt lat="43.78518" lon="0.77908">
        <ele>175.58</ele>
        <time>2015-01-04T11:22:22Z</time>
      </trkpt>
      <trkpt lat="43.78536" lon="0.77873">
        <ele>176.54</ele>
        <time>2015-01-04T11:22:44Z</time>
      </trkpt>
      <trkpt lat="43.78547" lon="0.77842">
        <ele>178.46</ele>
        <time>2015-01-04T11:23:03Z</time>
      </trkpt>
      <trkpt lat="43.7856" lon="0.7781">
        <ele>178.94</ele>
        <time>2015-01-04T11:23:23Z</time>
      </trkpt>
      <trkpt lat="43.78577" lon="0.77776">
        <ele>177.98</ele>
        <time>2015-01-04T11:23:45Z</time>
      </trkpt>
      <trkpt lat="43.78585" lon="0.77736">
        <ele>180.87</ele>
        <time>2015-01-04T11:24:08Z</time>
      </trkpt>
      <trkpt lat="43.78586" lon="0.77696">
        <ele>180.87</ele>
        <time>2015-01-04T11:24:30Z</time>
      </trkpt>
      <trkpt lat="43.78589" lon="0.77653">
        <ele>180.38</ele>
        <time>2015-01-04T11:24:52Z</time>
      </trkpt>
      <trkpt lat="43.78595" lon="0.77614">
        <ele>180.38</ele>
        <time>2015-01-04T11:25:13Z</time>
      </trkpt>
      <trkpt lat="43.78601" lon="0.77585">
        <ele>181.83</ele>
        <time>2015-01-04T11:25:29Z</time>
      </trkpt>
      <trkpt lat="43.78608" lon="0.77548">
        <ele>183.27</ele>
        <time>2015-01-04T11:25:50Z</time>
      </trkpt>
      <trkpt lat="43.78613" lon="0.77517">
        <ele>183.27</ele>
        <time>2015-01-04T11:26:08Z</time>
      </trkpt>
      <trkpt lat="43.78614" lon="0.77484">
        <ele>183.27</ele>
        <time>2015-01-04T11:26:27Z</time>
      </trkpt>
      <trkpt lat="43.78617" lon="0.77452">
        <ele>182.79</ele>
        <time>2015-01-04T11:26:45Z</time>
      </trkpt>
      <trkpt lat="43.78621" lon="0.77419">
        <ele>185.19</ele>
        <time>2015-01-04T11:27:05Z</time>
      </trkpt>
      <trkpt lat="43.78624" lon="0.77393">
        <ele>184.71</ele>
        <time>2015-01-04T11:27:21Z</time>
      </trkpt>
      <trkpt lat="43.78627" lon="0.77359">
        <ele>183.27</ele>
        <time>2015-01-04T11:27:40Z</time>
      </trkpt>
      <trkpt lat="43.78632" lon="0.77329">
        <ele>182.31</ele>
        <time>2015-01-04T11:27:57Z</time>
      </trkpt>
      <trkpt lat="43.78632" lon="0.77328">
        <ele>182.31</ele>
        <time>2015-01-04T11:27:58Z</time>
      </trkpt>
      <trkpt lat="43.78639" lon="0.77304">
        <ele>180.38</ele>
        <time>2015-01-04T11:28:11Z</time>
      </trkpt>
      <trkpt lat="43.78653" lon="0.77269">
        <ele>182.79</ele>
        <time>2015-01-04T11:28:32Z</time>
      </trkpt>
      <trkpt lat="43.78669" lon="0.77232">
        <ele>183.27</ele>
        <time>2015-01-04T11:28:55Z</time>
      </trkpt>
      <trkpt lat="43.78686" lon="0.77199">
        <ele>182.31</ele>
        <time>2015-01-04T11:29:17Z</time>
      </trkpt>
      <trkpt lat="43.78696" lon="0.77165">
        <ele>183.27</ele>
        <time>2015-01-04T11:29:37Z</time>
      </trkpt>
      <trkpt lat="43.78694" lon="0.77157">
        <ele>182.79</ele>
        <time>2015-01-04T11:29:42Z</time>
      </trkpt>
      <trkpt lat="43.78678" lon="0.77143">
        <ele>179.9</ele>
        <time>2015-01-04T11:29:59Z</time>
      </trkpt>
      <trkpt lat="43.78654" lon="0.77129">
        <ele>177.5</ele>
        <time>2015-01-04T11:30:17Z</time>
      </trkpt>
      <trkpt lat="43.7863" lon="0.77116">
        <ele>177.02</ele>
        <time>2015-01-04T11:30:38Z</time>
      </trkpt>
      <trkpt lat="43.7863" lon="0.77113">
        <ele>176.06</ele>
        <time>2015-01-04T11:30:57Z</time>
      </trkpt>
      <trkpt lat="43.7863" lon="0.77113">
        <ele>177.98</ele>
        <time>2015-01-04T11:31:16Z</time>
      </trkpt>
      <trkpt lat="43.78629" lon="0.77112">
        <ele>177.98</ele>
        <time>2015-01-04T11:31:34Z</time>
      </trkpt>
      <trkpt lat="43.78629" lon="0.77112">
        <ele>177.02</ele>
        <time>2015-01-04T11:31:56Z</time>
      </trkpt>
      <trkpt lat="43.78626" lon="0.77108">
        <ele>175.1</ele>
        <time>2015-01-04T11:32:22Z</time>
      </trkpt>
      <trkpt lat="43.78608" lon="0.77103">
        <ele>174.62</ele>
        <time>2015-01-04T11:32:40Z</time>
      </trkpt>
      <trkpt lat="43.78585" lon="0.77088">
        <ele>176.54</ele>
        <time>2015-01-04T11:33:00Z</time>
      </trkpt>
      <trkpt lat="43.78565" lon="0.7707">
        <ele>175.1</ele>
        <time>2015-01-04T11:33:19Z</time>
      </trkpt>
      <trkpt lat="43.78544" lon="0.77049">
        <ele>173.66</ele>
        <time>2015-01-04T11:33:39Z</time>
      </trkpt>
      <trkpt lat="43.78522" lon="0.77028">
        <ele>173.17</ele>
        <time>2015-01-04T11:33:59Z</time>
      </trkpt>
      <trkpt lat="43.78506" lon="0.77006">
        <ele>172.21</ele>
        <time>2015-01-04T11:34:16Z</time>
      </trkpt>
      <trkpt lat="43.7849" lon="0.76983">
        <ele>173.17</ele>
        <time>2015-01-04T11:34:34Z</time>
      </trkpt>
      <trkpt lat="43.7847" lon="0.76959">
        <ele>172.21</ele>
        <time>2015-01-04T11:34:53Z</time>
      </trkpt>
      <trkpt lat="43.78448" lon="0.7694">
        <ele>175.58</ele>
        <time>2015-01-04T11:35:13Z</time>
      </trkpt>
      <trkpt lat="43.78431" lon="0.76924">
        <ele>176.54</ele>
        <time>2015-01-04T11:35:31Z</time>
      </trkpt>
      <trkpt lat="43.78414" lon="0.76909">
        <ele>178.94</ele>
        <time>2015-01-04T11:35:48Z</time>
      </trkpt>
      <trkpt lat="43.78391" lon="0.76891">
        <ele>180.38</ele>
        <time>2015-01-04T11:36:08Z</time>
      </trkpt>
      <trkpt lat="43.78369" lon="0.76885">
        <ele>181.35</ele>
        <time>2015-01-04T11:36:26Z</time>
      </trkpt>
      <trkpt lat="43.78346" lon="0.76896">
        <ele>183.75</ele>
        <time>2015-01-04T11:36:45Z</time>
      </trkpt>
      <trkpt lat="43.78322" lon="0.76912">
        <ele>184.71</ele>
        <time>2015-01-04T11:37:05Z</time>
      </trkpt>
      <trkpt lat="43.78297" lon="0.7693">
        <ele>185.19</ele>
        <time>2015-01-04T11:37:27Z</time>
      </trkpt>
      <trkpt lat="43.78273" lon="0.76939">
        <ele>186.63</ele>
        <time>2015-01-04T11:37:46Z</time>
      </trkpt>
      <trkpt lat="43.7825" lon="0.76922">
        <ele>185.19</ele>
        <time>2015-01-04T11:38:05Z</time>
      </trkpt>
      <trkpt lat="43.78233" lon="0.76902">
        <ele>182.31</ele>
        <time>2015-01-04T11:38:24Z</time>
      </trkpt>
      <trkpt lat="43.78212" lon="0.76879">
        <ele>179.42</ele>
        <time>2015-01-04T11:38:46Z</time>
      </trkpt>
      <trkpt lat="43.78187" lon="0.76853">
        <ele>177.98</ele>
        <time>2015-01-04T11:39:09Z</time>
      </trkpt>
      <trkpt lat="43.78166" lon="0.76831">
        <ele>176.06</ele>
        <time>2015-01-04T11:39:30Z</time>
      </trkpt>
      <trkpt lat="43.78144" lon="0.7681">
        <ele>178.46</ele>
        <time>2015-01-04T11:39:50Z</time>
      </trkpt>
      <trkpt lat="43.78122" lon="0.76789">
        <ele>177.98</ele>
        <time>2015-01-04T11:40:10Z</time>
      </trkpt>
      <trkpt lat="43.78104" lon="0.76767">
        <ele>179.42</ele>
        <time>2015-01-04T11:40:29Z</time>
      </trkpt>
      <trkpt lat="43.78084" lon="0.76753">
        <ele>178.46</ele>
        <time>2015-01-04T11:40:47Z</time>
      </trkpt>
      <trkpt lat="43.78073" lon="0.76759">
        <ele>177.02</ele>
        <time>2015-01-04T11:41:03Z</time>
      </trkpt>
      <trkpt lat="43.78069" lon="0.76753">
        <ele>176.54</ele>
        <time>2015-01-04T11:41:16Z</time>
      </trkpt>
      <trkpt lat="43.78064" lon="0.76747">
        <ele>176.54</ele>
        <time>2015-01-04T11:41:21Z</time>
      </trkpt>
      <trkpt lat="43.78048" lon="0.76729">
        <ele>180.87</ele>
        <time>2015-01-04T11:41:38Z</time>
      </trkpt>
      <trkpt lat="43.78037" lon="0.76723">
        <ele>182.31</ele>
        <time>2015-01-04T11:41:52Z</time>
      </trkpt>
      <trkpt lat="43.78031" lon="0.76741">
        <ele>177.02</ele>
        <time>2015-01-04T11:42:09Z</time>
      </trkpt>
      <trkpt lat="43.78027" lon="0.76752">
        <ele>178.94</ele>
        <time>2015-01-04T11:42:25Z</time>
      </trkpt>
      <trkpt lat="43.78027" lon="0.76754">
        <ele>180.87</ele>
        <time>2015-01-04T11:43:01Z</time>
      </trkpt>
      <trkpt lat="43.78029" lon="0.76752">
        <ele>181.83</ele>
        <time>2015-01-04T11:43:39Z</time>
      </trkpt>
      <trkpt lat="43.78026" lon="0.76751">
        <ele>184.71</ele>
        <time>2015-01-04T11:44:04Z</time>
      </trkpt>
      <trkpt lat="43.78026" lon="0.76747">
        <ele>186.15</ele>
        <time>2015-01-04T11:44:35Z</time>
      </trkpt>
      <trkpt lat="43.78028" lon="0.76745">
        <ele>187.11</ele>
        <time>2015-01-04T11:45:05Z</time>
      </trkpt>
      <trkpt lat="43.78029" lon="0.76745">
        <ele>187.11</ele>
        <time>2015-01-04T11:45:36Z</time>
      </trkpt>
      <trkpt lat="43.78029" lon="0.76749">
        <ele>187.11</ele>
        <time>2015-01-04T11:46:05Z</time>
      </trkpt>
      <trkpt lat="43.78029" lon="0.7675">
        <ele>188.08</ele>
        <time>2015-01-04T11:46:36Z</time>
      </trkpt>
      <trkpt lat="43.7803" lon="0.76749">
        <ele>190.48</ele>
        <time>2015-01-04T11:47:06Z</time>
      </trkpt>
      <trkpt lat="43.7803" lon="0.7675">
        <ele>190.48</ele>
        <time>2015-01-04T11:47:41Z</time>
      </trkpt>
      <trkpt lat="43.7803" lon="0.76748">
        <ele>191.92</ele>
        <time>2015-01-04T11:48:14Z</time>
      </trkpt>
      <trkpt lat="43.78029" lon="0.76751">
        <ele>190</ele>
        <time>2015-01-04T11:48:48Z</time>
      </trkpt>
      <trkpt lat="43.7803" lon="0.76751">
        <ele>184.23</ele>
        <time>2015-01-04T11:49:29Z</time>
      </trkpt>
      <trkpt lat="43.78027" lon="0.76749">
        <ele>185.67</ele>
        <time>2015-01-04T11:50:17Z</time>
      </trkpt>
      <trkpt lat="43.78032" lon="0.76748">
        <ele>187.59</ele>
        <time>2015-01-04T11:51:02Z</time>
      </trkpt>
      <trkpt lat="43.78028" lon="0.76751">
        <ele>188.56</ele>
        <time>2015-01-04T11:51:42Z</time>
      </trkpt>
      <trkpt lat="43.78029" lon="0.76749">
        <ele>189.04</ele>
        <time>2015-01-04T11:52:19Z</time>
      </trkpt>
      <trkpt lat="43.78029" lon="0.76749">
        <ele>191.44</ele>
        <time>2015-01-04T11:52:56Z</time>
      </trkpt>
      <trkpt lat="43.78029" lon="0.76748">
        <ele>191.44</ele>
        <time>2015-01-04T11:53:38Z</time>
      </trkpt>
      <trkpt lat="43.78028" lon="0.7675">
        <ele>192.88</ele>
        <time>2015-01-04T11:54:18Z</time>
      </trkpt>
      <trkpt lat="43.78033" lon="0.76747">
        <ele>190.96</ele>
        <time>2015-01-04T11:54:55Z</time>
      </trkpt>
      <trkpt lat="43.78031" lon="0.76748">
        <ele>192.4</ele>
        <time>2015-01-04T11:55:28Z</time>
      </trkpt>
      <trkpt lat="43.78032" lon="0.76749">
        <ele>191.92</ele>
        <time>2015-01-04T11:56:12Z</time>
      </trkpt>
      <trkpt lat="43.78033" lon="0.76746">
        <ele>191.44</ele>
        <time>2015-01-04T11:56:51Z</time>
      </trkpt>
      <trkpt lat="43.78028" lon="0.76751">
        <ele>185.67</ele>
        <time>2015-01-04T11:57:25Z</time>
      </trkpt>
      <trkpt lat="43.78027" lon="0.76751">
        <ele>185.67</ele>
        <time>2015-01-04T11:57:59Z</time>
      </trkpt>
      <trkpt lat="43.78026" lon="0.76752">
        <ele>186.63</ele>
        <time>2015-01-04T11:58:41Z</time>
      </trkpt>
      <trkpt lat="43.78028" lon="0.76752">
        <ele>184.71</ele>
        <time>2015-01-04T11:59:20Z</time>
      </trkpt>
      <trkpt lat="43.78028" lon="0.7675">
        <ele>186.63</ele>
        <time>2015-01-04T11:59:59Z</time>
      </trkpt>
      <trkpt lat="43.78029" lon="0.76751">
        <ele>187.59</ele>
        <time>2015-01-04T12:00:36Z</time>
      </trkpt>
      <trkpt lat="43.78028" lon="0.7675">
        <ele>187.59</ele>
        <time>2015-01-04T12:01:09Z</time>
      </trkpt>
      <trkpt lat="43.78031" lon="0.7675">
        <ele>188.56</ele>
        <time>2015-01-04T12:01:43Z</time>
      </trkpt>
      <trkpt lat="43.78032" lon="0.76748">
        <ele>189.52</ele>
        <time>2015-01-04T12:02:15Z</time>
      </trkpt>
      <trkpt lat="43.78029" lon="0.76748">
        <ele>188.56</ele>
        <time>2015-01-04T12:02:49Z</time>
      </trkpt>
      <trkpt lat="43.7803" lon="0.76748">
        <ele>188.56</ele>
        <time>2015-01-04T12:03:24Z</time>
      </trkpt>
      <trkpt lat="43.78031" lon="0.76748">
        <ele>189.04</ele>
        <time>2015-01-04T12:03:56Z</time>
      </trkpt>
      <trkpt lat="43.7803" lon="0.7675">
        <ele>187.59</ele>
        <time>2015-01-04T12:04:31Z</time>
      </trkpt>
      <trkpt lat="43.78029" lon="0.76749">
        <ele>184.71</ele>
        <time>2015-01-04T12:05:02Z</time>
      </trkpt>
      <trkpt lat="43.7803" lon="0.7675">
        <ele>185.19</ele>
        <time>2015-01-04T12:05:36Z</time>
      </trkpt>
      <trkpt lat="43.78027" lon="0.76751">
        <ele>187.59</ele>
        <time>2015-01-04T12:06:11Z</time>
      </trkpt>
      <trkpt lat="43.78026" lon="0.76751">
        <ele>184.71</ele>
        <time>2015-01-04T12:06:47Z</time>
      </trkpt>
      <trkpt lat="43.7803" lon="0.76748">
        <ele>186.63</ele>
        <time>2015-01-04T12:07:26Z</time>
      </trkpt>
      <trkpt lat="43.78029" lon="0.76749">
        <ele>186.15</ele>
        <time>2015-01-04T12:08:07Z</time>
      </trkpt>
      <trkpt lat="43.78032" lon="0.76748">
        <ele>191.92</ele>
        <time>2015-01-04T12:08:40Z</time>
      </trkpt>
      <trkpt lat="43.78032" lon="0.76748">
        <ele>190.48</ele>
        <time>2015-01-04T12:09:14Z</time>
      </trkpt>
      <trkpt lat="43.78031" lon="0.76748">
        <ele>188.08</ele>
        <time>2015-01-04T12:09:50Z</time>
      </trkpt>
      <trkpt lat="43.78031" lon="0.76748">
        <ele>188.56</ele>
        <time>2015-01-04T12:10:20Z</time>
      </trkpt>
      <trkpt lat="43.7803" lon="0.76748">
        <ele>190</ele>
        <time>2015-01-04T12:10:56Z</time>
      </trkpt>
      <trkpt lat="43.78029" lon="0.7675">
        <ele>188.08</ele>
        <time>2015-01-04T12:11:28Z</time>
      </trkpt>
      <trkpt lat="43.78028" lon="0.7675">
        <ele>185.67</ele>
        <time>2015-01-04T12:12:04Z</time>
      </trkpt>
      <trkpt lat="43.7803" lon="0.76748">
        <ele>187.59</ele>
        <time>2015-01-04T12:12:42Z</time>
      </trkpt>
      <trkpt lat="43.78029" lon="0.76751">
        <ele>186.15</ele>
        <time>2015-01-04T12:13:20Z</time>
      </trkpt>
      <trkpt lat="43.78028" lon="0.76751">
        <ele>183.75</ele>
        <time>2015-01-04T12:13:51Z</time>
      </trkpt>
      <trkpt lat="43.78027" lon="0.76752">
        <ele>183.27</ele>
        <time>2015-01-04T12:14:30Z</time>
      </trkpt>
      <trkpt lat="43.78028" lon="0.7675">
        <ele>180.87</ele>
        <time>2015-01-04T12:15:08Z</time>
      </trkpt>
      <trkpt lat="43.78029" lon="0.76752">
        <ele>177.98</ele>
        <time>2015-01-04T12:15:50Z</time>
      </trkpt>
      <trkpt lat="43.78029" lon="0.76752">
        <ele>176.06</ele>
        <time>2015-01-04T12:16:21Z</time>
      </trkpt>
      <trkpt lat="43.78029" lon="0.76752">
        <ele>177.02</ele>
        <time>2015-01-04T12:16:57Z</time>
      </trkpt>
      <trkpt lat="43.7803" lon="0.76751">
        <ele>178.94</ele>
        <time>2015-01-04T12:17:28Z</time>
      </trkpt>
      <trkpt lat="43.7803" lon="0.76748">
        <ele>181.35</ele>
        <time>2015-01-04T12:18:05Z</time>
      </trkpt>
      <trkpt lat="43.78032" lon="0.76746">
        <ele>181.83</ele>
        <time>2015-01-04T12:18:43Z</time>
      </trkpt>
      <trkpt lat="43.78029" lon="0.7675">
        <ele>178.46</ele>
        <time>2015-01-04T12:19:30Z</time>
      </trkpt>
      <trkpt lat="43.78029" lon="0.7675">
        <ele>177.98</ele>
        <time>2015-01-04T12:20:12Z</time>
      </trkpt>
      <trkpt lat="43.7803" lon="0.7675">
        <ele>178.46</ele>
        <time>2015-01-04T12:20:50Z</time>
      </trkpt>
      <trkpt lat="43.78029" lon="0.7675">
        <ele>177.5</ele>
        <time>2015-01-04T12:21:22Z</time>
      </trkpt>
      <trkpt lat="43.78029" lon="0.76751">
        <ele>176.54</ele>
        <time>2015-01-04T12:21:38Z</time>
      </trkpt>
      <trkpt lat="43.78029" lon="0.76753">
        <ele>176.54</ele>
        <time>2015-01-04T12:22:02Z</time>
      </trkpt>
      <trkpt lat="43.78031" lon="0.76754">
        <ele>178.46</ele>
        <time>2015-01-04T12:22:32Z</time>
      </trkpt>
      <trkpt lat="43.78034" lon="0.76753">
        <ele>178.94</ele>
        <time>2015-01-04T12:22:54Z</time>
      </trkpt>
      <trkpt lat="43.78034" lon="0.76754">
        <ele>178.46</ele>
        <time>2015-01-04T12:23:12Z</time>
      </trkpt>
      <trkpt lat="43.78028" lon="0.76754">
        <ele>177.5</ele>
        <time>2015-01-04T12:23:35Z</time>
      </trkpt>
      <trkpt lat="43.78027" lon="0.76756">
        <ele>177.5</ele>
        <time>2015-01-04T12:23:57Z</time>
      </trkpt>
      <trkpt lat="43.78028" lon="0.76754">
        <ele>175.1</ele>
        <time>2015-01-04T12:24:15Z</time>
      </trkpt>
      <trkpt lat="43.78028" lon="0.76754">
        <ele>173.66</ele>
        <time>2015-01-04T12:24:37Z</time>
      </trkpt>
      <trkpt lat="43.78028" lon="0.76752">
        <ele>176.06</ele>
        <time>2015-01-04T12:25:08Z</time>
      </trkpt>
      <trkpt lat="43.7803" lon="0.76751">
        <ele>176.54</ele>
        <time>2015-01-04T12:25:33Z</time>
      </trkpt>
      <trkpt lat="43.78029" lon="0.76753">
        <ele>176.54</ele>
        <time>2015-01-04T12:25:49Z</time>
      </trkpt>
      <trkpt lat="43.78038" lon="0.76768">
        <ele>174.62</ele>
        <time>2015-01-04T12:26:06Z</time>
      </trkpt>
      <trkpt lat="43.78052" lon="0.76783">
        <ele>170.29</ele>
        <time>2015-01-04T12:26:25Z</time>
      </trkpt>
      <trkpt lat="43.78058" lon="0.76795">
        <ele>171.73</ele>
        <time>2015-01-04T12:26:37Z</time>
      </trkpt>
      <trkpt lat="43.78053" lon="0.76808">
        <ele>171.25</ele>
        <time>2015-01-04T12:26:47Z</time>
      </trkpt>
      <trkpt lat="43.78039" lon="0.76838">
        <ele>169.33</ele>
        <time>2015-01-04T12:27:08Z</time>
      </trkpt>
      <trkpt lat="43.7803" lon="0.76852">
        <ele>167.41</ele>
        <time>2015-01-04T12:27:24Z</time>
      </trkpt>
      <trkpt lat="43.78015" lon="0.76873">
        <ele>164.52</ele>
        <time>2015-01-04T12:27:45Z</time>
      </trkpt>
      <trkpt lat="43.78001" lon="0.76891">
        <ele>163.56</ele>
        <time>2015-01-04T12:28:02Z</time>
      </trkpt>
      <trkpt lat="43.77985" lon="0.76909">
        <ele>162.12</ele>
        <time>2015-01-04T12:28:20Z</time>
      </trkpt>
      <trkpt lat="43.77965" lon="0.76926">
        <ele>161.64</ele>
        <time>2015-01-04T12:28:40Z</time>
      </trkpt>
      <trkpt lat="43.77958" lon="0.76937">
        <ele>160.68</ele>
        <time>2015-01-04T12:28:54Z</time>
      </trkpt>
      <trkpt lat="43.77952" lon="0.76944">
        <ele>159.72</ele>
        <time>2015-01-04T12:29:02Z</time>
      </trkpt>
      <trkpt lat="43.77938" lon="0.76964">
        <ele>157.79</ele>
        <time>2015-01-04T12:29:21Z</time>
      </trkpt>
      <trkpt lat="43.77923" lon="0.76995">
        <ele>155.39</ele>
        <time>2015-01-04T12:29:45Z</time>
      </trkpt>
      <trkpt lat="43.77916" lon="0.7701">
        <ele>155.39</ele>
        <time>2015-01-04T12:30:01Z</time>
      </trkpt>
      <trkpt lat="43.77908" lon="0.77035">
        <ele>154.43</ele>
        <time>2015-01-04T12:30:19Z</time>
      </trkpt>
      <trkpt lat="43.77906" lon="0.77038">
        <ele>154.43</ele>
        <time>2015-01-04T12:30:21Z</time>
      </trkpt>
      <trkpt lat="43.77906" lon="0.77045">
        <ele>153.95</ele>
        <time>2015-01-04T12:30:25Z</time>
      </trkpt>
      <trkpt lat="43.77909" lon="0.77055">
        <ele>153.47</ele>
        <time>2015-01-04T12:30:40Z</time>
      </trkpt>
      <trkpt lat="43.77912" lon="0.77059">
        <ele>153.47</ele>
        <time>2015-01-04T12:30:55Z</time>
      </trkpt>
      <trkpt lat="43.77913" lon="0.77059">
        <ele>153.47</ele>
        <time>2015-01-04T12:30:56Z</time>
      </trkpt>
      <trkpt lat="43.77926" lon="0.77073">
        <ele>154.91</ele>
        <time>2015-01-04T12:31:12Z</time>
      </trkpt>
      <trkpt lat="43.77943" lon="0.77091">
        <ele>153.47</ele>
        <time>2015-01-04T12:31:28Z</time>
      </trkpt>
      <trkpt lat="43.77961" lon="0.77103">
        <ele>152.03</ele>
        <time>2015-01-04T12:31:44Z</time>
      </trkpt>
      <trkpt lat="43.77974" lon="0.77116">
        <ele>149.62</ele>
        <time>2015-01-04T12:31:59Z</time>
      </trkpt>
      <trkpt lat="43.77978" lon="0.77121">
        <ele>149.62</ele>
        <time>2015-01-04T12:32:04Z</time>
      </trkpt>
      <trkpt lat="43.7798" lon="0.77131">
        <ele>150.1</ele>
        <time>2015-01-04T12:32:12Z</time>
      </trkpt>
      <trkpt lat="43.7798" lon="0.77141">
        <ele>149.62</ele>
        <time>2015-01-04T12:32:19Z</time>
      </trkpt>
      <trkpt lat="43.77979" lon="0.77162">
        <ele>150.1</ele>
        <time>2015-01-04T12:32:34Z</time>
      </trkpt>
      <trkpt lat="43.77973" lon="0.77182">
        <ele>151.06</ele>
        <time>2015-01-04T12:32:49Z</time>
      </trkpt>
      <trkpt lat="43.77973" lon="0.772">
        <ele>152.03</ele>
        <time>2015-01-04T12:33:02Z</time>
      </trkpt>
      <trkpt lat="43.77973" lon="0.77211">
        <ele>152.03</ele>
        <time>2015-01-04T12:33:10Z</time>
      </trkpt>
      <trkpt lat="43.77969" lon="0.77223">
        <ele>150.58</ele>
        <time>2015-01-04T12:33:19Z</time>
      </trkpt>
      <trkpt lat="43.77966" lon="0.77239">
        <ele>149.62</ele>
        <time>2015-01-04T12:33:30Z</time>
      </trkpt>
      <trkpt lat="43.77965" lon="0.77247">
        <ele>148.18</ele>
        <time>2015-01-04T12:33:36Z</time>
      </trkpt>
      <trkpt lat="43.77961" lon="0.77271">
        <ele>143.37</ele>
        <time>2015-01-04T12:33:52Z</time>
      </trkpt>
      <trkpt lat="43.7796" lon="0.7729">
        <ele>141.45</ele>
        <time>2015-01-04T12:34:05Z</time>
      </trkpt>
      <trkpt lat="43.77964" lon="0.77315">
        <ele>142.89</ele>
        <time>2015-01-04T12:34:21Z</time>
      </trkpt>
      <trkpt lat="43.77964" lon="0.77317">
        <ele>142.89</ele>
        <time>2015-01-04T12:34:22Z</time>
      </trkpt>
      <trkpt lat="43.77965" lon="0.77327">
        <ele>145.3</ele>
        <time>2015-01-04T12:34:38Z</time>
      </trkpt>
      <trkpt lat="43.77966" lon="0.77327">
        <ele>148.18</ele>
        <time>2015-01-04T12:35:02Z</time>
      </trkpt>
      <trkpt lat="43.77965" lon="0.77353">
        <ele>150.58</ele>
        <time>2015-01-04T12:35:18Z</time>
      </trkpt>
      <trkpt lat="43.77969" lon="0.77383">
        <ele>149.14</ele>
        <time>2015-01-04T12:35:38Z</time>
      </trkpt>
      <trkpt lat="43.77981" lon="0.7741">
        <ele>146.26</ele>
        <time>2015-01-04T12:35:58Z</time>
      </trkpt>
      <trkpt lat="43.77984" lon="0.77415">
        <ele>145.78</ele>
        <time>2015-01-04T12:36:02Z</time>
      </trkpt>
      <trkpt lat="43.77988" lon="0.77422">
        <ele>145.3</ele>
        <time>2015-01-04T12:36:07Z</time>
      </trkpt>
      <trkpt lat="43.77999" lon="0.77444">
        <ele>146.74</ele>
        <time>2015-01-04T12:36:24Z</time>
      </trkpt>
      <trkpt lat="43.78011" lon="0.77471">
        <ele>145.3</ele>
        <time>2015-01-04T12:36:43Z</time>
      </trkpt>
      <trkpt lat="43.78022" lon="0.77497">
        <ele>147.7</ele>
        <time>2015-01-04T12:37:01Z</time>
      </trkpt>
      <trkpt lat="43.78032" lon="0.77522">
        <ele>145.78</ele>
        <time>2015-01-04T12:37:19Z</time>
      </trkpt>
      <trkpt lat="43.7804" lon="0.77553">
        <ele>148.66</ele>
        <time>2015-01-04T12:37:36Z</time>
      </trkpt>
      <trkpt lat="43.7804" lon="0.77575">
        <ele>148.66</ele>
        <time>2015-01-04T12:37:51Z</time>
      </trkpt>
      <trkpt lat="43.7804" lon="0.77603">
        <ele>147.22</ele>
        <time>2015-01-04T12:38:08Z</time>
      </trkpt>
      <trkpt lat="43.78041" lon="0.77635">
        <ele>145.78</ele>
        <time>2015-01-04T12:38:26Z</time>
      </trkpt>
      <trkpt lat="43.78044" lon="0.77666">
        <ele>145.3</ele>
        <time>2015-01-04T12:38:45Z</time>
      </trkpt>
      <trkpt lat="43.78046" lon="0.77687">
        <ele>144.34</ele>
        <time>2015-01-04T12:38:59Z</time>
      </trkpt>
      <trkpt lat="43.78048" lon="0.77701">
        <ele>143.37</ele>
        <time>2015-01-04T12:39:16Z</time>
      </trkpt>
      <trkpt lat="43.78045" lon="0.77718">
        <ele>150.1</ele>
        <time>2015-01-04T12:39:32Z</time>
      </trkpt>
      <trkpt lat="43.78047" lon="0.77738">
        <ele>153.95</ele>
        <time>2015-01-04T12:39:50Z</time>
      </trkpt>
      <trkpt lat="43.7805" lon="0.77763">
        <ele>157.31</ele>
        <time>2015-01-04T12:40:08Z</time>
      </trkpt>
      <trkpt lat="43.78051" lon="0.7778">
        <ele>157.31</ele>
        <time>2015-01-04T12:40:22Z</time>
      </trkpt>
      <trkpt lat="43.78051" lon="0.77783">
        <ele>157.31</ele>
        <time>2015-01-04T12:40:24Z</time>
      </trkpt>
      <trkpt lat="43.78058" lon="0.77813">
        <ele>153.47</ele>
        <time>2015-01-04T12:40:45Z</time>
      </trkpt>
      <trkpt lat="43.78062" lon="0.7784">
        <ele>154.43</ele>
        <time>2015-01-04T12:41:02Z</time>
      </trkpt>
      <trkpt lat="43.78065" lon="0.77861">
        <ele>154.91</ele>
        <time>2015-01-04T12:41:16Z</time>
      </trkpt>
      <trkpt lat="43.78072" lon="0.77897">
        <ele>152.99</ele>
        <time>2015-01-04T12:41:37Z</time>
      </trkpt>
      <trkpt lat="43.78076" lon="0.77932">
        <ele>154.91</ele>
        <time>2015-01-04T12:41:56Z</time>
      </trkpt>
      <trkpt lat="43.78077" lon="0.77965">
        <ele>153.95</ele>
        <time>2015-01-04T12:42:16Z</time>
      </trkpt>
      <trkpt lat="43.78075" lon="0.78">
        <ele>152.03</ele>
        <time>2015-01-04T12:42:36Z</time>
      </trkpt>
      <trkpt lat="43.78072" lon="0.7803">
        <ele>150.1</ele>
        <time>2015-01-04T12:42:55Z</time>
      </trkpt>
      <trkpt lat="43.78071" lon="0.78057">
        <ele>149.14</ele>
        <time>2015-01-04T12:43:12Z</time>
      </trkpt>
      <trkpt lat="43.7807" lon="0.78097">
        <ele>145.3</ele>
        <time>2015-01-04T12:43:34Z</time>
      </trkpt>
      <trkpt lat="43.78068" lon="0.7813">
        <ele>146.74</ele>
        <time>2015-01-04T12:43:53Z</time>
      </trkpt>
      <trkpt lat="43.78065" lon="0.78166">
        <ele>147.7</ele>
        <time>2015-01-04T12:44:14Z</time>
      </trkpt>
      <trkpt lat="43.78063" lon="0.78199">
        <ele>146.26</ele>
        <time>2015-01-04T12:44:34Z</time>
      </trkpt>
      <trkpt lat="43.78062" lon="0.78229">
        <ele>144.34</ele>
        <time>2015-01-04T12:44:53Z</time>
      </trkpt>
      <trkpt lat="43.78059" lon="0.78262">
        <ele>144.82</ele>
        <time>2015-01-04T12:45:12Z</time>
      </trkpt>
      <trkpt lat="43.78058" lon="0.7829">
        <ele>147.22</ele>
        <time>2015-01-04T12:45:29Z</time>
      </trkpt>
      <trkpt lat="43.7806" lon="0.7831">
        <ele>147.22</ele>
        <time>2015-01-04T12:45:40Z</time>
      </trkpt>
      <trkpt lat="43.7806" lon="0.78314">
        <ele>147.7</ele>
        <time>2015-01-04T12:45:42Z</time>
      </trkpt>
      <trkpt lat="43.78061" lon="0.78346">
        <ele>145.78</ele>
        <time>2015-01-04T12:46:00Z</time>
      </trkpt>
      <trkpt lat="43.78057" lon="0.78355">
        <ele>145.78</ele>
        <time>2015-01-04T12:46:14Z</time>
      </trkpt>
      <trkpt lat="43.78054" lon="0.78364">
        <ele>145.78</ele>
        <time>2015-01-04T12:46:42Z</time>
      </trkpt>
      <trkpt lat="43.78054" lon="0.78387">
        <ele>145.78</ele>
        <time>2015-01-04T12:46:58Z</time>
      </trkpt>
      <trkpt lat="43.78055" lon="0.78414">
        <ele>144.82</ele>
        <time>2015-01-04T12:47:15Z</time>
      </trkpt>
      <trkpt lat="43.78062" lon="0.78435">
        <ele>142.41</ele>
        <time>2015-01-04T12:47:31Z</time>
      </trkpt>
      <trkpt lat="43.7807" lon="0.78454">
        <ele>139.53</ele>
        <time>2015-01-04T12:47:44Z</time>
      </trkpt>
      <trkpt lat="43.78077" lon="0.78478">
        <ele>136.64</ele>
        <time>2015-01-04T12:48:01Z</time>
      </trkpt>
      <trkpt lat="43.78087" lon="0.78499">
        <ele>131.36</ele>
        <time>2015-01-04T12:48:16Z</time>
      </trkpt>
      <trkpt lat="43.78097" lon="0.78525">
        <ele>128.95</ele>
        <time>2015-01-04T12:48:34Z</time>
      </trkpt>
      <trkpt lat="43.78108" lon="0.78545">
        <ele>128.47</ele>
        <time>2015-01-04T12:48:49Z</time>
      </trkpt>
      <trkpt lat="43.78122" lon="0.78567">
        <ele>132.8</ele>
        <time>2015-01-04T12:49:05Z</time>
      </trkpt>
      <trkpt lat="43.78133" lon="0.7859">
        <ele>132.8</ele>
        <time>2015-01-04T12:49:23Z</time>
      </trkpt>
      <trkpt lat="43.78136" lon="0.78597">
        <ele>132.8</ele>
        <time>2015-01-04T12:49:27Z</time>
      </trkpt>
      <trkpt lat="43.78146" lon="0.78613">
        <ele>131.36</ele>
        <time>2015-01-04T12:49:43Z</time>
      </trkpt>
      <trkpt lat="43.78152" lon="0.78627">
        <ele>132.32</ele>
        <time>2015-01-04T12:49:58Z</time>
      </trkpt>
      <trkpt lat="43.78156" lon="0.78629">
        <ele>133.76</ele>
        <time>2015-01-04T12:50:02Z</time>
      </trkpt>
      <trkpt lat="43.7816" lon="0.78626">
        <ele>136.16</ele>
        <time>2015-01-04T12:50:18Z</time>
      </trkpt>
      <trkpt lat="43.7816" lon="0.78625">
        <ele>139.05</ele>
        <time>2015-01-04T12:50:51Z</time>
      </trkpt>
      <trkpt lat="43.7816" lon="0.78623">
        <ele>138.57</ele>
        <time>2015-01-04T12:51:21Z</time>
      </trkpt>
      <trkpt lat="43.78161" lon="0.78633">
        <ele>135.2</ele>
        <time>2015-01-04T12:51:39Z</time>
      </trkpt>
      <trkpt lat="43.7816" lon="0.78636">
        <ele>131.84</ele>
        <time>2015-01-04T12:52:02Z</time>
      </trkpt>
      <trkpt lat="43.78157" lon="0.78635">
        <ele>130.4</ele>
        <time>2015-01-04T12:52:24Z</time>
      </trkpt>
      <trkpt lat="43.78157" lon="0.78634">
        <ele>126.55</ele>
        <time>2015-01-04T12:52:51Z</time>
      </trkpt>
      <trkpt lat="43.78157" lon="0.7864">
        <ele>126.07</ele>
        <time>2015-01-04T12:53:05Z</time>
      </trkpt>
      <trkpt lat="43.78155" lon="0.78654">
        <ele>124.63</ele>
        <time>2015-01-04T12:53:15Z</time>
      </trkpt>
      <trkpt lat="43.78152" lon="0.78682">
        <ele>124.15</ele>
        <time>2015-01-04T12:53:34Z</time>
      </trkpt>
      <trkpt lat="43.78154" lon="0.78686">
        <ele>124.63</ele>
        <time>2015-01-04T12:53:45Z</time>
      </trkpt>
      <trkpt lat="43.78149" lon="0.78722">
        <ele>126.55</ele>
        <time>2015-01-04T12:54:04Z</time>
      </trkpt>
      <trkpt lat="43.78141" lon="0.78751">
        <ele>130.88</ele>
        <time>2015-01-04T12:54:23Z</time>
      </trkpt>
      <trkpt lat="43.78145" lon="0.78774">
        <ele>132.8</ele>
        <time>2015-01-04T12:54:41Z</time>
      </trkpt>
      <trkpt lat="43.78153" lon="0.78789">
        <ele>134.72</ele>
        <time>2015-01-04T12:54:56Z</time>
      </trkpt>
      <trkpt lat="43.78166" lon="0.78808">
        <ele>136.16</ele>
        <time>2015-01-04T12:55:15Z</time>
      </trkpt>
      <trkpt lat="43.78181" lon="0.78829">
        <ele>137.13</ele>
        <time>2015-01-04T12:55:34Z</time>
      </trkpt>
      <trkpt lat="43.78194" lon="0.78845">
        <ele>139.53</ele>
        <time>2015-01-04T12:55:52Z</time>
      </trkpt>
      <trkpt lat="43.78202" lon="0.78863">
        <ele>143.37</ele>
        <time>2015-01-04T12:56:06Z</time>
      </trkpt>
      <trkpt lat="43.7821" lon="0.78883">
        <ele>145.78</ele>
        <time>2015-01-04T12:56:18Z</time>
      </trkpt>
      <trkpt lat="43.7821" lon="0.78916">
        <ele>146.26</ele>
        <time>2015-01-04T12:56:38Z</time>
      </trkpt>
      <trkpt lat="43.78208" lon="0.78927">
        <ele>145.78</ele>
        <time>2015-01-04T12:56:45Z</time>
      </trkpt>
      <trkpt lat="43.78206" lon="0.78958">
        <ele>142.89</ele>
        <time>2015-01-04T12:57:03Z</time>
      </trkpt>
      <trkpt lat="43.78203" lon="0.78984">
        <ele>141.93</ele>
        <time>2015-01-04T12:57:19Z</time>
      </trkpt>
      <trkpt lat="43.78198" lon="0.7902">
        <ele>143.37</ele>
        <time>2015-01-04T12:57:39Z</time>
      </trkpt>
      <trkpt lat="43.78199" lon="0.79032">
        <ele>144.82</ele>
        <time>2015-01-04T12:57:46Z</time>
      </trkpt>
      <trkpt lat="43.78204" lon="0.79058">
        <ele>148.66</ele>
        <time>2015-01-04T12:58:01Z</time>
      </trkpt>
      <trkpt lat="43.78208" lon="0.79088">
        <ele>147.7</ele>
        <time>2015-01-04T12:58:17Z</time>
      </trkpt>
      <trkpt lat="43.7821" lon="0.79118">
        <ele>147.7</ele>
        <time>2015-01-04T12:58:34Z</time>
      </trkpt>
      <trkpt lat="43.78212" lon="0.79154">
        <ele>146.26</ele>
        <time>2015-01-04T12:58:54Z</time>
      </trkpt>
      <trkpt lat="43.78212" lon="0.79173">
        <ele>145.3</ele>
        <time>2015-01-04T12:59:07Z</time>
      </trkpt>
      <trkpt lat="43.78213" lon="0.79203">
        <ele>143.85</ele>
        <time>2015-01-04T12:59:25Z</time>
      </trkpt>
      <trkpt lat="43.78213" lon="0.79228">
        <ele>143.37</ele>
        <time>2015-01-04T12:59:41Z</time>
      </trkpt>
      <trkpt lat="43.78214" lon="0.79261">
        <ele>142.41</ele>
        <time>2015-01-04T13:00:02Z</time>
      </trkpt>
      <trkpt lat="43.78216" lon="0.79295">
        <ele>142.89</ele>
        <time>2015-01-04T13:00:22Z</time>
      </trkpt>
      <trkpt lat="43.7822" lon="0.79324">
        <ele>143.37</ele>
        <time>2015-01-04T13:00:39Z</time>
      </trkpt>
      <trkpt lat="43.78228" lon="0.7935">
        <ele>144.34</ele>
        <time>2015-01-04T13:00:56Z</time>
      </trkpt>
      <trkpt lat="43.78235" lon="0.7937">
        <ele>146.26</ele>
        <time>2015-01-04T13:01:10Z</time>
      </trkpt>
      <trkpt lat="43.78238" lon="0.79385">
        <ele>149.14</ele>
        <time>2015-01-04T13:01:25Z</time>
      </trkpt>
      <trkpt lat="43.78242" lon="0.79397">
        <ele>151.06</ele>
        <time>2015-01-04T13:01:38Z</time>
      </trkpt>
      <trkpt lat="43.78247" lon="0.79413">
        <ele>152.51</ele>
        <time>2015-01-04T13:01:50Z</time>
      </trkpt>
      <trkpt lat="43.78249" lon="0.79424">
        <ele>152.99</ele>
        <time>2015-01-04T13:01:58Z</time>
      </trkpt>
      <trkpt lat="43.78244" lon="0.79453">
        <ele>152.51</ele>
        <time>2015-01-04T13:02:17Z</time>
      </trkpt>
      <trkpt lat="43.78238" lon="0.79461">
        <ele>153.95</ele>
        <time>2015-01-04T13:02:28Z</time>
      </trkpt>
      <trkpt lat="43.78228" lon="0.79482">
        <ele>157.31</ele>
        <time>2015-01-04T13:02:45Z</time>
      </trkpt>
      <trkpt lat="43.78225" lon="0.79486">
        <ele>157.79</ele>
        <time>2015-01-04T13:02:48Z</time>
      </trkpt>
      <trkpt lat="43.78215" lon="0.79505">
        <ele>159.24</ele>
        <time>2015-01-04T13:03:03Z</time>
      </trkpt>
      <trkpt lat="43.78203" lon="0.79528">
        <ele>159.24</ele>
        <time>2015-01-04T13:03:21Z</time>
      </trkpt>
      <trkpt lat="43.78191" lon="0.79557">
        <ele>160.2</ele>
        <time>2015-01-04T13:03:42Z</time>
      </trkpt>
      <trkpt lat="43.7818" lon="0.79582">
        <ele>162.12</ele>
        <time>2015-01-04T13:04:00Z</time>
      </trkpt>
      <trkpt lat="43.78165" lon="0.79614">
        <ele>160.68</ele>
        <time>2015-01-04T13:04:22Z</time>
      </trkpt>
      <trkpt lat="43.78154" lon="0.79641">
        <ele>161.64</ele>
        <time>2015-01-04T13:04:40Z</time>
      </trkpt>
      <trkpt lat="43.78144" lon="0.79667">
        <ele>161.16</ele>
        <time>2015-01-04T13:04:59Z</time>
      </trkpt>
      <trkpt lat="43.78135" lon="0.797">
        <ele>160.68</ele>
        <time>2015-01-04T13:05:17Z</time>
      </trkpt>
      <trkpt lat="43.78124" lon="0.79732">
        <ele>162.12</ele>
        <time>2015-01-04T13:05:36Z</time>
      </trkpt>
      <trkpt lat="43.78114" lon="0.79761">
        <ele>161.16</ele>
        <time>2015-01-04T13:05:55Z</time>
      </trkpt>
      <trkpt lat="43.78105" lon="0.79789">
        <ele>161.64</ele>
        <time>2015-01-04T13:06:12Z</time>
      </trkpt>
      <trkpt lat="43.78105" lon="0.79791">
        <ele>162.12</ele>
        <time>2015-01-04T13:06:13Z</time>
      </trkpt>
      <trkpt lat="43.78106" lon="0.79795">
        <ele>163.08</ele>
        <time>2015-01-04T13:06:29Z</time>
      </trkpt>
      <trkpt lat="43.78106" lon="0.79798">
        <ele>163.08</ele>
        <time>2015-01-04T13:06:50Z</time>
      </trkpt>
      <trkpt lat="43.78108" lon="0.79796">
        <ele>165</ele>
        <time>2015-01-04T13:07:11Z</time>
      </trkpt>
      <trkpt lat="43.78107" lon="0.79793">
        <ele>165.96</ele>
        <time>2015-01-04T13:07:48Z</time>
      </trkpt>
      <trkpt lat="43.78108" lon="0.79792">
        <ele>160.68</ele>
        <time>2015-01-04T13:08:24Z</time>
      </trkpt>
      <trkpt lat="43.78112" lon="0.79792">
        <ele>159.24</ele>
        <time>2015-01-04T13:08:49Z</time>
      </trkpt>
      <trkpt lat="43.78107" lon="0.79796">
        <ele>162.6</ele>
        <time>2015-01-04T13:09:04Z</time>
      </trkpt>
      <trkpt lat="43.78104" lon="0.79795">
        <ele>166.45</ele>
        <time>2015-01-04T13:09:20Z</time>
      </trkpt>
      <trkpt lat="43.78103" lon="0.79795">
        <ele>170.29</ele>
        <time>2015-01-04T13:09:42Z</time>
      </trkpt>
      <trkpt lat="43.78102" lon="0.79799">
        <ele>170.77</ele>
        <time>2015-01-04T13:10:02Z</time>
      </trkpt>
      <trkpt lat="43.78099" lon="0.79812">
        <ele>170.29</ele>
        <time>2015-01-04T13:10:14Z</time>
      </trkpt>
      <trkpt lat="43.78094" lon="0.79837">
        <ele>168.85</ele>
        <time>2015-01-04T13:10:31Z</time>
      </trkpt>
      <trkpt lat="43.78098" lon="0.79866">
        <ele>166.45</ele>
        <time>2015-01-04T13:10:50Z</time>
      </trkpt>
      <trkpt lat="43.78099" lon="0.79868">
        <ele>166.93</ele>
        <time>2015-01-04T13:10:52Z</time>
      </trkpt>
      <trkpt lat="43.78106" lon="0.799">
        <ele>167.41</ele>
        <time>2015-01-04T13:11:12Z</time>
      </trkpt>
      <trkpt lat="43.78115" lon="0.7993">
        <ele>168.37</ele>
        <time>2015-01-04T13:11:30Z</time>
      </trkpt>
      <trkpt lat="43.78114" lon="0.79962">
        <ele>165.48</ele>
        <time>2015-01-04T13:11:48Z</time>
      </trkpt>
      <trkpt lat="43.78108" lon="0.80001">
        <ele>160.2</ele>
        <time>2015-01-04T13:12:10Z</time>
      </trkpt>
      <trkpt lat="43.78115" lon="0.80032">
        <ele>161.16</ele>
        <time>2015-01-04T13:12:28Z</time>
      </trkpt>
      <trkpt lat="43.78124" lon="0.80058">
        <ele>165</ele>
        <time>2015-01-04T13:12:44Z</time>
      </trkpt>
      <trkpt lat="43.78115" lon="0.80076">
        <ele>163.56</ele>
        <time>2015-01-04T13:13:01Z</time>
      </trkpt>
      <trkpt lat="43.78114" lon="0.80076">
        <ele>164.52</ele>
        <time>2015-01-04T13:13:22Z</time>
      </trkpt>
      <trkpt lat="43.78109" lon="0.80087">
        <ele>164.52</ele>
        <time>2015-01-04T13:13:46Z</time>
      </trkpt>
      <trkpt lat="43.78101" lon="0.80113">
        <ele>164.04</ele>
        <time>2015-01-04T13:14:02Z</time>
      </trkpt>
      <trkpt lat="43.78093" lon="0.80149">
        <ele>163.56</ele>
        <time>2015-01-04T13:14:21Z</time>
      </trkpt>
      <trkpt lat="43.78083" lon="0.80179">
        <ele>163.08</ele>
        <time>2015-01-04T13:14:40Z</time>
      </trkpt>
      <trkpt lat="43.78072" lon="0.8021">
        <ele>160.68</ele>
        <time>2015-01-04T13:14:58Z</time>
      </trkpt>
      <trkpt lat="43.78064" lon="0.80247">
        <ele>161.64</ele>
        <time>2015-01-04T13:15:19Z</time>
      </trkpt>
      <trkpt lat="43.78057" lon="0.80282">
        <ele>162.12</ele>
        <time>2015-01-04T13:15:40Z</time>
      </trkpt>
      <trkpt lat="43.78052" lon="0.80316">
        <ele>159.72</ele>
        <time>2015-01-04T13:15:59Z</time>
      </trkpt>
      <trkpt lat="43.78047" lon="0.80349">
        <ele>159.72</ele>
        <time>2015-01-04T13:16:17Z</time>
      </trkpt>
      <trkpt lat="43.78041" lon="0.80383">
        <ele>160.68</ele>
        <time>2015-01-04T13:16:38Z</time>
      </trkpt>
      <trkpt lat="43.78034" lon="0.80415">
        <ele>153.95</ele>
        <time>2015-01-04T13:16:58Z</time>
      </trkpt>
      <trkpt lat="43.78018" lon="0.8045">
        <ele>151.06</ele>
        <time>2015-01-04T13:17:20Z</time>
      </trkpt>
      <trkpt lat="43.78003" lon="0.80478">
        <ele>154.43</ele>
        <time>2015-01-04T13:17:39Z</time>
      </trkpt>
      <trkpt lat="43.77991" lon="0.80504">
        <ele>152.03</ele>
        <time>2015-01-04T13:17:57Z</time>
      </trkpt>
      <trkpt lat="43.77978" lon="0.80529">
        <ele>150.1</ele>
        <time>2015-01-04T13:18:15Z</time>
      </trkpt>
      <trkpt lat="43.77964" lon="0.80552">
        <ele>149.62</ele>
        <time>2015-01-04T13:18:32Z</time>
      </trkpt>
      <trkpt lat="43.77947" lon="0.80581">
        <ele>148.66</ele>
        <time>2015-01-04T13:18:52Z</time>
      </trkpt>
      <trkpt lat="43.77934" lon="0.80597">
        <ele>145.78</ele>
        <time>2015-01-04T13:19:07Z</time>
      </trkpt>
      <trkpt lat="43.77916" lon="0.80623">
        <ele>142.89</ele>
        <time>2015-01-04T13:19:27Z</time>
      </trkpt>
      <trkpt lat="43.77903" lon="0.80644">
        <ele>140.97</ele>
        <time>2015-01-04T13:19:44Z</time>
      </trkpt>
      <trkpt lat="43.77889" lon="0.80668">
        <ele>140.97</ele>
        <time>2015-01-04T13:20:03Z</time>
      </trkpt>
      <trkpt lat="43.77876" lon="0.80694">
        <ele>137.61</ele>
        <time>2015-01-04T13:20:22Z</time>
      </trkpt>
      <trkpt lat="43.77863" lon="0.80721">
        <ele>136.64</ele>
        <time>2015-01-04T13:20:40Z</time>
      </trkpt>
      <trkpt lat="43.7785" lon="0.80743">
        <ele>134.24</ele>
        <time>2015-01-04T13:20:57Z</time>
      </trkpt>
      <trkpt lat="43.77831" lon="0.80774">
        <ele>133.28</ele>
        <time>2015-01-04T13:21:19Z</time>
      </trkpt>
      <trkpt lat="43.77818" lon="0.80795">
        <ele>130.4</ele>
        <time>2015-01-04T13:21:37Z</time>
      </trkpt>
      <trkpt lat="43.77803" lon="0.80819">
        <ele>127.51</ele>
        <time>2015-01-04T13:21:54Z</time>
      </trkpt>
      <trkpt lat="43.77784" lon="0.80841">
        <ele>127.51</ele>
        <time>2015-01-04T13:22:14Z</time>
      </trkpt>
      <trkpt lat="43.77778" lon="0.80846">
        <ele>126.07</ele>
        <time>2015-01-04T13:22:32Z</time>
      </trkpt>
      <trkpt lat="43.77777" lon="0.80842">
        <ele>126.55</ele>
        <time>2015-01-04T13:22:48Z</time>
      </trkpt>
      <trkpt lat="43.77775" lon="0.80853">
        <ele>127.03</ele>
        <time>2015-01-04T13:23:03Z</time>
      </trkpt>
      <trkpt lat="43.7776" lon="0.80867">
        <ele>122.71</ele>
        <time>2015-01-04T13:23:21Z</time>
      </trkpt>
      <trkpt lat="43.77753" lon="0.8087">
        <ele>121.74</ele>
        <time>2015-01-04T13:23:27Z</time>
      </trkpt>
      <trkpt lat="43.77734" lon="0.80882">
        <ele>120.3</ele>
        <time>2015-01-04T13:23:44Z</time>
      </trkpt>
      <trkpt lat="43.77719" lon="0.80893">
        <ele>119.34</ele>
        <time>2015-01-04T13:24:00Z</time>
      </trkpt>
      <trkpt lat="43.77715" lon="0.80898">
        <ele>120.3</ele>
        <time>2015-01-04T13:24:16Z</time>
      </trkpt>
      <trkpt lat="43.77716" lon="0.80898">
        <ele>121.74</ele>
        <time>2015-01-04T13:24:42Z</time>
      </trkpt>
      <trkpt lat="43.77711" lon="0.80901">
        <ele>120.3</ele>
        <time>2015-01-04T13:25:04Z</time>
      </trkpt>
      <trkpt lat="43.77707" lon="0.80894">
        <ele>118.86</ele>
        <time>2015-01-04T13:25:34Z</time>
      </trkpt>
      <trkpt lat="43.77708" lon="0.80895">
        <ele>124.63</ele>
        <time>2015-01-04T13:26:08Z</time>
      </trkpt>
      <trkpt lat="43.77712" lon="0.80897">
        <ele>127.03</ele>
        <time>2015-01-04T13:26:29Z</time>
      </trkpt>
      <trkpt lat="43.77716" lon="0.80899">
        <ele>126.07</ele>
        <time>2015-01-04T13:26:55Z</time>
      </trkpt>
      <trkpt lat="43.77716" lon="0.80887">
        <ele>123.67</ele>
        <time>2015-01-04T13:27:19Z</time>
      </trkpt>
      <trkpt lat="43.77704" lon="0.80882">
        <ele>124.63</ele>
        <time>2015-01-04T13:27:37Z</time>
      </trkpt>
      <trkpt lat="43.77701" lon="0.80878">
        <ele>126.07</ele>
        <time>2015-01-04T13:27:59Z</time>
      </trkpt>
      <trkpt lat="43.77702" lon="0.80876">
        <ele>131.36</ele>
        <time>2015-01-04T13:28:13Z</time>
      </trkpt>
      <trkpt lat="43.77701" lon="0.80882">
        <ele>131.84</ele>
        <time>2015-01-04T13:28:31Z</time>
      </trkpt>
      <trkpt lat="43.77689" lon="0.80907">
        <ele>132.32</ele>
        <time>2015-01-04T13:28:49Z</time>
      </trkpt>
      <trkpt lat="43.77674" lon="0.80931">
        <ele>135.68</ele>
        <time>2015-01-04T13:29:08Z</time>
      </trkpt>
      <trkpt lat="43.77658" lon="0.80961">
        <ele>137.61</ele>
        <time>2015-01-04T13:29:31Z</time>
      </trkpt>
      <trkpt lat="43.77646" lon="0.8099">
        <ele>137.61</ele>
        <time>2015-01-04T13:29:51Z</time>
      </trkpt>
      <trkpt lat="43.77635" lon="0.81017">
        <ele>137.13</ele>
        <time>2015-01-04T13:30:09Z</time>
      </trkpt>
      <trkpt lat="43.77629" lon="0.81035">
        <ele>134.72</ele>
        <time>2015-01-04T13:30:21Z</time>
      </trkpt>
      <trkpt lat="43.77622" lon="0.81034">
        <ele>133.28</ele>
        <time>2015-01-04T13:30:28Z</time>
      </trkpt>
      <trkpt lat="43.77606" lon="0.81023">
        <ele>134.24</ele>
        <time>2015-01-04T13:30:44Z</time>
      </trkpt>
      <trkpt lat="43.77597" lon="0.81016">
        <ele>135.2</ele>
        <time>2015-01-04T13:30:57Z</time>
      </trkpt>
      <trkpt lat="43.77581" lon="0.81004">
        <ele>136.64</ele>
        <time>2015-01-04T13:31:14Z</time>
      </trkpt>
      <trkpt lat="43.77575" lon="0.80999">
        <ele>136.64</ele>
        <time>2015-01-04T13:31:27Z</time>
      </trkpt>
      <trkpt lat="43.77564" lon="0.80989">
        <ele>136.16</ele>
        <time>2015-01-04T13:31:46Z</time>
      </trkpt>
      <trkpt lat="43.77547" lon="0.80973">
        <ele>136.64</ele>
        <time>2015-01-04T13:32:03Z</time>
      </trkpt>
      <trkpt lat="43.77528" lon="0.80954">
        <ele>137.13</ele>
        <time>2015-01-04T13:32:23Z</time>
      </trkpt>
      <trkpt lat="43.77516" lon="0.80943">
        <ele>139.05</ele>
        <time>2015-01-04T13:32:39Z</time>
      </trkpt>
      <trkpt lat="43.77518" lon="0.80944">
        <ele>138.09</ele>
        <time>2015-01-04T13:33:04Z</time>
      </trkpt>
      <trkpt lat="43.77519" lon="0.80945">
        <ele>136.64</ele>
        <time>2015-01-04T13:33:46Z</time>
      </trkpt>
      <trkpt lat="43.77507" lon="0.80934">
        <ele>137.13</ele>
        <time>2015-01-04T13:34:01Z</time>
      </trkpt>
      <trkpt lat="43.77487" lon="0.80914">
        <ele>138.09</ele>
        <time>2015-01-04T13:34:21Z</time>
      </trkpt>
      <trkpt lat="43.77468" lon="0.80895">
        <ele>138.57</ele>
        <time>2015-01-04T13:34:42Z</time>
      </trkpt>
      <trkpt lat="43.77447" lon="0.80876">
        <ele>141.45</ele>
        <time>2015-01-04T13:35:03Z</time>
      </trkpt>
      <trkpt lat="43.77429" lon="0.80859">
        <ele>140.01</ele>
        <time>2015-01-04T13:35:23Z</time>
      </trkpt>
      <trkpt lat="43.77408" lon="0.8084">
        <ele>140.01</ele>
        <time>2015-01-04T13:35:44Z</time>
      </trkpt>
      <trkpt lat="43.7739" lon="0.80824">
        <ele>140.49</ele>
        <time>2015-01-04T13:36:03Z</time>
      </trkpt>
      <trkpt lat="43.77372" lon="0.80809">
        <ele>139.53</ele>
        <time>2015-01-04T13:36:22Z</time>
      </trkpt>
      <trkpt lat="43.77361" lon="0.80804">
        <ele>138.57</ele>
        <time>2015-01-04T13:36:33Z</time>
      </trkpt>
      <trkpt lat="43.77341" lon="0.80797">
        <ele>135.2</ele>
        <time>2015-01-04T13:36:50Z</time>
      </trkpt>
      <trkpt lat="43.77322" lon="0.80785">
        <ele>133.28</ele>
        <time>2015-01-04T13:37:08Z</time>
      </trkpt>
      <trkpt lat="43.77304" lon="0.80774">
        <ele>133.28</ele>
        <time>2015-01-04T13:37:25Z</time>
      </trkpt>
      <trkpt lat="43.77287" lon="0.80767">
        <ele>132.8</ele>
        <time>2015-01-04T13:37:42Z</time>
      </trkpt>
      <trkpt lat="43.77264" lon="0.8076">
        <ele>134.72</ele>
        <time>2015-01-04T13:38:01Z</time>
      </trkpt>
      <trkpt lat="43.77246" lon="0.80755">
        <ele>136.16</ele>
        <time>2015-01-04T13:38:18Z</time>
      </trkpt>
      <trkpt lat="43.77224" lon="0.80749">
        <ele>138.09</ele>
        <time>2015-01-04T13:38:38Z</time>
      </trkpt>
      <trkpt lat="43.77219" lon="0.80747">
        <ele>139.05</ele>
        <time>2015-01-04T13:38:42Z</time>
      </trkpt>
      <trkpt lat="43.77215" lon="0.80745">
        <ele>140.49</ele>
        <time>2015-01-04T13:38:46Z</time>
      </trkpt>
      <trkpt lat="43.77191" lon="0.80739">
        <ele>142.89</ele>
        <time>2015-01-04T13:39:06Z</time>
      </trkpt>
      <trkpt lat="43.77169" lon="0.80731">
        <ele>143.85</ele>
        <time>2015-01-04T13:39:24Z</time>
      </trkpt>
      <trkpt lat="43.77146" lon="0.80727">
        <ele>142.41</ele>
        <time>2015-01-04T13:39:43Z</time>
      </trkpt>
      <trkpt lat="43.77127" lon="0.80725">
        <ele>142.89</ele>
        <time>2015-01-04T13:39:59Z</time>
      </trkpt>
      <trkpt lat="43.77107" lon="0.80723">
        <ele>142.41</ele>
        <time>2015-01-04T13:40:16Z</time>
      </trkpt>
      <trkpt lat="43.77088" lon="0.80713">
        <ele>141.45</ele>
        <time>2015-01-04T13:40:33Z</time>
      </trkpt>
      <trkpt lat="43.77069" lon="0.80703">
        <ele>140.97</ele>
        <time>2015-01-04T13:40:50Z</time>
      </trkpt>
      <trkpt lat="43.77065" lon="0.807">
        <ele>140.49</ele>
        <time>2015-01-04T13:40:54Z</time>
      </trkpt>
      <trkpt lat="43.77044" lon="0.80689">
        <ele>141.45</ele>
        <time>2015-01-04T13:41:13Z</time>
      </trkpt>
      <trkpt lat="43.77027" lon="0.80673">
        <ele>142.89</ele>
        <time>2015-01-04T13:41:30Z</time>
      </trkpt>
      <trkpt lat="43.77011" lon="0.80656">
        <ele>142.89</ele>
        <time>2015-01-04T13:41:47Z</time>
      </trkpt>
      <trkpt lat="43.77004" lon="0.80647">
        <ele>142.41</ele>
        <time>2015-01-04T13:42:01Z</time>
      </trkpt>
      <trkpt lat="43.76996" lon="0.80634">
        <ele>142.89</ele>
        <time>2015-01-04T13:42:14Z</time>
      </trkpt>
      <trkpt lat="43.76984" lon="0.80614">
        <ele>143.85</ele>
        <time>2015-01-04T13:42:30Z</time>
      </trkpt>
      <trkpt lat="43.76965" lon="0.80589">
        <ele>148.18</ele>
        <time>2015-01-04T13:42:50Z</time>
      </trkpt>
      <trkpt lat="43.7695" lon="0.80565">
        <ele>143.37</ele>
        <time>2015-01-04T13:43:10Z</time>
      </trkpt>
      <trkpt lat="43.76937" lon="0.80544">
        <ele>140.97</ele>
        <time>2015-01-04T13:43:26Z</time>
      </trkpt>
      <trkpt lat="43.76924" lon="0.80527">
        <ele>144.34</ele>
        <time>2015-01-04T13:43:41Z</time>
      </trkpt>
      <trkpt lat="43.76913" lon="0.8051">
        <ele>144.82</ele>
        <time>2015-01-04T13:43:56Z</time>
      </trkpt>
      <trkpt lat="43.76901" lon="0.80495">
        <ele>147.7</ele>
        <time>2015-01-04T13:44:13Z</time>
      </trkpt>
      <trkpt lat="43.769" lon="0.80494">
        <ele>150.58</ele>
        <time>2015-01-04T13:44:32Z</time>
      </trkpt>
      <trkpt lat="43.76898" lon="0.80492">
        <ele>152.99</ele>
        <time>2015-01-04T13:45:01Z</time>
      </trkpt>
      <trkpt lat="43.76896" lon="0.80491">
        <ele>153.47</ele>
        <time>2015-01-04T13:45:30Z</time>
      </trkpt>
      <trkpt lat="43.76897" lon="0.80492">
        <ele>155.39</ele>
        <time>2015-01-04T13:45:53Z</time>
      </trkpt>
      <trkpt lat="43.76896" lon="0.80495">
        <ele>155.39</ele>
        <time>2015-01-04T13:45:56Z</time>
      </trkpt>
      <trkpt lat="43.76896" lon="0.805">
        <ele>154.91</ele>
        <time>2015-01-04T13:45:59Z</time>
      </trkpt>
      <trkpt lat="43.76886" lon="0.80524">
        <ele>152.03</ele>
        <time>2015-01-04T13:46:17Z</time>
      </trkpt>
      <trkpt lat="43.76884" lon="0.80529">
        <ele>150.58</ele>
        <time>2015-01-04T13:46:21Z</time>
      </trkpt>
      <trkpt lat="43.76875" lon="0.80549">
        <ele>144.82</ele>
        <time>2015-01-04T13:46:37Z</time>
      </trkpt>
      <trkpt lat="43.76866" lon="0.80572">
        <ele>139.53</ele>
        <time>2015-01-04T13:46:53Z</time>
      </trkpt>
      <trkpt lat="43.76857" lon="0.8059">
        <ele>134.72</ele>
        <time>2015-01-04T13:47:07Z</time>
      </trkpt>
      <trkpt lat="43.76847" lon="0.8061">
        <ele>129.43</ele>
        <time>2015-01-04T13:47:22Z</time>
      </trkpt>
      <trkpt lat="43.76837" lon="0.80632">
        <ele>125.11</ele>
        <time>2015-01-04T13:47:38Z</time>
      </trkpt>
      <trkpt lat="43.76828" lon="0.8065">
        <ele>122.71</ele>
        <time>2015-01-04T13:47:51Z</time>
      </trkpt>
      <trkpt lat="43.76825" lon="0.80654">
        <ele>123.19</ele>
        <time>2015-01-04T13:47:53Z</time>
      </trkpt>
      <trkpt lat="43.76816" lon="0.80679">
        <ele>126.55</ele>
        <time>2015-01-04T13:48:08Z</time>
      </trkpt>
      <trkpt lat="43.76804" lon="0.80705">
        <ele>128.95</ele>
        <time>2015-01-04T13:48:24Z</time>
      </trkpt>
      <trkpt lat="43.76794" lon="0.80728">
        <ele>128.47</ele>
        <time>2015-01-04T13:48:40Z</time>
      </trkpt>
      <trkpt lat="43.76785" lon="0.80745">
        <ele>126.07</ele>
        <time>2015-01-04T13:48:52Z</time>
      </trkpt>
      <trkpt lat="43.76774" lon="0.80765">
        <ele>127.03</ele>
        <time>2015-01-04T13:49:06Z</time>
      </trkpt>
      <trkpt lat="43.76769" lon="0.80776">
        <ele>126.07</ele>
        <time>2015-01-04T13:49:13Z</time>
      </trkpt>
      <trkpt lat="43.76752" lon="0.80795">
        <ele>123.67</ele>
        <time>2015-01-04T13:49:31Z</time>
      </trkpt>
      <trkpt lat="43.76743" lon="0.80799">
        <ele>122.71</ele>
        <time>2015-01-04T13:49:38Z</time>
      </trkpt>
      <trkpt lat="43.76719" lon="0.80803">
        <ele>126.55</ele>
        <time>2015-01-04T13:49:57Z</time>
      </trkpt>
      <trkpt lat="43.767" lon="0.80815">
        <ele>131.36</ele>
        <time>2015-01-04T13:50:12Z</time>
      </trkpt>
      <trkpt lat="43.76686" lon="0.8082">
        <ele>125.11</ele>
        <time>2015-01-04T13:50:26Z</time>
      </trkpt>
      <trkpt lat="43.76667" lon="0.8083">
        <ele>123.19</ele>
        <time>2015-01-04T13:50:42Z</time>
      </trkpt>
      <trkpt lat="43.76655" lon="0.80842">
        <ele>122.71</ele>
        <time>2015-01-04T13:50:53Z</time>
      </trkpt>
      <trkpt lat="43.76645" lon="0.80842">
        <ele>124.15</ele>
        <time>2015-01-04T13:51:05Z</time>
      </trkpt>
      <trkpt lat="43.76647" lon="0.80845">
        <ele>127.03</ele>
        <time>2015-01-04T13:51:25Z</time>
      </trkpt>
      <trkpt lat="43.76647" lon="0.80842">
        <ele>124.63</ele>
        <time>2015-01-04T13:51:49Z</time>
      </trkpt>
      <trkpt lat="43.76647" lon="0.80841">
        <ele>124.15</ele>
        <time>2015-01-04T13:52:25Z</time>
      </trkpt>
      <trkpt lat="43.76648" lon="0.80847">
        <ele>124.63</ele>
        <time>2015-01-04T13:52:33Z</time>
      </trkpt>
      <trkpt lat="43.76643" lon="0.80855">
        <ele>124.63</ele>
        <time>2015-01-04T13:52:39Z</time>
      </trkpt>
      <trkpt lat="43.7664" lon="0.80862">
        <ele>124.63</ele>
        <time>2015-01-04T13:52:43Z</time>
      </trkpt>
      <trkpt lat="43.7663" lon="0.80891">
        <ele>124.15</ele>
        <time>2015-01-04T13:53:02Z</time>
      </trkpt>
      <trkpt lat="43.7662" lon="0.80919">
        <ele>125.59</ele>
        <time>2015-01-04T13:53:20Z</time>
      </trkpt>
      <trkpt lat="43.7661" lon="0.80946">
        <ele>125.11</ele>
        <time>2015-01-04T13:53:38Z</time>
      </trkpt>
      <trkpt lat="43.76609" lon="0.80954">
        <ele>126.07</ele>
        <time>2015-01-04T13:53:55Z</time>
      </trkpt>
      <trkpt lat="43.76609" lon="0.80954">
        <ele>127.51</ele>
        <time>2015-01-04T13:54:15Z</time>
      </trkpt>
      <trkpt lat="43.76608" lon="0.80953">
        <ele>127.03</ele>
        <time>2015-01-04T13:54:30Z</time>
      </trkpt>
      <trkpt lat="43.76607" lon="0.80951">
        <ele>130.88</ele>
        <time>2015-01-04T13:55:13Z</time>
      </trkpt>
      <trkpt lat="43.76607" lon="0.80953">
        <ele>134.72</ele>
        <time>2015-01-04T13:55:55Z</time>
      </trkpt>
      <trkpt lat="43.76607" lon="0.80953">
        <ele>134.24</ele>
        <time>2015-01-04T13:55:59Z</time>
      </trkpt>
      <trkpt lat="43.76608" lon="0.80954">
        <ele>133.28</ele>
        <time>2015-01-04T13:56:10Z</time>
      </trkpt>
      <trkpt lat="43.7661" lon="0.80951">
        <ele>131.36</ele>
        <time>2015-01-04T13:56:35Z</time>
      </trkpt>
      <trkpt lat="43.76609" lon="0.80947">
        <ele>132.8</ele>
        <time>2015-01-04T13:56:57Z</time>
      </trkpt>
      <trkpt lat="43.76611" lon="0.8095">
        <ele>129.43</ele>
        <time>2015-01-04T13:57:22Z</time>
      </trkpt>
      <trkpt lat="43.7661" lon="0.8095">
        <ele>129.92</ele>
        <time>2015-01-04T13:57:51Z</time>
      </trkpt>
      <trkpt lat="43.76609" lon="0.80951">
        <ele>131.36</ele>
        <time>2015-01-04T13:58:20Z</time>
      </trkpt>
      <trkpt lat="43.76606" lon="0.80951">
        <ele>129.43</ele>
        <time>2015-01-04T13:58:40Z</time>
      </trkpt>
      <trkpt lat="43.76591" lon="0.80958">
        <ele>126.55</ele>
        <time>2015-01-04T13:58:53Z</time>
      </trkpt>
      <trkpt lat="43.76577" lon="0.80962">
        <ele>125.59</ele>
        <time>2015-01-04T13:59:05Z</time>
      </trkpt>
      <trkpt lat="43.76572" lon="0.80962">
        <ele>125.59</ele>
        <time>2015-01-04T13:59:09Z</time>
      </trkpt>
      <trkpt lat="43.76547" lon="0.80969">
        <ele>125.59</ele>
        <time>2015-01-04T13:59:29Z</time>
      </trkpt>
      <trkpt lat="43.76542" lon="0.80971">
        <ele>125.11</ele>
        <time>2015-01-04T13:59:33Z</time>
      </trkpt>
      <trkpt lat="43.76518" lon="0.8098">
        <ele>126.55</ele>
        <time>2015-01-04T13:59:54Z</time>
      </trkpt>
      <trkpt lat="43.76509" lon="0.80982">
        <ele>127.51</ele>
        <time>2015-01-04T14:00:10Z</time>
      </trkpt>
      <trkpt lat="43.76497" lon="0.80989">
        <ele>128.47</ele>
        <time>2015-01-04T14:00:22Z</time>
      </trkpt>
      <trkpt lat="43.76489" lon="0.8099">
        <ele>127.99</ele>
        <time>2015-01-04T14:00:29Z</time>
      </trkpt>
      <trkpt lat="43.7647" lon="0.81">
        <ele>128.95</ele>
        <time>2015-01-04T14:00:49Z</time>
      </trkpt>
      <trkpt lat="43.76463" lon="0.81008">
        <ele>128.95</ele>
        <time>2015-01-04T14:00:59Z</time>
      </trkpt>
      <trkpt lat="43.76449" lon="0.81022">
        <ele>127.99</ele>
        <time>2015-01-04T14:01:16Z</time>
      </trkpt>
      <trkpt lat="43.76438" lon="0.81025">
        <ele>128.47</ele>
        <time>2015-01-04T14:01:29Z</time>
      </trkpt>
      <trkpt lat="43.76425" lon="0.81017">
        <ele>128.95</ele>
        <time>2015-01-04T14:01:45Z</time>
      </trkpt>
      <trkpt lat="43.76415" lon="0.8101">
        <ele>128.95</ele>
        <time>2015-01-04T14:02:03Z</time>
      </trkpt>
      <trkpt lat="43.76415" lon="0.81008">
        <ele>130.4</ele>
        <time>2015-01-04T14:02:25Z</time>
      </trkpt>
      <trkpt lat="43.76417" lon="0.81007">
        <ele>130.4</ele>
        <time>2015-01-04T14:02:42Z</time>
      </trkpt>
      <trkpt lat="43.76417" lon="0.81013">
        <ele>130.88</ele>
        <time>2015-01-04T14:03:11Z</time>
      </trkpt>
      <trkpt lat="43.7642" lon="0.81013">
        <ele>133.28</ele>
        <time>2015-01-04T14:03:35Z</time>
      </trkpt>
      <trkpt lat="43.7642" lon="0.81014">
        <ele>134.24</ele>
        <time>2015-01-04T14:03:56Z</time>
      </trkpt>
      <trkpt lat="43.76423" lon="0.81013">
        <ele>133.76</ele>
        <time>2015-01-04T14:04:14Z</time>
      </trkpt>
      <trkpt lat="43.76441" lon="0.81037">
        <ele>132.32</ele>
        <time>2015-01-04T14:04:34Z</time>
      </trkpt>
      <trkpt lat="43.76435" lon="0.81044">
        <ele>130.88</ele>
        <time>2015-01-04T14:04:47Z</time>
      </trkpt>
      <trkpt lat="43.76435" lon="0.81043">
        <ele>131.84</ele>
        <time>2015-01-04T14:05:02Z</time>
      </trkpt>
      <trkpt lat="43.76436" lon="0.81041">
        <ele>130.88</ele>
        <time>2015-01-04T14:05:25Z</time>
      </trkpt>
      <trkpt lat="43.76434" lon="0.8104">
        <ele>130.88</ele>
        <time>2015-01-04T14:05:53Z</time>
      </trkpt>
      <trkpt lat="43.76414" lon="0.81033">
        <ele>132.8</ele>
        <time>2015-01-04T14:06:10Z</time>
      </trkpt>
      <trkpt lat="43.76396" lon="0.81036">
        <ele>135.68</ele>
        <time>2015-01-04T14:06:26Z</time>
      </trkpt>
      <trkpt lat="43.76373" lon="0.8105">
        <ele>137.13</ele>
        <time>2015-01-04T14:06:45Z</time>
      </trkpt>
      <trkpt lat="43.76349" lon="0.81052">
        <ele>139.53</ele>
        <time>2015-01-04T14:07:04Z</time>
      </trkpt>
      <trkpt lat="43.76325" lon="0.81043">
        <ele>139.05</ele>
        <time>2015-01-04T14:07:23Z</time>
      </trkpt>
      <trkpt lat="43.76305" lon="0.81029">
        <ele>136.64</ele>
        <time>2015-01-04T14:07:41Z</time>
      </trkpt>
      <trkpt lat="43.76285" lon="0.81016">
        <ele>130.88</ele>
        <time>2015-01-04T14:07:59Z</time>
      </trkpt>
      <trkpt lat="43.76277" lon="0.81011">
        <ele>129.43</ele>
        <time>2015-01-04T14:08:14Z</time>
      </trkpt>
      <trkpt lat="43.76281" lon="0.80998">
        <ele>127.99</ele>
        <time>2015-01-04T14:08:35Z</time>
      </trkpt>
      <trkpt lat="43.76285" lon="0.80982">
        <ele>128.47</ele>
        <time>2015-01-04T14:08:47Z</time>
      </trkpt>
      <trkpt lat="43.76287" lon="0.80967">
        <ele>127.51</ele>
        <time>2015-01-04T14:08:54Z</time>
      </trkpt>
      <trkpt lat="43.76276" lon="0.80944">
        <ele>127.99</ele>
        <time>2015-01-04T14:09:10Z</time>
      </trkpt>
      <trkpt lat="43.76256" lon="0.80935">
        <ele>124.15</ele>
        <time>2015-01-04T14:09:27Z</time>
      </trkpt>
      <trkpt lat="43.76235" lon="0.80917">
        <ele>122.71</ele>
        <time>2015-01-04T14:09:44Z</time>
      </trkpt>
      <trkpt lat="43.76214" lon="0.80912">
        <ele>125.59</ele>
        <time>2015-01-04T14:10:01Z</time>
      </trkpt>
      <trkpt lat="43.7619" lon="0.80911">
        <ele>126.07</ele>
        <time>2015-01-04T14:10:17Z</time>
      </trkpt>
      <trkpt lat="43.76167" lon="0.80902">
        <ele>126.55</ele>
        <time>2015-01-04T14:10:33Z</time>
      </trkpt>
      <trkpt lat="43.76148" lon="0.80878">
        <ele>125.11</ele>
        <time>2015-01-04T14:10:51Z</time>
      </trkpt>
      <trkpt lat="43.76125" lon="0.80862">
        <ele>125.11</ele>
        <time>2015-01-04T14:11:10Z</time>
      </trkpt>
      <trkpt lat="43.76106" lon="0.80843">
        <ele>127.99</ele>
        <time>2015-01-04T14:11:28Z</time>
      </trkpt>
      <trkpt lat="43.76083" lon="0.80846">
        <ele>126.55</ele>
        <time>2015-01-04T14:11:46Z</time>
      </trkpt>
      <trkpt lat="43.76082" lon="0.80846">
        <ele>126.55</ele>
        <time>2015-01-04T14:11:47Z</time>
      </trkpt>
      <trkpt lat="43.76058" lon="0.80854">
        <ele>126.55</ele>
        <time>2015-01-04T14:12:06Z</time>
      </trkpt>
      <trkpt lat="43.76035" lon="0.80858">
        <ele>126.07</ele>
        <time>2015-01-04T14:12:24Z</time>
      </trkpt>
      <trkpt lat="43.76016" lon="0.80863">
        <ele>127.03</ele>
        <time>2015-01-04T14:12:39Z</time>
      </trkpt>
      <trkpt lat="43.75997" lon="0.80875">
        <ele>128.47</ele>
        <time>2015-01-04T14:12:56Z</time>
      </trkpt>
      <trkpt lat="43.7599" lon="0.80876">
        <ele>129.43</ele>
        <time>2015-01-04T14:13:02Z</time>
      </trkpt>
      <trkpt lat="43.75984" lon="0.80879">
        <ele>130.4</ele>
        <time>2015-01-04T14:13:07Z</time>
      </trkpt>
      <trkpt lat="43.75966" lon="0.80875">
        <ele>128.47</ele>
        <time>2015-01-04T14:13:24Z</time>
      </trkpt>
      <trkpt lat="43.75957" lon="0.80876">
        <ele>128.95</ele>
        <time>2015-01-04T14:13:33Z</time>
      </trkpt>
      <trkpt lat="43.75949" lon="0.80888">
        <ele>129.92</ele>
        <time>2015-01-04T14:13:43Z</time>
      </trkpt>
      <trkpt lat="43.75946" lon="0.80888">
        <ele>129.92</ele>
        <time>2015-01-04T14:13:46Z</time>
      </trkpt>
      <trkpt lat="43.75944" lon="0.80885">
        <ele>129.92</ele>
        <time>2015-01-04T14:13:48Z</time>
      </trkpt>
      <trkpt lat="43.75946" lon="0.80872">
        <ele>129.92</ele>
        <time>2015-01-04T14:13:56Z</time>
      </trkpt>
      <trkpt lat="43.75947" lon="0.80865">
        <ele>128.95</ele>
        <time>2015-01-04T14:14:00Z</time>
      </trkpt>
      <trkpt lat="43.75932" lon="0.80847">
        <ele>127.99</ele>
        <time>2015-01-04T14:14:16Z</time>
      </trkpt>
      <trkpt lat="43.75922" lon="0.80824">
        <ele>126.07</ele>
        <time>2015-01-04T14:14:32Z</time>
      </trkpt>
      <trkpt lat="43.75912" lon="0.80811">
        <ele>126.07</ele>
        <time>2015-01-04T14:14:44Z</time>
      </trkpt>
      <trkpt lat="43.75904" lon="0.80806">
        <ele>126.07</ele>
        <time>2015-01-04T14:14:51Z</time>
      </trkpt>
      <trkpt lat="43.75888" lon="0.80782">
        <ele>125.11</ele>
        <time>2015-01-04T14:15:10Z</time>
      </trkpt>
      <trkpt lat="43.75891" lon="0.80756">
        <ele>126.55</ele>
        <time>2015-01-04T14:15:26Z</time>
      </trkpt>
      <trkpt lat="43.75889" lon="0.80746">
        <ele>127.51</ele>
        <time>2015-01-04T14:15:31Z</time>
      </trkpt>
      <trkpt lat="43.75887" lon="0.80744">
        <ele>127.99</ele>
        <time>2015-01-04T14:15:33Z</time>
      </trkpt>
      <trkpt lat="43.75863" lon="0.80741">
        <ele>127.03</ele>
        <time>2015-01-04T14:15:53Z</time>
      </trkpt>
      <trkpt lat="43.75838" lon="0.80754">
        <ele>129.43</ele>
        <time>2015-01-04T14:16:13Z</time>
      </trkpt>
      <trkpt lat="43.75831" lon="0.80761">
        <ele>129.92</ele>
        <time>2015-01-04T14:16:21Z</time>
      </trkpt>
      <trkpt lat="43.75832" lon="0.80768">
        <ele>129.92</ele>
        <time>2015-01-04T14:16:26Z</time>
      </trkpt>
      <trkpt lat="43.75838" lon="0.80802">
        <ele>130.4</ele>
        <time>2015-01-04T14:16:47Z</time>
      </trkpt>
      <trkpt lat="43.75842" lon="0.80841">
        <ele>130.88</ele>
        <time>2015-01-04T14:17:08Z</time>
      </trkpt>
      <trkpt lat="43.75847" lon="0.80878">
        <ele>132.32</ele>
        <time>2015-01-04T14:17:29Z</time>
      </trkpt>
      <trkpt lat="43.75849" lon="0.80916">
        <ele>133.76</ele>
        <time>2015-01-04T14:17:52Z</time>
      </trkpt>
      <trkpt lat="43.75837" lon="0.80952">
        <ele>134.72</ele>
        <time>2015-01-04T14:18:13Z</time>
      </trkpt>
      <trkpt lat="43.7582" lon="0.80974">
        <ele>131.84</ele>
        <time>2015-01-04T14:18:33Z</time>
      </trkpt>
      <trkpt lat="43.75794" lon="0.81008">
        <ele>132.32</ele>
        <time>2015-01-04T14:18:58Z</time>
      </trkpt>
      <trkpt lat="43.75772" lon="0.81033">
        <ele>136.16</ele>
        <time>2015-01-04T14:19:16Z</time>
      </trkpt>
      <trkpt lat="43.75758" lon="0.81058">
        <ele>139.53</ele>
        <time>2015-01-04T14:19:35Z</time>
      </trkpt>
      <trkpt lat="43.75762" lon="0.8109">
        <ele>140.97</ele>
        <time>2015-01-04T14:19:53Z</time>
      </trkpt>
      <trkpt lat="43.75768" lon="0.81119">
        <ele>141.45</ele>
        <time>2015-01-04T14:20:10Z</time>
      </trkpt>
      <trkpt lat="43.75771" lon="0.81154">
        <ele>136.16</ele>
        <time>2015-01-04T14:20:30Z</time>
      </trkpt>
      <trkpt lat="43.75774" lon="0.81165">
        <ele>138.09</ele>
        <time>2015-01-04T14:20:43Z</time>
      </trkpt>
      <trkpt lat="43.75775" lon="0.81166">
        <ele>138.09</ele>
        <time>2015-01-04T14:20:44Z</time>
      </trkpt>
      <trkpt lat="43.75777" lon="0.81178">
        <ele>137.61</ele>
        <time>2015-01-04T14:20:52Z</time>
      </trkpt>
      <trkpt lat="43.7578" lon="0.81203">
        <ele>134.72</ele>
        <time>2015-01-04T14:21:07Z</time>
      </trkpt>
      <trkpt lat="43.75781" lon="0.8121">
        <ele>134.24</ele>
        <time>2015-01-04T14:21:11Z</time>
      </trkpt>
      <trkpt lat="43.75786" lon="0.81244">
        <ele>135.2</ele>
        <time>2015-01-04T14:21:30Z</time>
      </trkpt>
      <trkpt lat="43.75794" lon="0.81277">
        <ele>138.57</ele>
        <time>2015-01-04T14:21:50Z</time>
      </trkpt>
      <trkpt lat="43.75801" lon="0.81309">
        <ele>139.53</ele>
        <time>2015-01-04T14:22:09Z</time>
      </trkpt>
      <trkpt lat="43.7581" lon="0.81337">
        <ele>138.09</ele>
        <time>2015-01-04T14:22:27Z</time>
      </trkpt>
      <trkpt lat="43.75818" lon="0.81363">
        <ele>142.89</ele>
        <time>2015-01-04T14:22:45Z</time>
      </trkpt>
      <trkpt lat="43.75826" lon="0.81389">
        <ele>143.85</ele>
        <time>2015-01-04T14:23:02Z</time>
      </trkpt>
      <trkpt lat="43.75831" lon="0.81416">
        <ele>145.3</ele>
        <time>2015-01-04T14:23:20Z</time>
      </trkpt>
      <trkpt lat="43.75836" lon="0.81451">
        <ele>147.22</ele>
        <time>2015-01-04T14:23:40Z</time>
      </trkpt>
      <trkpt lat="43.75845" lon="0.81488">
        <ele>145.3</ele>
        <time>2015-01-04T14:24:01Z</time>
      </trkpt>
      <trkpt lat="43.75854" lon="0.81517">
        <ele>141.93</ele>
        <time>2015-01-04T14:24:20Z</time>
      </trkpt>
      <trkpt lat="43.7586" lon="0.8154">
        <ele>139.53</ele>
        <time>2015-01-04T14:24:35Z</time>
      </trkpt>
      <trkpt lat="43.75872" lon="0.81573">
        <ele>138.09</ele>
        <time>2015-01-04T14:24:55Z</time>
      </trkpt>
      <trkpt lat="43.75883" lon="0.81605">
        <ele>137.61</ele>
        <time>2015-01-04T14:25:15Z</time>
      </trkpt>
      <trkpt lat="43.75895" lon="0.8164">
        <ele>140.49</ele>
        <time>2015-01-04T14:25:35Z</time>
      </trkpt>
      <trkpt lat="43.75908" lon="0.8167">
        <ele>141.93</ele>
        <time>2015-01-04T14:25:55Z</time>
      </trkpt>
      <trkpt lat="43.75922" lon="0.81709">
        <ele>141.45</ele>
        <time>2015-01-04T14:26:17Z</time>
      </trkpt>
      <trkpt lat="43.75932" lon="0.81746">
        <ele>141.93</ele>
        <time>2015-01-04T14:26:38Z</time>
      </trkpt>
      <trkpt lat="43.75941" lon="0.81785">
        <ele>140.49</ele>
        <time>2015-01-04T14:27:01Z</time>
      </trkpt>
      <trkpt lat="43.75944" lon="0.818">
        <ele>142.89</ele>
        <time>2015-01-04T14:27:09Z</time>
      </trkpt>
      <trkpt lat="43.75953" lon="0.81832">
        <ele>145.78</ele>
        <time>2015-01-04T14:27:27Z</time>
      </trkpt>
      <trkpt lat="43.75959" lon="0.81868">
        <ele>146.74</ele>
        <time>2015-01-04T14:27:48Z</time>
      </trkpt>
      <trkpt lat="43.75954" lon="0.81897">
        <ele>148.66</ele>
        <time>2015-01-04T14:28:06Z</time>
      </trkpt>
      <trkpt lat="43.75952" lon="0.81909">
        <ele>149.62</ele>
        <time>2015-01-04T14:28:24Z</time>
      </trkpt>
      <trkpt lat="43.75946" lon="0.81923">
        <ele>150.58</ele>
        <time>2015-01-04T14:28:59Z</time>
      </trkpt>
      <trkpt lat="43.75944" lon="0.81939">
        <ele>152.03</ele>
        <time>2015-01-04T14:29:12Z</time>
      </trkpt>
      <trkpt lat="43.75941" lon="0.81962">
        <ele>152.03</ele>
        <time>2015-01-04T14:29:30Z</time>
      </trkpt>
      <trkpt lat="43.75937" lon="0.81994">
        <ele>152.51</ele>
        <time>2015-01-04T14:29:47Z</time>
      </trkpt>
      <trkpt lat="43.75929" lon="0.82018">
        <ele>155.87</ele>
        <time>2015-01-04T14:30:03Z</time>
      </trkpt>
      <trkpt lat="43.75927" lon="0.8202">
        <ele>159.72</ele>
        <time>2015-01-04T14:30:19Z</time>
      </trkpt>
      <trkpt lat="43.75926" lon="0.82021">
        <ele>161.64</ele>
        <time>2015-01-04T14:30:34Z</time>
      </trkpt>
      <trkpt lat="43.75922" lon="0.82033">
        <ele>165.96</ele>
        <time>2015-01-04T14:30:46Z</time>
      </trkpt>
      <trkpt lat="43.75915" lon="0.82059">
        <ele>167.89</ele>
        <time>2015-01-04T14:31:03Z</time>
      </trkpt>
      <trkpt lat="43.75908" lon="0.82081">
        <ele>168.37</ele>
        <time>2015-01-04T14:31:18Z</time>
      </trkpt>
      <trkpt lat="43.759" lon="0.82102">
        <ele>170.77</ele>
        <time>2015-01-04T14:31:31Z</time>
      </trkpt>
      <trkpt lat="43.7589" lon="0.82134">
        <ele>167.89</ele>
        <time>2015-01-04T14:31:50Z</time>
      </trkpt>
      <trkpt lat="43.75883" lon="0.82159">
        <ele>162.12</ele>
        <time>2015-01-04T14:32:07Z</time>
      </trkpt>
      <trkpt lat="43.75874" lon="0.82188">
        <ele>159.72</ele>
        <time>2015-01-04T14:32:23Z</time>
      </trkpt>
      <trkpt lat="43.75866" lon="0.82219">
        <ele>161.16</ele>
        <time>2015-01-04T14:32:39Z</time>
      </trkpt>
      <trkpt lat="43.75862" lon="0.8223">
        <ele>160.68</ele>
        <time>2015-01-04T14:32:46Z</time>
      </trkpt>
      <trkpt lat="43.75855" lon="0.82248">
        <ele>164.52</ele>
        <time>2015-01-04T14:32:59Z</time>
      </trkpt>
      <trkpt lat="43.75847" lon="0.82273">
        <ele>166.93</ele>
        <time>2015-01-04T14:33:16Z</time>
      </trkpt>
      <trkpt lat="43.75838" lon="0.82306">
        <ele>166.45</ele>
        <time>2015-01-04T14:33:36Z</time>
      </trkpt>
      <trkpt lat="43.75831" lon="0.8233">
        <ele>165.96</ele>
        <time>2015-01-04T14:33:51Z</time>
      </trkpt>
      <trkpt lat="43.75824" lon="0.82358">
        <ele>165.48</ele>
        <time>2015-01-04T14:34:08Z</time>
      </trkpt>
      <trkpt lat="43.75818" lon="0.8238">
        <ele>162.6</ele>
        <time>2015-01-04T14:34:22Z</time>
      </trkpt>
      <trkpt lat="43.75811" lon="0.82409">
        <ele>157.31</ele>
        <time>2015-01-04T14:34:40Z</time>
      </trkpt>
      <trkpt lat="43.75807" lon="0.8243">
        <ele>154.91</ele>
        <time>2015-01-04T14:34:51Z</time>
      </trkpt>
      <trkpt lat="43.75822" lon="0.82471">
        <ele>156.35</ele>
        <time>2015-01-04T14:35:15Z</time>
      </trkpt>
      <trkpt lat="43.75848" lon="0.82484">
        <ele>157.79</ele>
        <time>2015-01-04T14:35:36Z</time>
      </trkpt>
      <trkpt lat="43.7587" lon="0.82485">
        <ele>158.75</ele>
        <time>2015-01-04T14:35:54Z</time>
      </trkpt>
      <trkpt lat="43.75904" lon="0.82481">
        <ele>159.24</ele>
        <time>2015-01-04T14:36:17Z</time>
      </trkpt>
      <trkpt lat="43.75922" lon="0.82479">
        <ele>159.72</ele>
        <time>2015-01-04T14:36:32Z</time>
      </trkpt>
      <trkpt lat="43.7595" lon="0.82477">
        <ele>163.08</ele>
        <time>2015-01-04T14:36:53Z</time>
      </trkpt>
      <trkpt lat="43.75974" lon="0.82474">
        <ele>165.48</ele>
        <time>2015-01-04T14:37:14Z</time>
      </trkpt>
      <trkpt lat="43.75992" lon="0.82471">
        <ele>167.89</ele>
        <time>2015-01-04T14:37:31Z</time>
      </trkpt>
      <trkpt lat="43.76015" lon="0.82461">
        <ele>170.29</ele>
        <time>2015-01-04T14:37:50Z</time>
      </trkpt>
      <trkpt lat="43.7602" lon="0.82458">
        <ele>170.29</ele>
        <time>2015-01-04T14:37:54Z</time>
      </trkpt>
      <trkpt lat="43.76024" lon="0.82454">
        <ele>170.77</ele>
        <time>2015-01-04T14:37:58Z</time>
      </trkpt>
      <trkpt lat="43.76028" lon="0.82451">
        <ele>169.81</ele>
        <time>2015-01-04T14:38:02Z</time>
      </trkpt>
      <trkpt lat="43.76039" lon="0.82426">
        <ele>175.58</ele>
        <time>2015-01-04T14:38:19Z</time>
      </trkpt>
      <trkpt lat="43.76044" lon="0.82414">
        <ele>178.46</ele>
        <time>2015-01-04T14:38:26Z</time>
      </trkpt>
      <trkpt lat="43.7605" lon="0.82409">
        <ele>178.94</ele>
        <time>2015-01-04T14:38:40Z</time>
      </trkpt>
      <trkpt lat="43.76049" lon="0.82407">
        <ele>177.98</ele>
        <time>2015-01-04T14:39:00Z</time>
      </trkpt>
      <trkpt lat="43.76048" lon="0.82409">
        <ele>178.46</ele>
        <time>2015-01-04T14:39:29Z</time>
      </trkpt>
      <trkpt lat="43.76049" lon="0.82413">
        <ele>179.9</ele>
        <time>2015-01-04T14:40:05Z</time>
      </trkpt>
      <trkpt lat="43.7605" lon="0.82415">
        <ele>179.9</ele>
        <time>2015-01-04T14:40:49Z</time>
      </trkpt>
      <trkpt lat="43.76051" lon="0.8241">
        <ele>177.5</ele>
        <time>2015-01-04T14:41:12Z</time>
      </trkpt>
      <trkpt lat="43.76052" lon="0.82407">
        <ele>177.98</ele>
        <time>2015-01-04T14:41:27Z</time>
      </trkpt>
      <trkpt lat="43.76052" lon="0.82405">
        <ele>177.02</ele>
        <time>2015-01-04T14:41:47Z</time>
      </trkpt>
      <trkpt lat="43.76056" lon="0.82396">
        <ele>178.46</ele>
        <time>2015-01-04T14:42:01Z</time>
      </trkpt>
      <trkpt lat="43.76058" lon="0.82399">
        <ele>178.46</ele>
        <time>2015-01-04T14:42:22Z</time>
      </trkpt>
      <trkpt lat="43.76061" lon="0.82396">
        <ele>178.46</ele>
        <time>2015-01-04T14:42:37Z</time>
      </trkpt>
      <trkpt lat="43.76059" lon="0.82402">
        <ele>177.98</ele>
        <time>2015-01-04T14:42:54Z</time>
      </trkpt>
      <trkpt lat="43.76062" lon="0.82385">
        <ele>176.06</ele>
        <time>2015-01-04T14:43:09Z</time>
      </trkpt>
      <trkpt lat="43.76062" lon="0.82383">
        <ele>176.06</ele>
        <time>2015-01-04T14:43:10Z</time>
      </trkpt>
      <trkpt lat="43.76062" lon="0.82363">
        <ele>175.58</ele>
        <time>2015-01-04T14:43:25Z</time>
      </trkpt>
      <trkpt lat="43.76073" lon="0.82346">
        <ele>177.98</ele>
        <time>2015-01-04T14:43:42Z</time>
      </trkpt>
      <trkpt lat="43.76094" lon="0.82348">
        <ele>177.5</ele>
        <time>2015-01-04T14:44:00Z</time>
      </trkpt>
      <trkpt lat="43.76111" lon="0.82342">
        <ele>176.54</ele>
        <time>2015-01-04T14:44:15Z</time>
      </trkpt>
      <trkpt lat="43.76125" lon="0.82319">
        <ele>178.94</ele>
        <time>2015-01-04T14:44:34Z</time>
      </trkpt>
      <trkpt lat="43.76128" lon="0.82317">
        <ele>180.87</ele>
        <time>2015-01-04T14:44:50Z</time>
      </trkpt>
      <trkpt lat="43.76134" lon="0.82294">
        <ele>179.42</ele>
        <time>2015-01-04T14:45:05Z</time>
      </trkpt>
      <trkpt lat="43.7614" lon="0.82264">
        <ele>177.98</ele>
        <time>2015-01-04T14:45:24Z</time>
      </trkpt>
      <trkpt lat="43.76147" lon="0.82235">
        <ele>177.02</ele>
        <time>2015-01-04T14:45:42Z</time>
      </trkpt>
      <trkpt lat="43.76158" lon="0.82206">
        <ele>178.46</ele>
        <time>2015-01-04T14:45:59Z</time>
      </trkpt>
      <trkpt lat="43.76171" lon="0.82177">
        <ele>175.1</ele>
        <time>2015-01-04T14:46:19Z</time>
      </trkpt>
      <trkpt lat="43.76188" lon="0.82159">
        <ele>171.25</ele>
        <time>2015-01-04T14:46:37Z</time>
      </trkpt>
      <trkpt lat="43.76209" lon="0.82136">
        <ele>169.81</ele>
        <time>2015-01-04T14:46:56Z</time>
      </trkpt>
      <trkpt lat="43.76224" lon="0.82111">
        <ele>167.89</ele>
        <time>2015-01-04T14:47:15Z</time>
      </trkpt>
      <trkpt lat="43.76224" lon="0.8211">
        <ele>167.89</ele>
        <time>2015-01-04T14:47:16Z</time>
      </trkpt>
      <trkpt lat="43.76238" lon="0.82079">
        <ele>165.96</ele>
        <time>2015-01-04T14:47:37Z</time>
      </trkpt>
      <trkpt lat="43.76253" lon="0.82043">
        <ele>163.56</ele>
        <time>2015-01-04T14:48:01Z</time>
      </trkpt>
      <trkpt lat="43.76269" lon="0.82009">
        <ele>161.64</ele>
        <time>2015-01-04T14:48:24Z</time>
      </trkpt>
      <trkpt lat="43.76284" lon="0.81975">
        <ele>160.68</ele>
        <time>2015-01-04T14:48:47Z</time>
      </trkpt>
      <trkpt lat="43.76297" lon="0.81945">
        <ele>159.24</ele>
        <time>2015-01-04T14:49:06Z</time>
      </trkpt>
      <trkpt lat="43.7631" lon="0.8192">
        <ele>158.75</ele>
        <time>2015-01-04T14:49:26Z</time>
      </trkpt>
      <trkpt lat="43.76322" lon="0.81891">
        <ele>158.75</ele>
        <time>2015-01-04T14:49:44Z</time>
      </trkpt>
      <trkpt lat="43.76338" lon="0.81854">
        <ele>158.75</ele>
        <time>2015-01-04T14:50:08Z</time>
      </trkpt>
      <trkpt lat="43.76355" lon="0.81819">
        <ele>159.24</ele>
        <time>2015-01-04T14:50:32Z</time>
      </trkpt>
      <trkpt lat="43.76373" lon="0.81777">
        <ele>157.79</ele>
        <time>2015-01-04T14:50:58Z</time>
      </trkpt>
      <trkpt lat="43.7639" lon="0.81741">
        <ele>159.24</ele>
        <time>2015-01-04T14:51:20Z</time>
      </trkpt>
      <trkpt lat="43.76408" lon="0.81699">
        <ele>157.79</ele>
        <time>2015-01-04T14:51:46Z</time>
      </trkpt>
      <trkpt lat="43.76424" lon="0.81662">
        <ele>153.95</ele>
        <time>2015-01-04T14:52:10Z</time>
      </trkpt>
      <trkpt lat="43.7644" lon="0.81627">
        <ele>152.51</ele>
        <time>2015-01-04T14:52:32Z</time>
      </trkpt>
      <trkpt lat="43.76456" lon="0.81587">
        <ele>152.51</ele>
        <time>2015-01-04T14:52:57Z</time>
      </trkpt>
      <trkpt lat="43.76471" lon="0.81549">
        <ele>151.06</ele>
        <time>2015-01-04T14:53:21Z</time>
      </trkpt>
      <trkpt lat="43.76479" lon="0.81535">
        <ele>150.58</ele>
        <time>2015-01-04T14:53:31Z</time>
      </trkpt>
      <trkpt lat="43.76486" lon="0.81531">
        <ele>150.1</ele>
        <time>2015-01-04T14:53:50Z</time>
      </trkpt>
      <trkpt lat="43.76489" lon="0.8153">
        <ele>150.1</ele>
        <time>2015-01-04T14:53:57Z</time>
      </trkpt>
      <trkpt lat="43.76497" lon="0.81531">
        <ele>150.58</ele>
        <time>2015-01-04T14:54:04Z</time>
      </trkpt>
      <trkpt lat="43.76507" lon="0.8153">
        <ele>152.03</ele>
        <time>2015-01-04T14:54:15Z</time>
      </trkpt>
      <trkpt lat="43.76511" lon="0.8152">
        <ele>150.58</ele>
        <time>2015-01-04T14:54:23Z</time>
      </trkpt>
      <trkpt lat="43.76525" lon="0.81507">
        <ele>149.62</ele>
        <time>2015-01-04T14:54:36Z</time>
      </trkpt>
      <trkpt lat="43.76537" lon="0.81501">
        <ele>152.03</ele>
        <time>2015-01-04T14:54:48Z</time>
      </trkpt>
      <trkpt lat="43.76554" lon="0.81512">
        <ele>153.95</ele>
        <time>2015-01-04T14:55:04Z</time>
      </trkpt>
      <trkpt lat="43.76573" lon="0.81522">
        <ele>152.51</ele>
        <time>2015-01-04T14:55:22Z</time>
      </trkpt>
      <trkpt lat="43.76596" lon="0.81536">
        <ele>155.39</ele>
        <time>2015-01-04T14:55:42Z</time>
      </trkpt>
      <trkpt lat="43.76616" lon="0.81553">
        <ele>154.43</ele>
        <time>2015-01-04T14:56:02Z</time>
      </trkpt>
      <trkpt lat="43.76622" lon="0.81556">
        <ele>151.54</ele>
        <time>2015-01-04T14:56:20Z</time>
      </trkpt>
      <trkpt lat="43.76628" lon="0.81561">
        <ele>152.03</ele>
        <time>2015-01-04T14:56:49Z</time>
      </trkpt>
      <trkpt lat="43.76642" lon="0.81575">
        <ele>147.22</ele>
        <time>2015-01-04T14:57:07Z</time>
      </trkpt>
      <trkpt lat="43.76658" lon="0.81591">
        <ele>140.97</ele>
        <time>2015-01-04T14:57:25Z</time>
      </trkpt>
      <trkpt lat="43.76673" lon="0.81609">
        <ele>140.49</ele>
        <time>2015-01-04T14:57:42Z</time>
      </trkpt>
      <trkpt lat="43.76689" lon="0.81629">
        <ele>138.57</ele>
        <time>2015-01-04T14:58:02Z</time>
      </trkpt>
      <trkpt lat="43.76709" lon="0.8165">
        <ele>139.53</ele>
        <time>2015-01-04T14:58:20Z</time>
      </trkpt>
      <trkpt lat="43.76729" lon="0.81672">
        <ele>139.53</ele>
        <time>2015-01-04T14:58:41Z</time>
      </trkpt>
      <trkpt lat="43.7675" lon="0.81694">
        <ele>139.53</ele>
        <time>2015-01-04T14:59:03Z</time>
      </trkpt>
      <trkpt lat="43.76768" lon="0.81712">
        <ele>137.13</ele>
        <time>2015-01-04T14:59:25Z</time>
      </trkpt>
      <trkpt lat="43.76782" lon="0.81731">
        <ele>129.92</ele>
        <time>2015-01-04T14:59:43Z</time>
      </trkpt>
      <trkpt lat="43.76799" lon="0.81749">
        <ele>127.99</ele>
        <time>2015-01-04T15:00:02Z</time>
      </trkpt>
      <trkpt lat="43.76819" lon="0.81765">
        <ele>132.32</ele>
        <time>2015-01-04T15:00:19Z</time>
      </trkpt>
      <trkpt lat="43.76822" lon="0.81768">
        <ele>132.8</ele>
        <time>2015-01-04T15:00:23Z</time>
      </trkpt>
      <trkpt lat="43.76842" lon="0.81752">
        <ele>132.32</ele>
        <time>2015-01-04T15:00:42Z</time>
      </trkpt>
      <trkpt lat="43.76851" lon="0.8174">
        <ele>130.88</ele>
        <time>2015-01-04T15:00:53Z</time>
      </trkpt>
      <trkpt lat="43.76864" lon="0.81724">
        <ele>129.92</ele>
        <time>2015-01-04T15:01:09Z</time>
      </trkpt>
      <trkpt lat="43.76881" lon="0.8171">
        <ele>130.88</ele>
        <time>2015-01-04T15:01:27Z</time>
      </trkpt>
      <trkpt lat="43.76901" lon="0.81701">
        <ele>130.88</ele>
        <time>2015-01-04T15:01:47Z</time>
      </trkpt>
      <trkpt lat="43.76925" lon="0.81684">
        <ele>128.95</ele>
        <time>2015-01-04T15:02:07Z</time>
      </trkpt>
      <trkpt lat="43.76948" lon="0.81662">
        <ele>127.99</ele>
        <time>2015-01-04T15:02:26Z</time>
      </trkpt>
      <trkpt lat="43.76969" lon="0.81643">
        <ele>124.15</ele>
        <time>2015-01-04T15:02:46Z</time>
      </trkpt>
      <trkpt lat="43.76987" lon="0.81625">
        <ele>125.59</ele>
        <time>2015-01-04T15:03:01Z</time>
      </trkpt>
      <trkpt lat="43.77003" lon="0.81611">
        <ele>126.55</ele>
        <time>2015-01-04T15:03:18Z</time>
      </trkpt>
      <trkpt lat="43.77023" lon="0.81592">
        <ele>126.55</ele>
        <time>2015-01-04T15:03:37Z</time>
      </trkpt>
      <trkpt lat="43.77041" lon="0.81573">
        <ele>123.19</ele>
        <time>2015-01-04T15:03:56Z</time>
      </trkpt>
      <trkpt lat="43.77062" lon="0.81549">
        <ele>121.26</ele>
        <time>2015-01-04T15:04:17Z</time>
      </trkpt>
      <trkpt lat="43.77083" lon="0.81521">
        <ele>123.67</ele>
        <time>2015-01-04T15:04:37Z</time>
      </trkpt>
      <trkpt lat="43.77097" lon="0.81498">
        <ele>126.07</ele>
        <time>2015-01-04T15:04:54Z</time>
      </trkpt>
      <trkpt lat="43.77112" lon="0.81479">
        <ele>129.92</ele>
        <time>2015-01-04T15:05:12Z</time>
      </trkpt>
      <trkpt lat="43.77116" lon="0.81475">
        <ele>130.88</ele>
        <time>2015-01-04T15:05:17Z</time>
      </trkpt>
      <trkpt lat="43.77133" lon="0.8146">
        <ele>128.95</ele>
        <time>2015-01-04T15:05:36Z</time>
      </trkpt>
      <trkpt lat="43.77152" lon="0.81444">
        <ele>129.92</ele>
        <time>2015-01-04T15:05:54Z</time>
      </trkpt>
      <trkpt lat="43.77165" lon="0.81428">
        <ele>133.76</ele>
        <time>2015-01-04T15:06:12Z</time>
      </trkpt>
      <trkpt lat="43.77185" lon="0.81415">
        <ele>134.24</ele>
        <time>2015-01-04T15:06:31Z</time>
      </trkpt>
      <trkpt lat="43.77199" lon="0.81411">
        <ele>134.24</ele>
        <time>2015-01-04T15:06:46Z</time>
      </trkpt>
      <trkpt lat="43.7721" lon="0.8141">
        <ele>134.72</ele>
        <time>2015-01-04T15:07:03Z</time>
      </trkpt>
      <trkpt lat="43.77213" lon="0.81409">
        <ele>137.13</ele>
        <time>2015-01-04T15:07:37Z</time>
      </trkpt>
      <trkpt lat="43.77214" lon="0.81409">
        <ele>137.61</ele>
        <time>2015-01-04T15:07:56Z</time>
      </trkpt>
      <trkpt lat="43.77214" lon="0.81405">
        <ele>139.05</ele>
        <time>2015-01-04T15:08:18Z</time>
      </trkpt>
      <trkpt lat="43.77216" lon="0.81406">
        <ele>140.97</ele>
        <time>2015-01-04T15:08:46Z</time>
      </trkpt>
      <trkpt lat="43.77217" lon="0.81404">
        <ele>139.05</ele>
        <time>2015-01-04T15:09:19Z</time>
      </trkpt>
      <trkpt lat="43.77217" lon="0.81408">
        <ele>139.53</ele>
        <time>2015-01-04T15:09:42Z</time>
      </trkpt>
      <trkpt lat="43.77217" lon="0.81406">
        <ele>141.93</ele>
        <time>2015-01-04T15:10:07Z</time>
      </trkpt>
      <trkpt lat="43.77216" lon="0.81405">
        <ele>139.53</ele>
        <time>2015-01-04T15:10:32Z</time>
      </trkpt>
      <trkpt lat="43.77217" lon="0.81407">
        <ele>138.09</ele>
        <time>2015-01-04T15:11:02Z</time>
      </trkpt>
      <trkpt lat="43.77218" lon="0.81406">
        <ele>140.49</ele>
        <time>2015-01-04T15:11:28Z</time>
      </trkpt>
      <trkpt lat="43.77222" lon="0.8141">
        <ele>142.41</ele>
        <time>2015-01-04T15:12:01Z</time>
      </trkpt>
      <trkpt lat="43.77222" lon="0.81408">
        <ele>142.89</ele>
        <time>2015-01-04T15:12:28Z</time>
      </trkpt>
      <trkpt lat="43.77226" lon="0.81415">
        <ele>140.49</ele>
        <time>2015-01-04T15:12:48Z</time>
      </trkpt>
      <trkpt lat="43.77236" lon="0.81429">
        <ele>138.57</ele>
        <time>2015-01-04T15:13:06Z</time>
      </trkpt>
      <trkpt lat="43.77248" lon="0.81445">
        <ele>135.2</ele>
        <time>2015-01-04T15:13:23Z</time>
      </trkpt>
      <trkpt lat="43.7726" lon="0.81458">
        <ele>132.32</ele>
        <time>2015-01-04T15:13:38Z</time>
      </trkpt>
      <trkpt lat="43.77278" lon="0.81475">
        <ele>128.47</ele>
        <time>2015-01-04T15:13:56Z</time>
      </trkpt>
      <trkpt lat="43.77296" lon="0.81488">
        <ele>126.07</ele>
        <time>2015-01-04T15:14:13Z</time>
      </trkpt>
      <trkpt lat="43.77317" lon="0.81495">
        <ele>124.63</ele>
        <time>2015-01-04T15:14:31Z</time>
      </trkpt>
      <trkpt lat="43.7733" lon="0.81505">
        <ele>123.19</ele>
        <time>2015-01-04T15:14:48Z</time>
      </trkpt>
      <trkpt lat="43.77347" lon="0.81518">
        <ele>122.22</ele>
        <time>2015-01-04T15:15:04Z</time>
      </trkpt>
      <trkpt lat="43.77365" lon="0.81529">
        <ele>121.26</ele>
        <time>2015-01-04T15:15:17Z</time>
      </trkpt>
      <trkpt lat="43.7738" lon="0.81535">
        <ele>120.3</ele>
        <time>2015-01-04T15:15:29Z</time>
      </trkpt>
      <trkpt lat="43.77401" lon="0.81534">
        <ele>118.86</ele>
        <time>2015-01-04T15:15:46Z</time>
      </trkpt>
      <trkpt lat="43.77408" lon="0.81532">
        <ele>119.34</ele>
        <time>2015-01-04T15:15:51Z</time>
      </trkpt>
      <trkpt lat="43.77418" lon="0.81527">
        <ele>120.78</ele>
        <time>2015-01-04T15:15:56Z</time>
      </trkpt>
      <trkpt lat="43.77431" lon="0.81515">
        <ele>123.19</ele>
        <time>2015-01-04T15:16:10Z</time>
      </trkpt>
      <trkpt lat="43.77453" lon="0.81499">
        <ele>119.82</ele>
        <time>2015-01-04T15:16:29Z</time>
      </trkpt>
      <trkpt lat="43.77471" lon="0.81486">
        <ele>115.5</ele>
        <time>2015-01-04T15:16:45Z</time>
      </trkpt>
      <trkpt lat="43.7749" lon="0.81462">
        <ele>114.53</ele>
        <time>2015-01-04T15:17:03Z</time>
      </trkpt>
      <trkpt lat="43.77511" lon="0.81441">
        <ele>114.53</ele>
        <time>2015-01-04T15:17:23Z</time>
      </trkpt>
      <trkpt lat="43.77527" lon="0.81418">
        <ele>113.57</ele>
        <time>2015-01-04T15:17:43Z</time>
      </trkpt>
      <trkpt lat="43.77536" lon="0.81398">
        <ele>113.57</ele>
        <time>2015-01-04T15:17:58Z</time>
      </trkpt>
      <trkpt lat="43.77543" lon="0.81386">
        <ele>113.09</ele>
        <time>2015-01-04T15:18:08Z</time>
      </trkpt>
      <trkpt lat="43.77559" lon="0.81353">
        <ele>111.17</ele>
        <time>2015-01-04T15:18:27Z</time>
      </trkpt>
      <trkpt lat="43.77564" lon="0.8134">
        <ele>112.13</ele>
        <time>2015-01-04T15:18:35Z</time>
      </trkpt>
      <trkpt lat="43.7757" lon="0.81328">
        <ele>111.65</ele>
        <time>2015-01-04T15:18:43Z</time>
      </trkpt>
      <trkpt lat="43.77588" lon="0.81309">
        <ele>110.21</ele>
        <time>2015-01-04T15:18:59Z</time>
      </trkpt>
      <trkpt lat="43.77613" lon="0.81297">
        <ele>109.73</ele>
        <time>2015-01-04T15:19:18Z</time>
      </trkpt>
      <trkpt lat="43.77632" lon="0.81295">
        <ele>106.84</ele>
        <time>2015-01-04T15:19:34Z</time>
      </trkpt>
      <trkpt lat="43.77652" lon="0.81298">
        <ele>106.84</ele>
        <time>2015-01-04T15:19:52Z</time>
      </trkpt>
      <trkpt lat="43.77676" lon="0.81309">
        <ele>110.69</ele>
        <time>2015-01-04T15:20:11Z</time>
      </trkpt>
      <trkpt lat="43.77693" lon="0.81325">
        <ele>109.25</ele>
        <time>2015-01-04T15:20:28Z</time>
      </trkpt>
      <trkpt lat="43.77713" lon="0.81342">
        <ele>114.05</ele>
        <time>2015-01-04T15:20:43Z</time>
      </trkpt>
      <trkpt lat="43.77723" lon="0.81347">
        <ele>116.94</ele>
        <time>2015-01-04T15:20:52Z</time>
      </trkpt>
      <trkpt lat="43.77727" lon="0.81349">
        <ele>117.42</ele>
        <time>2015-01-04T15:20:55Z</time>
      </trkpt>
      <trkpt lat="43.77748" lon="0.81362">
        <ele>115.01</ele>
        <time>2015-01-04T15:21:14Z</time>
      </trkpt>
      <trkpt lat="43.77772" lon="0.81372">
        <ele>115.98</ele>
        <time>2015-01-04T15:21:33Z</time>
      </trkpt>
      <trkpt lat="43.77793" lon="0.81383">
        <ele>117.9</ele>
        <time>2015-01-04T15:21:50Z</time>
      </trkpt>
      <trkpt lat="43.7781" lon="0.81403">
        <ele>120.78</ele>
        <time>2015-01-04T15:22:09Z</time>
      </trkpt>
      <trkpt lat="43.77823" lon="0.81423">
        <ele>120.78</ele>
        <time>2015-01-04T15:22:26Z</time>
      </trkpt>
      <trkpt lat="43.77826" lon="0.81435">
        <ele>121.74</ele>
        <time>2015-01-04T15:22:34Z</time>
      </trkpt>
      <trkpt lat="43.77824" lon="0.81464">
        <ele>123.67</ele>
        <time>2015-01-04T15:22:52Z</time>
      </trkpt>
      <trkpt lat="43.77823" lon="0.81466">
        <ele>122.22</ele>
        <time>2015-01-04T15:23:07Z</time>
      </trkpt>
      <trkpt lat="43.77821" lon="0.81478">
        <ele>125.11</ele>
        <time>2015-01-04T15:23:27Z</time>
      </trkpt>
      <trkpt lat="43.77818" lon="0.81485">
        <ele>125.11</ele>
        <time>2015-01-04T15:23:32Z</time>
      </trkpt>
      <trkpt lat="43.77816" lon="0.81494">
        <ele>125.59</ele>
        <time>2015-01-04T15:23:38Z</time>
      </trkpt>
      <trkpt lat="43.77805" lon="0.81523">
        <ele>130.88</ele>
        <time>2015-01-04T15:23:57Z</time>
      </trkpt>
      <trkpt lat="43.77791" lon="0.81534">
        <ele>132.32</ele>
        <time>2015-01-04T15:24:12Z</time>
      </trkpt>
      <trkpt lat="43.77763" lon="0.81526">
        <ele>135.68</ele>
        <time>2015-01-04T15:24:31Z</time>
      </trkpt>
      <trkpt lat="43.77741" lon="0.8153">
        <ele>136.16</ele>
        <time>2015-01-04T15:24:50Z</time>
      </trkpt>
      <trkpt lat="43.77732" lon="0.81566">
        <ele>135.68</ele>
        <time>2015-01-04T15:25:13Z</time>
      </trkpt>
      <trkpt lat="43.77724" lon="0.81601">
        <ele>138.57</ele>
        <time>2015-01-04T15:25:34Z</time>
      </trkpt>
      <trkpt lat="43.77719" lon="0.81627">
        <ele>141.93</ele>
        <time>2015-01-04T15:25:50Z</time>
      </trkpt>
      <trkpt lat="43.77711" lon="0.81663">
        <ele>144.34</ele>
        <time>2015-01-04T15:26:13Z</time>
      </trkpt>
      <trkpt lat="43.77706" lon="0.81685">
        <ele>146.26</ele>
        <time>2015-01-04T15:26:28Z</time>
      </trkpt>
      <trkpt lat="43.77698" lon="0.81716">
        <ele>146.74</ele>
        <time>2015-01-04T15:26:47Z</time>
      </trkpt>
      <trkpt lat="43.77692" lon="0.8175">
        <ele>148.18</ele>
        <time>2015-01-04T15:27:06Z</time>
      </trkpt>
      <trkpt lat="43.77684" lon="0.81787">
        <ele>148.66</ele>
        <time>2015-01-04T15:27:27Z</time>
      </trkpt>
      <trkpt lat="43.77677" lon="0.81821">
        <ele>150.1</ele>
        <time>2015-01-04T15:27:46Z</time>
      </trkpt>
      <trkpt lat="43.77666" lon="0.81849">
        <ele>150.1</ele>
        <time>2015-01-04T15:28:05Z</time>
      </trkpt>
      <trkpt lat="43.77655" lon="0.81883">
        <ele>152.51</ele>
        <time>2015-01-04T15:28:26Z</time>
      </trkpt>
      <trkpt lat="43.77647" lon="0.81917">
        <ele>152.99</ele>
        <time>2015-01-04T15:28:46Z</time>
      </trkpt>
      <trkpt lat="43.7764" lon="0.81943">
        <ele>152.99</ele>
        <time>2015-01-04T15:29:04Z</time>
      </trkpt>
      <trkpt lat="43.77634" lon="0.8197">
        <ele>154.43</ele>
        <time>2015-01-04T15:29:24Z</time>
      </trkpt>
      <trkpt lat="43.77626" lon="0.81994">
        <ele>155.87</ele>
        <time>2015-01-04T15:29:43Z</time>
      </trkpt>
      <trkpt lat="43.77625" lon="0.81993">
        <ele>155.39</ele>
        <time>2015-01-04T15:30:06Z</time>
      </trkpt>
      <trkpt lat="43.77624" lon="0.81995">
        <ele>155.87</ele>
        <time>2015-01-04T15:30:24Z</time>
      </trkpt>
      <trkpt lat="43.7762" lon="0.8201">
        <ele>156.35</ele>
        <time>2015-01-04T15:30:44Z</time>
      </trkpt>
      <trkpt lat="43.77619" lon="0.82014">
        <ele>156.83</ele>
        <time>2015-01-04T15:30:47Z</time>
      </trkpt>
      <trkpt lat="43.77613" lon="0.82027">
        <ele>157.31</ele>
        <time>2015-01-04T15:31:06Z</time>
      </trkpt>
      <trkpt lat="43.77613" lon="0.82028">
        <ele>155.39</ele>
        <time>2015-01-04T15:31:20Z</time>
      </trkpt>
      <trkpt lat="43.77612" lon="0.82029">
        <ele>154.43</ele>
        <time>2015-01-04T15:31:41Z</time>
      </trkpt>
      <trkpt lat="43.77611" lon="0.8203">
        <ele>152.03</ele>
        <time>2015-01-04T15:32:06Z</time>
      </trkpt>
      <trkpt lat="43.77607" lon="0.82039">
        <ele>152.03</ele>
        <time>2015-01-04T15:32:14Z</time>
      </trkpt>
      <trkpt lat="43.77604" lon="0.82064">
        <ele>152.99</ele>
        <time>2015-01-04T15:32:31Z</time>
      </trkpt>
      <trkpt lat="43.77606" lon="0.82095">
        <ele>153.95</ele>
        <time>2015-01-04T15:32:52Z</time>
      </trkpt>
      <trkpt lat="43.7761" lon="0.82124">
        <ele>154.43</ele>
        <time>2015-01-04T15:33:10Z</time>
      </trkpt>
      <trkpt lat="43.7761" lon="0.82136">
        <ele>154.43</ele>
        <time>2015-01-04T15:33:18Z</time>
      </trkpt>
      <trkpt lat="43.77609" lon="0.82145">
        <ele>154.43</ele>
        <time>2015-01-04T15:33:24Z</time>
      </trkpt>
      <trkpt lat="43.77607" lon="0.82167">
        <ele>155.87</ele>
        <time>2015-01-04T15:33:39Z</time>
      </trkpt>
      <trkpt lat="43.77603" lon="0.82196">
        <ele>155.39</ele>
        <time>2015-01-04T15:33:57Z</time>
      </trkpt>
      <trkpt lat="43.77601" lon="0.82223">
        <ele>157.79</ele>
        <time>2015-01-04T15:34:14Z</time>
      </trkpt>
      <trkpt lat="43.77598" lon="0.8224">
        <ele>157.79</ele>
        <time>2015-01-04T15:34:25Z</time>
      </trkpt>
      <trkpt lat="43.77601" lon="0.82247">
        <ele>157.79</ele>
        <time>2015-01-04T15:34:41Z</time>
      </trkpt>
      <trkpt lat="43.77601" lon="0.82249">
        <ele>157.79</ele>
        <time>2015-01-04T15:35:00Z</time>
      </trkpt>
      <trkpt lat="43.77604" lon="0.82248">
        <ele>157.79</ele>
        <time>2015-01-04T15:35:21Z</time>
      </trkpt>
      <trkpt lat="43.77606" lon="0.82251">
        <ele>157.31</ele>
        <time>2015-01-04T15:35:34Z</time>
      </trkpt>
      <trkpt lat="43.77626" lon="0.82256">
        <ele>155.87</ele>
        <time>2015-01-04T15:35:54Z</time>
      </trkpt>
      <trkpt lat="43.77639" lon="0.82261">
        <ele>152.99</ele>
        <time>2015-01-04T15:36:08Z</time>
      </trkpt>
      <trkpt lat="43.77661" lon="0.82269">
        <ele>150.58</ele>
        <time>2015-01-04T15:36:28Z</time>
      </trkpt>
      <trkpt lat="43.77675" lon="0.82275">
        <ele>149.14</ele>
        <time>2015-01-04T15:36:40Z</time>
      </trkpt>
      <trkpt lat="43.77693" lon="0.82281">
        <ele>149.14</ele>
        <time>2015-01-04T15:36:56Z</time>
      </trkpt>
      <trkpt lat="43.77708" lon="0.82283">
        <ele>150.1</ele>
        <time>2015-01-04T15:37:10Z</time>
      </trkpt>
      <trkpt lat="43.77725" lon="0.82279">
        <ele>151.54</ele>
        <time>2015-01-04T15:37:27Z</time>
      </trkpt>
      <trkpt lat="43.77742" lon="0.82275">
        <ele>153.47</ele>
        <time>2015-01-04T15:37:43Z</time>
      </trkpt>
      <trkpt lat="43.77761" lon="0.82276">
        <ele>154.43</ele>
        <time>2015-01-04T15:38:02Z</time>
      </trkpt>
      <trkpt lat="43.77781" lon="0.82277">
        <ele>152.03</ele>
        <time>2015-01-04T15:38:21Z</time>
      </trkpt>
      <trkpt lat="43.77792" lon="0.82285">
        <ele>148.18</ele>
        <time>2015-01-04T15:38:37Z</time>
      </trkpt>
      <trkpt lat="43.77808" lon="0.82296">
        <ele>145.78</ele>
        <time>2015-01-04T15:38:51Z</time>
      </trkpt>
      <trkpt lat="43.77826" lon="0.82311">
        <ele>144.82</ele>
        <time>2015-01-04T15:39:07Z</time>
      </trkpt>
      <trkpt lat="43.77845" lon="0.82332">
        <ele>142.89</ele>
        <time>2015-01-04T15:39:27Z</time>
      </trkpt>
      <trkpt lat="43.77852" lon="0.8234">
        <ele>141.45</ele>
        <time>2015-01-04T15:39:43Z</time>
      </trkpt>
      <trkpt lat="43.77865" lon="0.82347">
        <ele>140.49</ele>
        <time>2015-01-04T15:39:58Z</time>
      </trkpt>
      <trkpt lat="43.77881" lon="0.82359">
        <ele>147.7</ele>
        <time>2015-01-04T15:40:14Z</time>
      </trkpt>
      <trkpt lat="43.77901" lon="0.82373">
        <ele>149.14</ele>
        <time>2015-01-04T15:40:33Z</time>
      </trkpt>
      <trkpt lat="43.77913" lon="0.82379">
        <ele>147.7</ele>
        <time>2015-01-04T15:40:48Z</time>
      </trkpt>
      <trkpt lat="43.77913" lon="0.8238">
        <ele>147.7</ele>
        <time>2015-01-04T15:41:07Z</time>
      </trkpt>
      <trkpt lat="43.77922" lon="0.82381">
        <ele>148.18</ele>
        <time>2015-01-04T15:41:28Z</time>
      </trkpt>
      <trkpt lat="43.77935" lon="0.82387">
        <ele>149.62</ele>
        <time>2015-01-04T15:41:45Z</time>
      </trkpt>
      <trkpt lat="43.77946" lon="0.82389">
        <ele>151.54</ele>
        <time>2015-01-04T15:41:57Z</time>
      </trkpt>
      <trkpt lat="43.77965" lon="0.82394">
        <ele>154.43</ele>
        <time>2015-01-04T15:42:13Z</time>
      </trkpt>
      <trkpt lat="43.77984" lon="0.82404">
        <ele>157.31</ele>
        <time>2015-01-04T15:42:31Z</time>
      </trkpt>
      <trkpt lat="43.78001" lon="0.82416">
        <ele>158.27</ele>
        <time>2015-01-04T15:42:47Z</time>
      </trkpt>
      <trkpt lat="43.78008" lon="0.82419">
        <ele>157.79</ele>
        <time>2015-01-04T15:42:53Z</time>
      </trkpt>
      <trkpt lat="43.78027" lon="0.82427">
        <ele>157.31</ele>
        <time>2015-01-04T15:43:09Z</time>
      </trkpt>
      <trkpt lat="43.7805" lon="0.8243">
        <ele>158.75</ele>
        <time>2015-01-04T15:43:27Z</time>
      </trkpt>
      <trkpt lat="43.78076" lon="0.82433">
        <ele>161.16</ele>
        <time>2015-01-04T15:43:46Z</time>
      </trkpt>
      <trkpt lat="43.78098" lon="0.8244">
        <ele>161.16</ele>
        <time>2015-01-04T15:44:04Z</time>
      </trkpt>
      <trkpt lat="43.78114" lon="0.8245">
        <ele>157.79</ele>
        <time>2015-01-04T15:44:16Z</time>
      </trkpt>
      <trkpt lat="43.78137" lon="0.82466">
        <ele>156.83</ele>
        <time>2015-01-04T15:44:33Z</time>
      </trkpt>
      <trkpt lat="43.78158" lon="0.82482">
        <ele>153.95</ele>
        <time>2015-01-04T15:44:50Z</time>
      </trkpt>
      <trkpt lat="43.78176" lon="0.82497">
        <ele>149.62</ele>
        <time>2015-01-04T15:45:06Z</time>
      </trkpt>
      <trkpt lat="43.78192" lon="0.82513">
        <ele>142.41</ele>
        <time>2015-01-04T15:45:23Z</time>
      </trkpt>
      <trkpt lat="43.78209" lon="0.82525">
        <ele>140.97</ele>
        <time>2015-01-04T15:45:39Z</time>
      </trkpt>
      <trkpt lat="43.78228" lon="0.82536">
        <ele>139.05</ele>
        <time>2015-01-04T15:45:53Z</time>
      </trkpt>
      <trkpt lat="43.78243" lon="0.82546">
        <ele>134.72</ele>
        <time>2015-01-04T15:46:08Z</time>
      </trkpt>
      <trkpt lat="43.78267" lon="0.82558">
        <ele>131.84</ele>
        <time>2015-01-04T15:46:27Z</time>
      </trkpt>
      <trkpt lat="43.78289" lon="0.82569">
        <ele>129.43</ele>
        <time>2015-01-04T15:46:44Z</time>
      </trkpt>
      <trkpt lat="43.78309" lon="0.82579">
        <ele>127.51</ele>
        <time>2015-01-04T15:46:59Z</time>
      </trkpt>
      <trkpt lat="43.78336" lon="0.82588">
        <ele>128.95</ele>
        <time>2015-01-04T15:47:17Z</time>
      </trkpt>
      <trkpt lat="43.78342" lon="0.82592">
        <ele>130.4</ele>
        <time>2015-01-04T15:47:27Z</time>
      </trkpt>
      <trkpt lat="43.78343" lon="0.82597">
        <ele>132.32</ele>
        <time>2015-01-04T15:47:39Z</time>
      </trkpt>
      <trkpt lat="43.78343" lon="0.82598">
        <ele>136.64</ele>
        <time>2015-01-04T15:48:16Z</time>
      </trkpt>
      <trkpt lat="43.78343" lon="0.82592">
        <ele>136.64</ele>
        <time>2015-01-04T15:48:34Z</time>
      </trkpt>
      <trkpt lat="43.78341" lon="0.82594">
        <ele>137.61</ele>
        <time>2015-01-04T15:49:09Z</time>
      </trkpt>
      <trkpt lat="43.78342" lon="0.82592">
        <ele>138.57</ele>
        <time>2015-01-04T15:49:23Z</time>
      </trkpt>
      <trkpt lat="43.78344" lon="0.82591">
        <ele>140.97</ele>
        <time>2015-01-04T15:49:50Z</time>
      </trkpt>
      <trkpt lat="43.78344" lon="0.82591">
        <ele>141.45</ele>
        <time>2015-01-04T15:50:12Z</time>
      </trkpt>
      <trkpt lat="43.78344" lon="0.82593">
        <ele>142.41</ele>
        <time>2015-01-04T15:50:31Z</time>
      </trkpt>
      <trkpt lat="43.78344" lon="0.82594">
        <ele>140.49</ele>
        <time>2015-01-04T15:50:47Z</time>
      </trkpt>
      <trkpt lat="43.78354" lon="0.82597">
        <ele>137.61</ele>
        <time>2015-01-04T15:51:08Z</time>
      </trkpt>
      <trkpt lat="43.78374" lon="0.82604">
        <ele>137.13</ele>
        <time>2015-01-04T15:51:26Z</time>
      </trkpt>
      <trkpt lat="43.78393" lon="0.82609">
        <ele>137.61</ele>
        <time>2015-01-04T15:51:43Z</time>
      </trkpt>
      <trkpt lat="43.78413" lon="0.8261">
        <ele>136.64</ele>
        <time>2015-01-04T15:51:59Z</time>
      </trkpt>
      <trkpt lat="43.78424" lon="0.82604">
        <ele>136.16</ele>
        <time>2015-01-04T15:52:10Z</time>
      </trkpt>
      <trkpt lat="43.78442" lon="0.82588">
        <ele>138.09</ele>
        <time>2015-01-04T15:52:27Z</time>
      </trkpt>
      <trkpt lat="43.78456" lon="0.82574">
        <ele>139.53</ele>
        <time>2015-01-04T15:52:43Z</time>
      </trkpt>
      <trkpt lat="43.78472" lon="0.82558">
        <ele>139.05</ele>
        <time>2015-01-04T15:52:54Z</time>
      </trkpt>
      <trkpt lat="43.78487" lon="0.82541">
        <ele>142.41</ele>
        <time>2015-01-04T15:53:07Z</time>
      </trkpt>
      <trkpt lat="43.78493" lon="0.82537">
        <ele>143.37</ele>
        <time>2015-01-04T15:53:14Z</time>
      </trkpt>
      <trkpt lat="43.78508" lon="0.82528">
        <ele>149.14</ele>
        <time>2015-01-04T15:53:31Z</time>
      </trkpt>
      <trkpt lat="43.78521" lon="0.82515">
        <ele>151.54</ele>
        <time>2015-01-04T15:53:48Z</time>
      </trkpt>
      <trkpt lat="43.78533" lon="0.82507">
        <ele>155.39</ele>
        <time>2015-01-04T15:54:02Z</time>
      </trkpt>
      <trkpt lat="43.78539" lon="0.82507">
        <ele>157.79</ele>
        <time>2015-01-04T15:54:14Z</time>
      </trkpt>
      <trkpt lat="43.78538" lon="0.82506">
        <ele>158.75</ele>
        <time>2015-01-04T15:54:33Z</time>
      </trkpt>
      <trkpt lat="43.78538" lon="0.82507">
        <ele>158.27</ele>
        <time>2015-01-04T15:54:55Z</time>
      </trkpt>
      <trkpt lat="43.78541" lon="0.82508">
        <ele>157.79</ele>
        <time>2015-01-04T15:55:20Z</time>
      </trkpt>
      <trkpt lat="43.78557" lon="0.82519">
        <ele>157.79</ele>
        <time>2015-01-04T15:55:37Z</time>
      </trkpt>
      <trkpt lat="43.78561" lon="0.82522">
        <ele>157.79</ele>
        <time>2015-01-04T15:55:42Z</time>
      </trkpt>
      <trkpt lat="43.78579" lon="0.82536">
        <ele>155.39</ele>
        <time>2015-01-04T15:55:59Z</time>
      </trkpt>
      <trkpt lat="43.78582" lon="0.82537">
        <ele>153.95</ele>
        <time>2015-01-04T15:56:03Z</time>
      </trkpt>
      <trkpt lat="43.78603" lon="0.82548">
        <ele>149.14</ele>
        <time>2015-01-04T15:56:20Z</time>
      </trkpt>
      <trkpt lat="43.78619" lon="0.82558">
        <ele>146.74</ele>
        <time>2015-01-04T15:56:36Z</time>
      </trkpt>
      <trkpt lat="43.78634" lon="0.82564">
        <ele>147.7</ele>
        <time>2015-01-04T15:56:48Z</time>
      </trkpt>
      <trkpt lat="43.7866" lon="0.82559">
        <ele>147.22</ele>
        <time>2015-01-04T15:57:08Z</time>
      </trkpt>
      <trkpt lat="43.78679" lon="0.82558">
        <ele>147.7</ele>
        <time>2015-01-04T15:57:22Z</time>
      </trkpt>
      <trkpt lat="43.78706" lon="0.82571">
        <ele>147.7</ele>
        <time>2015-01-04T15:57:42Z</time>
      </trkpt>
      <trkpt lat="43.78729" lon="0.8258">
        <ele>142.41</ele>
        <time>2015-01-04T15:58:02Z</time>
      </trkpt>
      <trkpt lat="43.78753" lon="0.82574">
        <ele>139.05</ele>
        <time>2015-01-04T15:58:23Z</time>
      </trkpt>
      <trkpt lat="43.78776" lon="0.82564">
        <ele>139.05</ele>
        <time>2015-01-04T15:58:42Z</time>
      </trkpt>
      <trkpt lat="43.78803" lon="0.82554">
        <ele>137.61</ele>
        <time>2015-01-04T15:59:03Z</time>
      </trkpt>
      <trkpt lat="43.78828" lon="0.82559">
        <ele>138.09</ele>
        <time>2015-01-04T15:59:22Z</time>
      </trkpt>
      <trkpt lat="43.78851" lon="0.82568">
        <ele>139.05</ele>
        <time>2015-01-04T15:59:41Z</time>
      </trkpt>
      <trkpt lat="43.78877" lon="0.82584">
        <ele>138.57</ele>
        <time>2015-01-04T16:00:01Z</time>
      </trkpt>
      <trkpt lat="43.78896" lon="0.82598">
        <ele>140.01</ele>
        <time>2015-01-04T16:00:18Z</time>
      </trkpt>
      <trkpt lat="43.7892" lon="0.82614">
        <ele>142.41</ele>
        <time>2015-01-04T16:00:38Z</time>
      </trkpt>
      <trkpt lat="43.78936" lon="0.82627">
        <ele>147.7</ele>
        <time>2015-01-04T16:00:52Z</time>
      </trkpt>
      <trkpt lat="43.78949" lon="0.82637">
        <ele>149.14</ele>
        <time>2015-01-04T16:01:06Z</time>
      </trkpt>
      <trkpt lat="43.7897" lon="0.82652">
        <ele>149.14</ele>
        <time>2015-01-04T16:01:23Z</time>
      </trkpt>
      <trkpt lat="43.78988" lon="0.82667">
        <ele>147.7</ele>
        <time>2015-01-04T16:01:41Z</time>
      </trkpt>
      <trkpt lat="43.79007" lon="0.82685">
        <ele>150.58</ele>
        <time>2015-01-04T16:01:59Z</time>
      </trkpt>
      <trkpt lat="43.7903" lon="0.82703">
        <ele>152.03</ele>
        <time>2015-01-04T16:02:18Z</time>
      </trkpt>
      <trkpt lat="43.79043" lon="0.82712">
        <ele>151.06</ele>
        <time>2015-01-04T16:02:32Z</time>
      </trkpt>
      <trkpt lat="43.79066" lon="0.82725">
        <ele>149.14</ele>
        <time>2015-01-04T16:02:53Z</time>
      </trkpt>
      <trkpt lat="43.79087" lon="0.82735">
        <ele>147.22</ele>
        <time>2015-01-04T16:03:11Z</time>
      </trkpt>
      <trkpt lat="43.79111" lon="0.82744">
        <ele>146.26</ele>
        <time>2015-01-04T16:03:30Z</time>
      </trkpt>
      <trkpt lat="43.79126" lon="0.82748">
        <ele>146.74</ele>
        <time>2015-01-04T16:03:43Z</time>
      </trkpt>
      <trkpt lat="43.79135" lon="0.82747">
        <ele>145.3</ele>
        <time>2015-01-04T16:03:51Z</time>
      </trkpt>
      <trkpt lat="43.79155" lon="0.82739">
        <ele>144.34</ele>
        <time>2015-01-04T16:04:09Z</time>
      </trkpt>
      <trkpt lat="43.79163" lon="0.82733">
        <ele>143.85</ele>
        <time>2015-01-04T16:04:17Z</time>
      </trkpt>
      <trkpt lat="43.79176" lon="0.8271">
        <ele>142.41</ele>
        <time>2015-01-04T16:04:34Z</time>
      </trkpt>
      <trkpt lat="43.79184" lon="0.82681">
        <ele>142.89</ele>
        <time>2015-01-04T16:04:52Z</time>
      </trkpt>
      <trkpt lat="43.79186" lon="0.82671">
        <ele>142.41</ele>
        <time>2015-01-04T16:05:10Z</time>
      </trkpt>
      <trkpt lat="43.79189" lon="0.82654">
        <ele>144.34</ele>
        <time>2015-01-04T16:05:25Z</time>
      </trkpt>
      <trkpt lat="43.79197" lon="0.82613">
        <ele>148.66</ele>
        <time>2015-01-04T16:05:51Z</time>
      </trkpt>
      <trkpt lat="43.79198" lon="0.82606">
        <ele>146.26</ele>
        <time>2015-01-04T16:06:08Z</time>
      </trkpt>
      <trkpt lat="43.79198" lon="0.82608">
        <ele>147.7</ele>
        <time>2015-01-04T16:06:31Z</time>
      </trkpt>
      <trkpt lat="43.79198" lon="0.82608">
        <ele>148.18</ele>
        <time>2015-01-04T16:06:44Z</time>
      </trkpt>
      <trkpt lat="43.79198" lon="0.82609">
        <ele>148.18</ele>
        <time>2015-01-04T16:06:59Z</time>
      </trkpt>
      <trkpt lat="43.79197" lon="0.8261">
        <ele>149.14</ele>
        <time>2015-01-04T16:07:18Z</time>
      </trkpt>
      <trkpt lat="43.79197" lon="0.82609">
        <ele>147.22</ele>
        <time>2015-01-04T16:07:41Z</time>
      </trkpt>
      <trkpt lat="43.79198" lon="0.8261">
        <ele>148.18</ele>
        <time>2015-01-04T16:07:59Z</time>
      </trkpt>
      <trkpt lat="43.79198" lon="0.82611">
        <ele>149.14</ele>
        <time>2015-01-04T16:08:21Z</time>
      </trkpt>
      <trkpt lat="43.79199" lon="0.82611">
        <ele>148.18</ele>
        <time>2015-01-04T16:08:47Z</time>
      </trkpt>
      <trkpt lat="43.79202" lon="0.82592">
        <ele>146.26</ele>
        <time>2015-01-04T16:09:04Z</time>
      </trkpt>
      <trkpt lat="43.79215" lon="0.82564">
        <ele>145.3</ele>
        <time>2015-01-04T16:09:23Z</time>
      </trkpt>
      <trkpt lat="43.79234" lon="0.82538">
        <ele>142.89</ele>
        <time>2015-01-04T16:09:42Z</time>
      </trkpt>
      <trkpt lat="43.79252" lon="0.8252">
        <ele>142.41</ele>
        <time>2015-01-04T16:09:59Z</time>
      </trkpt>
      <trkpt lat="43.79271" lon="0.82502">
        <ele>144.34</ele>
        <time>2015-01-04T16:10:16Z</time>
      </trkpt>
      <trkpt lat="43.7929" lon="0.82482">
        <ele>146.74</ele>
        <time>2015-01-04T16:10:35Z</time>
      </trkpt>
      <trkpt lat="43.79306" lon="0.8246">
        <ele>149.14</ele>
        <time>2015-01-04T16:10:53Z</time>
      </trkpt>
      <trkpt lat="43.79315" lon="0.8245">
        <ele>150.58</ele>
        <time>2015-01-04T16:11:10Z</time>
      </trkpt>
      <trkpt lat="43.79316" lon="0.8245">
        <ele>150.58</ele>
        <time>2015-01-04T16:11:12Z</time>
      </trkpt>
      <trkpt lat="43.79339" lon="0.82457">
        <ele>154.91</ele>
        <time>2015-01-04T16:11:33Z</time>
      </trkpt>
      <trkpt lat="43.79358" lon="0.82465">
        <ele>155.87</ele>
        <time>2015-01-04T16:11:49Z</time>
      </trkpt>
      <trkpt lat="43.7938" lon="0.82478">
        <ele>156.83</ele>
        <time>2015-01-04T16:12:09Z</time>
      </trkpt>
      <trkpt lat="43.79382" lon="0.82479">
        <ele>157.31</ele>
        <time>2015-01-04T16:12:10Z</time>
      </trkpt>
      <trkpt lat="43.79394" lon="0.82482">
        <ele>156.83</ele>
        <time>2015-01-04T16:12:22Z</time>
      </trkpt>
      <trkpt lat="43.79404" lon="0.82455">
        <ele>155.39</ele>
        <time>2015-01-04T16:12:42Z</time>
      </trkpt>
      <trkpt lat="43.79408" lon="0.82442">
        <ele>152.99</ele>
        <time>2015-01-04T16:12:56Z</time>
      </trkpt>
      <trkpt lat="43.79412" lon="0.82426">
        <ele>152.99</ele>
        <time>2015-01-04T16:13:08Z</time>
      </trkpt>
      <trkpt lat="43.7942" lon="0.824">
        <ele>153.95</ele>
        <time>2015-01-04T16:13:24Z</time>
      </trkpt>
      <trkpt lat="43.79428" lon="0.82374">
        <ele>153.47</ele>
        <time>2015-01-04T16:13:39Z</time>
      </trkpt>
      <trkpt lat="43.79436" lon="0.82344">
        <ele>152.99</ele>
        <time>2015-01-04T16:13:57Z</time>
      </trkpt>
      <trkpt lat="43.79437" lon="0.82339">
        <ele>152.51</ele>
        <time>2015-01-04T16:14:00Z</time>
      </trkpt>
      <trkpt lat="43.79439" lon="0.82333">
        <ele>152.03</ele>
        <time>2015-01-04T16:14:04Z</time>
      </trkpt>
      <trkpt lat="43.79445" lon="0.82307">
        <ele>152.03</ele>
        <time>2015-01-04T16:14:20Z</time>
      </trkpt>
      <trkpt lat="43.79452" lon="0.82287">
        <ele>150.58</ele>
        <time>2015-01-04T16:14:33Z</time>
      </trkpt>
      <trkpt lat="43.79452" lon="0.82279">
        <ele>149.62</ele>
        <time>2015-01-04T16:14:38Z</time>
      </trkpt>
      <trkpt lat="43.79458" lon="0.82264">
        <ele>149.62</ele>
        <time>2015-01-04T16:14:48Z</time>
      </trkpt>
      <trkpt lat="43.79461" lon="0.82253">
        <ele>148.66</ele>
        <time>2015-01-04T16:14:54Z</time>
      </trkpt>
      <trkpt lat="43.79465" lon="0.82245">
        <ele>147.22</ele>
        <time>2015-01-04T16:15:00Z</time>
      </trkpt>
      <trkpt lat="43.79471" lon="0.82234">
        <ele>143.85</ele>
        <time>2015-01-04T16:15:10Z</time>
      </trkpt>
      <trkpt lat="43.79482" lon="0.82233">
        <ele>141.93</ele>
        <time>2015-01-04T16:15:21Z</time>
      </trkpt>
      <trkpt lat="43.79485" lon="0.82225">
        <ele>143.37</ele>
        <time>2015-01-04T16:15:25Z</time>
      </trkpt>
      <trkpt lat="43.79501" lon="0.8221">
        <ele>146.26</ele>
        <time>2015-01-04T16:15:42Z</time>
      </trkpt>
      <trkpt lat="43.7951" lon="0.82197">
        <ele>148.18</ele>
        <time>2015-01-04T16:15:57Z</time>
      </trkpt>
      <trkpt lat="43.79508" lon="0.82202">
        <ele>147.7</ele>
        <time>2015-01-04T16:16:12Z</time>
      </trkpt>
      <trkpt lat="43.79506" lon="0.82206">
        <ele>148.66</ele>
        <time>2015-01-04T16:16:29Z</time>
      </trkpt>
      <trkpt lat="43.79506" lon="0.82207">
        <ele>151.54</ele>
        <time>2015-01-04T16:16:50Z</time>
      </trkpt>
      <trkpt lat="43.79506" lon="0.82206">
        <ele>153.95</ele>
        <time>2015-01-04T16:17:17Z</time>
      </trkpt>
      <trkpt lat="43.79507" lon="0.82207">
        <ele>155.39</ele>
        <time>2015-01-04T16:17:53Z</time>
      </trkpt>
      <trkpt lat="43.79506" lon="0.82205">
        <ele>153.47</ele>
        <time>2015-01-04T16:18:23Z</time>
      </trkpt>
      <trkpt lat="43.79506" lon="0.82207">
        <ele>152.99</ele>
        <time>2015-01-04T16:19:02Z</time>
      </trkpt>
      <trkpt lat="43.79503" lon="0.82205">
        <ele>156.83</ele>
        <time>2015-01-04T16:19:45Z</time>
      </trkpt>
      <trkpt lat="43.79503" lon="0.82201">
        <ele>153.95</ele>
        <time>2015-01-04T16:20:25Z</time>
      </trkpt>
      <trkpt lat="43.79504" lon="0.82202">
        <ele>153.47</ele>
        <time>2015-01-04T16:21:06Z</time>
      </trkpt>
      <trkpt lat="43.79503" lon="0.82205">
        <ele>152.99</ele>
        <time>2015-01-04T16:21:41Z</time>
      </trkpt>
      <trkpt lat="43.79503" lon="0.82203">
        <ele>149.62</ele>
        <time>2015-01-04T16:22:20Z</time>
      </trkpt>
      <trkpt lat="43.79504" lon="0.82203">
        <ele>150.1</ele>
        <time>2015-01-04T16:23:05Z</time>
      </trkpt>
      <trkpt lat="43.79508" lon="0.82204">
        <ele>151.54</ele>
        <time>2015-01-04T16:23:41Z</time>
      </trkpt>
      <trkpt lat="43.79504" lon="0.82204">
        <ele>153.47</ele>
        <time>2015-01-04T16:24:19Z</time>
      </trkpt>
      <trkpt lat="43.79501" lon="0.82203">
        <ele>156.83</ele>
        <time>2015-01-04T16:24:55Z</time>
      </trkpt>
      <trkpt lat="43.795" lon="0.82206">
        <ele>160.68</ele>
        <time>2015-01-04T16:25:29Z</time>
      </trkpt>
      <trkpt lat="43.795" lon="0.82209">
        <ele>163.56</ele>
        <time>2015-01-04T16:26:04Z</time>
      </trkpt>
      <trkpt lat="43.795" lon="0.82208">
        <ele>162.6</ele>
        <time>2015-01-04T16:26:50Z</time>
      </trkpt>
      <trkpt lat="43.795" lon="0.82207">
        <ele>162.12</ele>
        <time>2015-01-04T16:27:18Z</time>
      </trkpt>
      <trkpt lat="43.79499" lon="0.82209">
        <ele>159.24</ele>
        <time>2015-01-04T16:27:53Z</time>
      </trkpt>
      <trkpt lat="43.79504" lon="0.82206">
        <ele>157.79</ele>
        <time>2015-01-04T16:28:31Z</time>
      </trkpt>
      <trkpt lat="43.79502" lon="0.82209">
        <ele>159.72</ele>
        <time>2015-01-04T16:29:06Z</time>
      </trkpt>
      <trkpt lat="43.79501" lon="0.82207">
        <ele>159.24</ele>
        <time>2015-01-04T16:29:38Z</time>
      </trkpt>
      <trkpt lat="43.795" lon="0.82204">
        <ele>164.04</ele>
        <time>2015-01-04T16:30:13Z</time>
      </trkpt>
      <trkpt lat="43.79497" lon="0.82208">
        <ele>171.73</ele>
        <time>2015-01-04T16:30:48Z</time>
      </trkpt>
      <trkpt lat="43.79499" lon="0.82205">
        <ele>168.85</ele>
        <time>2015-01-04T16:31:09Z</time>
      </trkpt>
    </trkseg>
  </trk>
</gpx>